<?xml version="1.0" encoding="UTF-8" standalone="no" ?>
<gpx xmlns="http://www.topografix.com/GPX/1/1" xmlns:xsi="http://www.w3.org/2001/XMLSchema-instance" xsi:schemaLocation="http://www.topografix.com/GPX/1/1 http://www.topografix.com/GPX/1/1/gpx.xsd" version="1.1" creator="VisuGPX - https://www.visugpx.com">
  <metadata>
    <name>Gap col des Guerins par petites routes vu les sous bois détrempés </name>
    <desc><![CDATA[
Vu les sous bois détrempés boueux ou gelés , pour sortir quand même , par petites routes goudronnées , un circuit VAE par une glaciale  et humide journée de janvier , serait beaucoup plus sympa par beau temps 
]]></desc>
  </metadata>
  <trk>
    <name><![CDATA[n°4-20  27/01/2020 11:17:12]]></name>
    <trkseg>
      <trkpt lat="44.55868" lon="6.07505">
        <ele>870.4000244</ele>
        <time>2020-01-27T10:17:12Z</time>
      </trkpt>
      <trkpt lat="44.55868" lon="6.07506">
        <ele>870.4000244</ele>
        <time>2020-01-27T10:17:30Z</time>
      </trkpt>
      <trkpt lat="44.55861" lon="6.07496">
        <ele>870.4000244</ele>
        <time>2020-01-27T10:17:35Z</time>
      </trkpt>
      <trkpt lat="44.55859" lon="6.07494">
        <ele>870.4000244</ele>
        <time>2020-01-27T10:17:36Z</time>
      </trkpt>
      <trkpt lat="44.55857" lon="6.07491">
        <ele>870.4000244</ele>
        <time>2020-01-27T10:17:37Z</time>
      </trkpt>
      <trkpt lat="44.55843" lon="6.07469">
        <ele>869.7999878</ele>
        <time>2020-01-27T10:17:44Z</time>
      </trkpt>
      <trkpt lat="44.55821" lon="6.07458">
        <ele>869.4000244</ele>
        <time>2020-01-27T10:17:49Z</time>
      </trkpt>
      <trkpt lat="44.55815" lon="6.07457">
        <ele>869.2000122</ele>
        <time>2020-01-27T10:17:50Z</time>
      </trkpt>
      <trkpt lat="44.5581" lon="6.07457">
        <ele>869.2000122</ele>
        <time>2020-01-27T10:17:51Z</time>
      </trkpt>
      <trkpt lat="44.55806" lon="6.07456">
        <ele>869.2000122</ele>
        <time>2020-01-27T10:17:52Z</time>
      </trkpt>
      <trkpt lat="44.55803" lon="6.07458">
        <ele>869</ele>
        <time>2020-01-27T10:17:53Z</time>
      </trkpt>
      <trkpt lat="44.55799" lon="6.0746">
        <ele>869</ele>
        <time>2020-01-27T10:17:54Z</time>
      </trkpt>
      <trkpt lat="44.55793" lon="6.07461">
        <ele>869</ele>
        <time>2020-01-27T10:17:55Z</time>
      </trkpt>
      <trkpt lat="44.55788" lon="6.07461">
        <ele>869</ele>
        <time>2020-01-27T10:17:56Z</time>
      </trkpt>
      <trkpt lat="44.55755" lon="6.07469">
        <ele>867.5999756</ele>
        <time>2020-01-27T10:18:02Z</time>
      </trkpt>
      <trkpt lat="44.5575" lon="6.07474">
        <ele>867.4000244</ele>
        <time>2020-01-27T10:18:03Z</time>
      </trkpt>
      <trkpt lat="44.55746" lon="6.07476">
        <ele>867.2000122</ele>
        <time>2020-01-27T10:18:04Z</time>
      </trkpt>
      <trkpt lat="44.55742" lon="6.07482">
        <ele>866.7999878</ele>
        <time>2020-01-27T10:18:05Z</time>
      </trkpt>
      <trkpt lat="44.55739" lon="6.07489">
        <ele>866.5999756</ele>
        <time>2020-01-27T10:18:06Z</time>
      </trkpt>
      <trkpt lat="44.55736" lon="6.07495">
        <ele>866.2000122</ele>
        <time>2020-01-27T10:18:07Z</time>
      </trkpt>
      <trkpt lat="44.55727" lon="6.07514">
        <ele>865.5999756</ele>
        <time>2020-01-27T10:18:10Z</time>
      </trkpt>
      <trkpt lat="44.55688" lon="6.07587">
        <ele>862.5999756</ele>
        <time>2020-01-27T10:18:22Z</time>
      </trkpt>
      <trkpt lat="44.55659" lon="6.07638">
        <ele>860</ele>
        <time>2020-01-27T10:18:33Z</time>
      </trkpt>
      <trkpt lat="44.55656" lon="6.07636">
        <ele>859.7999878</ele>
        <time>2020-01-27T10:18:34Z</time>
      </trkpt>
      <trkpt lat="44.55653" lon="6.07633">
        <ele>859.4000244</ele>
        <time>2020-01-27T10:18:35Z</time>
      </trkpt>
      <trkpt lat="44.5565" lon="6.07629">
        <ele>859.2000122</ele>
        <time>2020-01-27T10:18:36Z</time>
      </trkpt>
      <trkpt lat="44.55647" lon="6.07626">
        <ele>859.2000122</ele>
        <time>2020-01-27T10:18:37Z</time>
      </trkpt>
      <trkpt lat="44.5563" lon="6.07611">
        <ele>859</ele>
        <time>2020-01-27T10:18:42Z</time>
      </trkpt>
      <trkpt lat="44.55626" lon="6.07607">
        <ele>859</ele>
        <time>2020-01-27T10:18:43Z</time>
      </trkpt>
      <trkpt lat="44.55623" lon="6.07604">
        <ele>859</ele>
        <time>2020-01-27T10:18:44Z</time>
      </trkpt>
      <trkpt lat="44.5562" lon="6.076">
        <ele>858.7999878</ele>
        <time>2020-01-27T10:18:45Z</time>
      </trkpt>
      <trkpt lat="44.55616" lon="6.07595">
        <ele>858.7999878</ele>
        <time>2020-01-27T10:18:46Z</time>
      </trkpt>
      <trkpt lat="44.55613" lon="6.07591">
        <ele>858.7999878</ele>
        <time>2020-01-27T10:18:47Z</time>
      </trkpt>
      <trkpt lat="44.55572" lon="6.07542">
        <ele>858.4000244</ele>
        <time>2020-01-27T10:18:59Z</time>
      </trkpt>
      <trkpt lat="44.55563" lon="6.07529">
        <ele>858.2000122</ele>
        <time>2020-01-27T10:19:02Z</time>
      </trkpt>
      <trkpt lat="44.5551" lon="6.07478">
        <ele>857.5999756</ele>
        <time>2020-01-27T10:19:16Z</time>
      </trkpt>
      <trkpt lat="44.55488" lon="6.07449">
        <ele>858.2000122</ele>
        <time>2020-01-27T10:19:24Z</time>
      </trkpt>
      <trkpt lat="44.55481" lon="6.07442">
        <ele>858.5999756</ele>
        <time>2020-01-27T10:19:26Z</time>
      </trkpt>
      <trkpt lat="44.55467" lon="6.07422">
        <ele>858.7999878</ele>
        <time>2020-01-27T10:19:32Z</time>
      </trkpt>
      <trkpt lat="44.55465" lon="6.07421">
        <ele>859</ele>
        <time>2020-01-27T10:19:33Z</time>
      </trkpt>
      <trkpt lat="44.55462" lon="6.07418">
        <ele>859</ele>
        <time>2020-01-27T10:19:34Z</time>
      </trkpt>
      <trkpt lat="44.5546" lon="6.07415">
        <ele>859</ele>
        <time>2020-01-27T10:19:35Z</time>
      </trkpt>
      <trkpt lat="44.55457" lon="6.07412">
        <ele>859</ele>
        <time>2020-01-27T10:19:36Z</time>
      </trkpt>
      <trkpt lat="44.55454" lon="6.07409">
        <ele>859.2000122</ele>
        <time>2020-01-27T10:19:37Z</time>
      </trkpt>
      <trkpt lat="44.55427" lon="6.07377">
        <ele>859.4000244</ele>
        <time>2020-01-27T10:19:47Z</time>
      </trkpt>
      <trkpt lat="44.55418" lon="6.07369">
        <ele>859.5999756</ele>
        <time>2020-01-27T10:19:52Z</time>
      </trkpt>
      <trkpt lat="44.55407" lon="6.07353">
        <ele>860</ele>
        <time>2020-01-27T10:19:57Z</time>
      </trkpt>
      <trkpt lat="44.55404" lon="6.0735">
        <ele>860</ele>
        <time>2020-01-27T10:19:58Z</time>
      </trkpt>
      <trkpt lat="44.554" lon="6.07346">
        <ele>860.2000122</ele>
        <time>2020-01-27T10:19:59Z</time>
      </trkpt>
      <trkpt lat="44.55397" lon="6.07344">
        <ele>860.2000122</ele>
        <time>2020-01-27T10:20:00Z</time>
      </trkpt>
      <trkpt lat="44.55393" lon="6.07341">
        <ele>860.2000122</ele>
        <time>2020-01-27T10:20:01Z</time>
      </trkpt>
      <trkpt lat="44.55365" lon="6.07317">
        <ele>860.5999756</ele>
        <time>2020-01-27T10:20:10Z</time>
      </trkpt>
      <trkpt lat="44.55355" lon="6.07297">
        <ele>860.7999878</ele>
        <time>2020-01-27T10:20:14Z</time>
      </trkpt>
      <trkpt lat="44.55328" lon="6.07265">
        <ele>861.2000122</ele>
        <time>2020-01-27T10:20:24Z</time>
      </trkpt>
      <trkpt lat="44.55328" lon="6.07261">
        <ele>861.2000122</ele>
        <time>2020-01-27T10:20:25Z</time>
      </trkpt>
      <trkpt lat="44.55327" lon="6.07258">
        <ele>861.2000122</ele>
        <time>2020-01-27T10:20:26Z</time>
      </trkpt>
      <trkpt lat="44.55326" lon="6.07254">
        <ele>861.4000244</ele>
        <time>2020-01-27T10:20:27Z</time>
      </trkpt>
      <trkpt lat="44.55324" lon="6.0725">
        <ele>861.4000244</ele>
        <time>2020-01-27T10:20:28Z</time>
      </trkpt>
      <trkpt lat="44.55323" lon="6.07247">
        <ele>861.4000244</ele>
        <time>2020-01-27T10:20:29Z</time>
      </trkpt>
      <trkpt lat="44.55321" lon="6.07243">
        <ele>861.4000244</ele>
        <time>2020-01-27T10:20:30Z</time>
      </trkpt>
      <trkpt lat="44.55318" lon="6.0724">
        <ele>861.4000244</ele>
        <time>2020-01-27T10:20:31Z</time>
      </trkpt>
      <trkpt lat="44.55315" lon="6.07237">
        <ele>861.4000244</ele>
        <time>2020-01-27T10:20:32Z</time>
      </trkpt>
      <trkpt lat="44.55312" lon="6.07235">
        <ele>861.4000244</ele>
        <time>2020-01-27T10:20:33Z</time>
      </trkpt>
      <trkpt lat="44.55309" lon="6.07232">
        <ele>861.4000244</ele>
        <time>2020-01-27T10:20:34Z</time>
      </trkpt>
      <trkpt lat="44.55306" lon="6.07228">
        <ele>861.4000244</ele>
        <time>2020-01-27T10:20:35Z</time>
      </trkpt>
      <trkpt lat="44.55287" lon="6.07206">
        <ele>861.5999756</ele>
        <time>2020-01-27T10:20:41Z</time>
      </trkpt>
      <trkpt lat="44.55268" lon="6.07186">
        <ele>861.7999878</ele>
        <time>2020-01-27T10:20:47Z</time>
      </trkpt>
      <trkpt lat="44.55247" lon="6.07152">
        <ele>861.7999878</ele>
        <time>2020-01-27T10:20:56Z</time>
      </trkpt>
      <trkpt lat="44.55216" lon="6.07121">
        <ele>862.5999756</ele>
        <time>2020-01-27T10:21:06Z</time>
      </trkpt>
      <trkpt lat="44.55185" lon="6.07084">
        <ele>864</ele>
        <time>2020-01-27T10:21:18Z</time>
      </trkpt>
      <trkpt lat="44.55152" lon="6.07043">
        <ele>864.2000122</ele>
        <time>2020-01-27T10:21:31Z</time>
      </trkpt>
      <trkpt lat="44.55142" lon="6.0703">
        <ele>864.2000122</ele>
        <time>2020-01-27T10:21:36Z</time>
      </trkpt>
      <trkpt lat="44.5514" lon="6.07028">
        <ele>864.2000122</ele>
        <time>2020-01-27T10:21:37Z</time>
      </trkpt>
      <trkpt lat="44.55106" lon="6.06986">
        <ele>864.7999878</ele>
        <time>2020-01-27T10:21:49Z</time>
      </trkpt>
      <trkpt lat="44.55069" lon="6.06942">
        <ele>865.4000244</ele>
        <time>2020-01-27T10:22:02Z</time>
      </trkpt>
      <trkpt lat="44.55025" lon="6.06889">
        <ele>866.2000122</ele>
        <time>2020-01-27T10:22:18Z</time>
      </trkpt>
      <trkpt lat="44.54999" lon="6.06851">
        <ele>866.4000244</ele>
        <time>2020-01-27T10:22:28Z</time>
      </trkpt>
      <trkpt lat="44.54968" lon="6.06815">
        <ele>866.4000244</ele>
        <time>2020-01-27T10:22:40Z</time>
      </trkpt>
      <trkpt lat="44.54948" lon="6.06791">
        <ele>866.2000122</ele>
        <time>2020-01-27T10:22:47Z</time>
      </trkpt>
      <trkpt lat="44.54945" lon="6.06786">
        <ele>866.2000122</ele>
        <time>2020-01-27T10:22:48Z</time>
      </trkpt>
      <trkpt lat="44.54906" lon="6.06738">
        <ele>866.2000122</ele>
        <time>2020-01-27T10:23:02Z</time>
      </trkpt>
      <trkpt lat="44.54876" lon="6.06695">
        <ele>866</ele>
        <time>2020-01-27T10:23:13Z</time>
      </trkpt>
      <trkpt lat="44.54835" lon="6.06647">
        <ele>866.2000122</ele>
        <time>2020-01-27T10:23:26Z</time>
      </trkpt>
      <trkpt lat="44.54773" lon="6.06579">
        <ele>866.4000244</ele>
        <time>2020-01-27T10:23:46Z</time>
      </trkpt>
      <trkpt lat="44.54731" lon="6.06532">
        <ele>866</ele>
        <time>2020-01-27T10:24:01Z</time>
      </trkpt>
      <trkpt lat="44.54675" lon="6.06464">
        <ele>866</ele>
        <time>2020-01-27T10:24:21Z</time>
      </trkpt>
      <trkpt lat="44.54621" lon="6.06388">
        <ele>866</ele>
        <time>2020-01-27T10:24:42Z</time>
      </trkpt>
      <trkpt lat="44.54618" lon="6.06385">
        <ele>866</ele>
        <time>2020-01-27T10:24:43Z</time>
      </trkpt>
      <trkpt lat="44.54615" lon="6.06381">
        <ele>866.2000122</ele>
        <time>2020-01-27T10:24:44Z</time>
      </trkpt>
      <trkpt lat="44.54612" lon="6.06378">
        <ele>866.2000122</ele>
        <time>2020-01-27T10:24:45Z</time>
      </trkpt>
      <trkpt lat="44.54581" lon="6.06335">
        <ele>866.4000244</ele>
        <time>2020-01-27T10:24:59Z</time>
      </trkpt>
      <trkpt lat="44.54566" lon="6.06293">
        <ele>867.4000244</ele>
        <time>2020-01-27T10:25:11Z</time>
      </trkpt>
      <trkpt lat="44.54535" lon="6.06276">
        <ele>868</ele>
        <time>2020-01-27T10:25:21Z</time>
      </trkpt>
      <trkpt lat="44.545" lon="6.06235">
        <ele>868.4000244</ele>
        <time>2020-01-27T10:25:36Z</time>
      </trkpt>
      <trkpt lat="44.54468" lon="6.06196">
        <ele>868.7999878</ele>
        <time>2020-01-27T10:25:48Z</time>
      </trkpt>
      <trkpt lat="44.5443" lon="6.06149">
        <ele>869</ele>
        <time>2020-01-27T10:26:02Z</time>
      </trkpt>
      <trkpt lat="44.54406" lon="6.06122">
        <ele>869</ele>
        <time>2020-01-27T10:26:10Z</time>
      </trkpt>
      <trkpt lat="44.544" lon="6.06115">
        <ele>869</ele>
        <time>2020-01-27T10:26:12Z</time>
      </trkpt>
      <trkpt lat="44.54396" lon="6.06111">
        <ele>869</ele>
        <time>2020-01-27T10:26:13Z</time>
      </trkpt>
      <trkpt lat="44.54342" lon="6.06044">
        <ele>866.2000122</ele>
        <time>2020-01-27T10:26:28Z</time>
      </trkpt>
      <trkpt lat="44.54332" lon="6.06031">
        <ele>866</ele>
        <time>2020-01-27T10:26:31Z</time>
      </trkpt>
      <trkpt lat="44.54322" lon="6.06017">
        <ele>865.4000244</ele>
        <time>2020-01-27T10:26:34Z</time>
      </trkpt>
      <trkpt lat="44.54319" lon="6.06013">
        <ele>865.2000122</ele>
        <time>2020-01-27T10:26:35Z</time>
      </trkpt>
      <trkpt lat="44.54307" lon="6.06002">
        <ele>864.7999878</ele>
        <time>2020-01-27T10:26:38Z</time>
      </trkpt>
      <trkpt lat="44.54257" lon="6.05938">
        <ele>863.5999756</ele>
        <time>2020-01-27T10:26:55Z</time>
      </trkpt>
      <trkpt lat="44.54233" lon="6.05906">
        <ele>864.4000244</ele>
        <time>2020-01-27T10:27:06Z</time>
      </trkpt>
      <trkpt lat="44.54199" lon="6.05862">
        <ele>866.2000122</ele>
        <time>2020-01-27T10:27:21Z</time>
      </trkpt>
      <trkpt lat="44.54168" lon="6.05828">
        <ele>867.4000244</ele>
        <time>2020-01-27T10:27:34Z</time>
      </trkpt>
      <trkpt lat="44.54141" lon="6.05796">
        <ele>869</ele>
        <time>2020-01-27T10:27:47Z</time>
      </trkpt>
      <trkpt lat="44.54112" lon="6.05767">
        <ele>870.5999756</ele>
        <time>2020-01-27T10:28:00Z</time>
      </trkpt>
      <trkpt lat="44.54075" lon="6.05722">
        <ele>872.2000122</ele>
        <time>2020-01-27T10:28:17Z</time>
      </trkpt>
      <trkpt lat="44.54037" lon="6.05673">
        <ele>874.2000122</ele>
        <time>2020-01-27T10:28:34Z</time>
      </trkpt>
      <trkpt lat="44.54004" lon="6.05636">
        <ele>876</ele>
        <time>2020-01-27T10:28:48Z</time>
      </trkpt>
      <trkpt lat="44.53965" lon="6.05585">
        <ele>878.4000244</ele>
        <time>2020-01-27T10:29:06Z</time>
      </trkpt>
      <trkpt lat="44.53921" lon="6.05528">
        <ele>881</ele>
        <time>2020-01-27T10:29:27Z</time>
      </trkpt>
      <trkpt lat="44.53886" lon="6.05488">
        <ele>883.2000122</ele>
        <time>2020-01-27T10:29:43Z</time>
      </trkpt>
      <trkpt lat="44.53848" lon="6.05439">
        <ele>885.2000122</ele>
        <time>2020-01-27T10:30:00Z</time>
      </trkpt>
      <trkpt lat="44.53803" lon="6.05382">
        <ele>888</ele>
        <time>2020-01-27T10:30:21Z</time>
      </trkpt>
      <trkpt lat="44.53759" lon="6.05316">
        <ele>890</ele>
        <time>2020-01-27T10:30:44Z</time>
      </trkpt>
      <trkpt lat="44.53775" lon="6.05282">
        <ele>891.2000122</ele>
        <time>2020-01-27T10:30:55Z</time>
      </trkpt>
      <trkpt lat="44.53787" lon="6.05229">
        <ele>893.2000122</ele>
        <time>2020-01-27T10:31:10Z</time>
      </trkpt>
      <trkpt lat="44.53797" lon="6.05182">
        <ele>894.4000244</ele>
        <time>2020-01-27T10:31:24Z</time>
      </trkpt>
      <trkpt lat="44.53797" lon="6.05179">
        <ele>894.5999756</ele>
        <time>2020-01-27T10:31:25Z</time>
      </trkpt>
      <trkpt lat="44.53797" lon="6.05176">
        <ele>894.5999756</ele>
        <time>2020-01-27T10:31:26Z</time>
      </trkpt>
      <trkpt lat="44.53796" lon="6.05172">
        <ele>894.5999756</ele>
        <time>2020-01-27T10:31:27Z</time>
      </trkpt>
      <trkpt lat="44.53794" lon="6.05169">
        <ele>894.7999878</ele>
        <time>2020-01-27T10:31:28Z</time>
      </trkpt>
      <trkpt lat="44.53792" lon="6.05167">
        <ele>895</ele>
        <time>2020-01-27T10:31:29Z</time>
      </trkpt>
      <trkpt lat="44.53789" lon="6.05165">
        <ele>895</ele>
        <time>2020-01-27T10:31:30Z</time>
      </trkpt>
      <trkpt lat="44.53786" lon="6.05163">
        <ele>895</ele>
        <time>2020-01-27T10:31:31Z</time>
      </trkpt>
      <trkpt lat="44.53784" lon="6.0516">
        <ele>895</ele>
        <time>2020-01-27T10:31:32Z</time>
      </trkpt>
      <trkpt lat="44.53782" lon="6.05157">
        <ele>895.2000122</ele>
        <time>2020-01-27T10:31:33Z</time>
      </trkpt>
      <trkpt lat="44.5377" lon="6.05142">
        <ele>895.2000122</ele>
        <time>2020-01-27T10:31:39Z</time>
      </trkpt>
      <trkpt lat="44.5377" lon="6.05138">
        <ele>895.2000122</ele>
        <time>2020-01-27T10:31:40Z</time>
      </trkpt>
      <trkpt lat="44.5377" lon="6.05135">
        <ele>895.4000244</ele>
        <time>2020-01-27T10:31:41Z</time>
      </trkpt>
      <trkpt lat="44.5377" lon="6.05131">
        <ele>895.4000244</ele>
        <time>2020-01-27T10:31:42Z</time>
      </trkpt>
      <trkpt lat="44.5377" lon="6.05127">
        <ele>895.4000244</ele>
        <time>2020-01-27T10:31:43Z</time>
      </trkpt>
      <trkpt lat="44.5377" lon="6.0508">
        <ele>896.2000122</ele>
        <time>2020-01-27T10:31:56Z</time>
      </trkpt>
      <trkpt lat="44.53765" lon="6.05025">
        <ele>897</ele>
        <time>2020-01-27T10:32:10Z</time>
      </trkpt>
      <trkpt lat="44.5374" lon="6.04963">
        <ele>896.5999756</ele>
        <time>2020-01-27T10:32:26Z</time>
      </trkpt>
      <trkpt lat="44.53727" lon="6.04947">
        <ele>896</ele>
        <time>2020-01-27T10:32:30Z</time>
      </trkpt>
      <trkpt lat="44.53724" lon="6.04942">
        <ele>896</ele>
        <time>2020-01-27T10:32:31Z</time>
      </trkpt>
      <trkpt lat="44.53702" lon="6.0492">
        <ele>894</ele>
        <time>2020-01-27T10:32:40Z</time>
      </trkpt>
      <trkpt lat="44.53663" lon="6.04864">
        <ele>892.4000244</ele>
        <time>2020-01-27T10:32:54Z</time>
      </trkpt>
      <trkpt lat="44.53637" lon="6.04815">
        <ele>891</ele>
        <time>2020-01-27T10:33:05Z</time>
      </trkpt>
      <trkpt lat="44.53604" lon="6.04755">
        <ele>889.5999756</ele>
        <time>2020-01-27T10:33:18Z</time>
      </trkpt>
      <trkpt lat="44.53559" lon="6.04674">
        <ele>888</ele>
        <time>2020-01-27T10:33:36Z</time>
      </trkpt>
      <trkpt lat="44.53521" lon="6.04617">
        <ele>887.2000122</ele>
        <time>2020-01-27T10:33:51Z</time>
      </trkpt>
      <trkpt lat="44.53475" lon="6.04542">
        <ele>886.7999878</ele>
        <time>2020-01-27T10:34:09Z</time>
      </trkpt>
      <trkpt lat="44.53436" lon="6.04493">
        <ele>887.4000244</ele>
        <time>2020-01-27T10:34:24Z</time>
      </trkpt>
      <trkpt lat="44.53403" lon="6.04457">
        <ele>887.5999756</ele>
        <time>2020-01-27T10:34:37Z</time>
      </trkpt>
      <trkpt lat="44.53361" lon="6.04412">
        <ele>887.4000244</ele>
        <time>2020-01-27T10:34:52Z</time>
      </trkpt>
      <trkpt lat="44.53316" lon="6.04371">
        <ele>887.7999878</ele>
        <time>2020-01-27T10:35:07Z</time>
      </trkpt>
      <trkpt lat="44.53277" lon="6.04359">
        <ele>887</ele>
        <time>2020-01-27T10:35:17Z</time>
      </trkpt>
      <trkpt lat="44.53273" lon="6.04359">
        <ele>887</ele>
        <time>2020-01-27T10:35:18Z</time>
      </trkpt>
      <trkpt lat="44.53268" lon="6.0436">
        <ele>886.7999878</ele>
        <time>2020-01-27T10:35:19Z</time>
      </trkpt>
      <trkpt lat="44.53263" lon="6.04359">
        <ele>886.7999878</ele>
        <time>2020-01-27T10:35:20Z</time>
      </trkpt>
      <trkpt lat="44.53257" lon="6.04358">
        <ele>886.5999756</ele>
        <time>2020-01-27T10:35:21Z</time>
      </trkpt>
      <trkpt lat="44.53251" lon="6.04357">
        <ele>886.4000244</ele>
        <time>2020-01-27T10:35:22Z</time>
      </trkpt>
      <trkpt lat="44.53163" lon="6.04332">
        <ele>883.2000122</ele>
        <time>2020-01-27T10:35:35Z</time>
      </trkpt>
      <trkpt lat="44.53119" lon="6.04314">
        <ele>880.2000122</ele>
        <time>2020-01-27T10:35:41Z</time>
      </trkpt>
      <trkpt lat="44.531" lon="6.04306">
        <ele>878.5999756</ele>
        <time>2020-01-27T10:35:44Z</time>
      </trkpt>
      <trkpt lat="44.53039" lon="6.04271">
        <ele>876.7999878</ele>
        <time>2020-01-27T10:35:56Z</time>
      </trkpt>
      <trkpt lat="44.52949" lon="6.04212">
        <ele>874.5999756</ele>
        <time>2020-01-27T10:36:12Z</time>
      </trkpt>
      <trkpt lat="44.52893" lon="6.04178">
        <ele>871.4000244</ele>
        <time>2020-01-27T10:36:20Z</time>
      </trkpt>
      <trkpt lat="44.52836" lon="6.04144">
        <ele>868</ele>
        <time>2020-01-27T10:36:28Z</time>
      </trkpt>
      <trkpt lat="44.52783" lon="6.04122">
        <ele>865</ele>
        <time>2020-01-27T10:36:35Z</time>
      </trkpt>
      <trkpt lat="44.52729" lon="6.04102">
        <ele>861.7999878</ele>
        <time>2020-01-27T10:36:42Z</time>
      </trkpt>
      <trkpt lat="44.52668" lon="6.04073">
        <ele>858.5999756</ele>
        <time>2020-01-27T10:36:50Z</time>
      </trkpt>
      <trkpt lat="44.52618" lon="6.04027">
        <ele>855.4000244</ele>
        <time>2020-01-27T10:36:58Z</time>
      </trkpt>
      <trkpt lat="44.5255" lon="6.03954">
        <ele>853.7999878</ele>
        <time>2020-01-27T10:37:12Z</time>
      </trkpt>
      <trkpt lat="44.5251" lon="6.03914">
        <ele>853.2000122</ele>
        <time>2020-01-27T10:37:21Z</time>
      </trkpt>
      <trkpt lat="44.52447" lon="6.0387">
        <ele>853</ele>
        <time>2020-01-27T10:37:35Z</time>
      </trkpt>
      <trkpt lat="44.52351" lon="6.03822">
        <ele>852.4000244</ele>
        <time>2020-01-27T10:37:57Z</time>
      </trkpt>
      <trkpt lat="44.52269" lon="6.03766">
        <ele>851.7999878</ele>
        <time>2020-01-27T10:38:15Z</time>
      </trkpt>
      <trkpt lat="44.52195" lon="6.03692">
        <ele>850.2000122</ele>
        <time>2020-01-27T10:38:33Z</time>
      </trkpt>
      <trkpt lat="44.52133" lon="6.03649">
        <ele>850</ele>
        <time>2020-01-27T10:38:47Z</time>
      </trkpt>
      <trkpt lat="44.52049" lon="6.03631">
        <ele>849.4000244</ele>
        <time>2020-01-27T10:39:03Z</time>
      </trkpt>
      <trkpt lat="44.51937" lon="6.03599">
        <ele>847.5999756</ele>
        <time>2020-01-27T10:39:26Z</time>
      </trkpt>
      <trkpt lat="44.51856" lon="6.03563">
        <ele>847.7999878</ele>
        <time>2020-01-27T10:39:46Z</time>
      </trkpt>
      <trkpt lat="44.51852" lon="6.03561">
        <ele>847.7999878</ele>
        <time>2020-01-27T10:39:47Z</time>
      </trkpt>
      <trkpt lat="44.51795" lon="6.03529">
        <ele>848.4000244</ele>
        <time>2020-01-27T10:40:02Z</time>
      </trkpt>
      <trkpt lat="44.5179" lon="6.03529">
        <ele>848.4000244</ele>
        <time>2020-01-27T10:40:03Z</time>
      </trkpt>
      <trkpt lat="44.51712" lon="6.03543">
        <ele>847.2000122</ele>
        <time>2020-01-27T10:40:18Z</time>
      </trkpt>
      <trkpt lat="44.51639" lon="6.0353">
        <ele>845.5999756</ele>
        <time>2020-01-27T10:40:33Z</time>
      </trkpt>
      <trkpt lat="44.51559" lon="6.0351">
        <ele>845.5999756</ele>
        <time>2020-01-27T10:40:50Z</time>
      </trkpt>
      <trkpt lat="44.51488" lon="6.0349">
        <ele>845.4000244</ele>
        <time>2020-01-27T10:41:05Z</time>
      </trkpt>
      <trkpt lat="44.51484" lon="6.03489">
        <ele>845.4000244</ele>
        <time>2020-01-27T10:41:06Z</time>
      </trkpt>
      <trkpt lat="44.51422" lon="6.03454">
        <ele>847.4000244</ele>
        <time>2020-01-27T10:41:21Z</time>
      </trkpt>
      <trkpt lat="44.5136" lon="6.03397">
        <ele>849.4000244</ele>
        <time>2020-01-27T10:41:39Z</time>
      </trkpt>
      <trkpt lat="44.51312" lon="6.03361">
        <ele>852.4000244</ele>
        <time>2020-01-27T10:41:54Z</time>
      </trkpt>
      <trkpt lat="44.51278" lon="6.03343">
        <ele>855.4000244</ele>
        <time>2020-01-27T10:42:05Z</time>
      </trkpt>
      <trkpt lat="44.51241" lon="6.03327">
        <ele>858.5999756</ele>
        <time>2020-01-27T10:42:18Z</time>
      </trkpt>
      <trkpt lat="44.51202" lon="6.03307">
        <ele>861.5999756</ele>
        <time>2020-01-27T10:42:32Z</time>
      </trkpt>
      <trkpt lat="44.51148" lon="6.03279">
        <ele>863.7999878</ele>
        <time>2020-01-27T10:42:50Z</time>
      </trkpt>
      <trkpt lat="44.5109" lon="6.03245">
        <ele>864.4000244</ele>
        <time>2020-01-27T10:43:08Z</time>
      </trkpt>
      <trkpt lat="44.51078" lon="6.03232">
        <ele>864.4000244</ele>
        <time>2020-01-27T10:43:12Z</time>
      </trkpt>
      <trkpt lat="44.51074" lon="6.03228">
        <ele>864.2000122</ele>
        <time>2020-01-27T10:43:13Z</time>
      </trkpt>
      <trkpt lat="44.51057" lon="6.0321">
        <ele>864</ele>
        <time>2020-01-27T10:43:18Z</time>
      </trkpt>
      <trkpt lat="44.51054" lon="6.03205">
        <ele>864</ele>
        <time>2020-01-27T10:43:19Z</time>
      </trkpt>
      <trkpt lat="44.51051" lon="6.032">
        <ele>863.4000244</ele>
        <time>2020-01-27T10:43:20Z</time>
      </trkpt>
      <trkpt lat="44.50982" lon="6.03129">
        <ele>860</ele>
        <time>2020-01-27T10:43:34Z</time>
      </trkpt>
      <trkpt lat="44.50933" lon="6.03078">
        <ele>856.7999878</ele>
        <time>2020-01-27T10:43:44Z</time>
      </trkpt>
      <trkpt lat="44.509" lon="6.03019">
        <ele>856</ele>
        <time>2020-01-27T10:43:57Z</time>
      </trkpt>
      <trkpt lat="44.50878" lon="6.02964">
        <ele>857.5999756</ele>
        <time>2020-01-27T10:44:13Z</time>
      </trkpt>
      <trkpt lat="44.50856" lon="6.02918">
        <ele>859.5999756</ele>
        <time>2020-01-27T10:44:28Z</time>
      </trkpt>
      <trkpt lat="44.50829" lon="6.02878">
        <ele>862.5999756</ele>
        <time>2020-01-27T10:44:46Z</time>
      </trkpt>
      <trkpt lat="44.508" lon="6.02847">
        <ele>865.2000122</ele>
        <time>2020-01-27T10:45:01Z</time>
      </trkpt>
      <trkpt lat="44.50769" lon="6.0281">
        <ele>867.5999756</ele>
        <time>2020-01-27T10:45:20Z</time>
      </trkpt>
      <trkpt lat="44.50753" lon="6.02784">
        <ele>868.7999878</ele>
        <time>2020-01-27T10:45:31Z</time>
      </trkpt>
      <trkpt lat="44.50717" lon="6.02725">
        <ele>869.5999756</ele>
        <time>2020-01-27T10:45:51Z</time>
      </trkpt>
      <trkpt lat="44.50673" lon="6.0267">
        <ele>868.2000122</ele>
        <time>2020-01-27T10:46:08Z</time>
      </trkpt>
      <trkpt lat="44.50635" lon="6.02627">
        <ele>867.2000122</ele>
        <time>2020-01-27T10:46:23Z</time>
      </trkpt>
      <trkpt lat="44.50596" lon="6.02595">
        <ele>868.5999756</ele>
        <time>2020-01-27T10:46:39Z</time>
      </trkpt>
      <trkpt lat="44.50555" lon="6.02563">
        <ele>868.7999878</ele>
        <time>2020-01-27T10:46:54Z</time>
      </trkpt>
      <trkpt lat="44.50504" lon="6.02541">
        <ele>868.5999756</ele>
        <time>2020-01-27T10:47:10Z</time>
      </trkpt>
      <trkpt lat="44.50439" lon="6.02511">
        <ele>867.5999756</ele>
        <time>2020-01-27T10:47:29Z</time>
      </trkpt>
      <trkpt lat="44.50372" lon="6.02456">
        <ele>866.2000122</ele>
        <time>2020-01-27T10:47:47Z</time>
      </trkpt>
      <trkpt lat="44.50303" lon="6.02399">
        <ele>862.4000244</ele>
        <time>2020-01-27T10:48:00Z</time>
      </trkpt>
      <trkpt lat="44.50233" lon="6.02341">
        <ele>859.4000244</ele>
        <time>2020-01-27T10:48:13Z</time>
      </trkpt>
      <trkpt lat="44.50193" lon="6.0233">
        <ele>858.2000122</ele>
        <time>2020-01-27T10:48:19Z</time>
      </trkpt>
      <trkpt lat="44.50186" lon="6.02331">
        <ele>858.2000122</ele>
        <time>2020-01-27T10:48:20Z</time>
      </trkpt>
      <trkpt lat="44.50179" lon="6.02333">
        <ele>858</ele>
        <time>2020-01-27T10:48:21Z</time>
      </trkpt>
      <trkpt lat="44.50127" lon="6.02354">
        <ele>854.5999756</ele>
        <time>2020-01-27T10:48:28Z</time>
      </trkpt>
      <trkpt lat="44.50097" lon="6.02365">
        <ele>851.4000244</ele>
        <time>2020-01-27T10:48:32Z</time>
      </trkpt>
      <trkpt lat="44.50065" lon="6.02371">
        <ele>848</ele>
        <time>2020-01-27T10:48:36Z</time>
      </trkpt>
      <trkpt lat="44.50026" lon="6.02379">
        <ele>844.5999756</ele>
        <time>2020-01-27T10:48:41Z</time>
      </trkpt>
      <trkpt lat="44.49996" lon="6.02383">
        <ele>841</ele>
        <time>2020-01-27T10:48:46Z</time>
      </trkpt>
      <trkpt lat="44.49974" lon="6.02383">
        <ele>838</ele>
        <time>2020-01-27T10:48:50Z</time>
      </trkpt>
      <trkpt lat="44.49968" lon="6.02381">
        <ele>837.5999756</ele>
        <time>2020-01-27T10:48:51Z</time>
      </trkpt>
      <trkpt lat="44.49963" lon="6.02379">
        <ele>837.2000122</ele>
        <time>2020-01-27T10:48:52Z</time>
      </trkpt>
      <trkpt lat="44.49958" lon="6.02375">
        <ele>837</ele>
        <time>2020-01-27T10:48:53Z</time>
      </trkpt>
      <trkpt lat="44.49955" lon="6.02369">
        <ele>836.7999878</ele>
        <time>2020-01-27T10:48:54Z</time>
      </trkpt>
      <trkpt lat="44.49952" lon="6.02362">
        <ele>836.4000244</ele>
        <time>2020-01-27T10:48:55Z</time>
      </trkpt>
      <trkpt lat="44.4995" lon="6.02355">
        <ele>836</ele>
        <time>2020-01-27T10:48:56Z</time>
      </trkpt>
      <trkpt lat="44.4995" lon="6.02346">
        <ele>835.5999756</ele>
        <time>2020-01-27T10:48:57Z</time>
      </trkpt>
      <trkpt lat="44.4995" lon="6.02337">
        <ele>835.2000122</ele>
        <time>2020-01-27T10:48:58Z</time>
      </trkpt>
      <trkpt lat="44.49951" lon="6.02327">
        <ele>834.5999756</ele>
        <time>2020-01-27T10:48:59Z</time>
      </trkpt>
      <trkpt lat="44.49952" lon="6.02317">
        <ele>834</ele>
        <time>2020-01-27T10:49:00Z</time>
      </trkpt>
      <trkpt lat="44.49953" lon="6.02287">
        <ele>832.2000122</ele>
        <time>2020-01-27T10:49:03Z</time>
      </trkpt>
      <trkpt lat="44.49952" lon="6.02279">
        <ele>831.4000244</ele>
        <time>2020-01-27T10:49:04Z</time>
      </trkpt>
      <trkpt lat="44.4995" lon="6.02271">
        <ele>830.5999756</ele>
        <time>2020-01-27T10:49:05Z</time>
      </trkpt>
      <trkpt lat="44.49946" lon="6.02265">
        <ele>830</ele>
        <time>2020-01-27T10:49:06Z</time>
      </trkpt>
      <trkpt lat="44.49942" lon="6.0226">
        <ele>829.2000122</ele>
        <time>2020-01-27T10:49:07Z</time>
      </trkpt>
      <trkpt lat="44.49938" lon="6.02255">
        <ele>828.4000244</ele>
        <time>2020-01-27T10:49:08Z</time>
      </trkpt>
      <trkpt lat="44.49933" lon="6.02252">
        <ele>827.5999756</ele>
        <time>2020-01-27T10:49:09Z</time>
      </trkpt>
      <trkpt lat="44.49928" lon="6.0225">
        <ele>826.7999878</ele>
        <time>2020-01-27T10:49:10Z</time>
      </trkpt>
      <trkpt lat="44.49923" lon="6.0225">
        <ele>826.4000244</ele>
        <time>2020-01-27T10:49:11Z</time>
      </trkpt>
      <trkpt lat="44.49918" lon="6.02249">
        <ele>825.7999878</ele>
        <time>2020-01-27T10:49:12Z</time>
      </trkpt>
      <trkpt lat="44.49914" lon="6.02249">
        <ele>825.4000244</ele>
        <time>2020-01-27T10:49:13Z</time>
      </trkpt>
      <trkpt lat="44.4991" lon="6.0225">
        <ele>825.2000122</ele>
        <time>2020-01-27T10:49:14Z</time>
      </trkpt>
      <trkpt lat="44.49906" lon="6.02252">
        <ele>825</ele>
        <time>2020-01-27T10:49:15Z</time>
      </trkpt>
      <trkpt lat="44.49839" lon="6.02275">
        <ele>824.5999756</ele>
        <time>2020-01-27T10:49:33Z</time>
      </trkpt>
      <trkpt lat="44.49799" lon="6.02318">
        <ele>825.2000122</ele>
        <time>2020-01-27T10:49:47Z</time>
      </trkpt>
      <trkpt lat="44.4978" lon="6.02401">
        <ele>826</ele>
        <time>2020-01-27T10:50:04Z</time>
      </trkpt>
      <trkpt lat="44.49752" lon="6.02419">
        <ele>826.4000244</ele>
        <time>2020-01-27T10:50:13Z</time>
      </trkpt>
      <trkpt lat="44.49685" lon="6.02414">
        <ele>828</ele>
        <time>2020-01-27T10:50:35Z</time>
      </trkpt>
      <trkpt lat="44.49637" lon="6.02404">
        <ele>830.4000244</ele>
        <time>2020-01-27T10:50:52Z</time>
      </trkpt>
      <trkpt lat="44.49588" lon="6.02373">
        <ele>832.7999878</ele>
        <time>2020-01-27T10:51:12Z</time>
      </trkpt>
      <trkpt lat="44.49551" lon="6.02348">
        <ele>835.7999878</ele>
        <time>2020-01-27T10:51:29Z</time>
      </trkpt>
      <trkpt lat="44.49512" lon="6.02322">
        <ele>838.5999756</ele>
        <time>2020-01-27T10:51:47Z</time>
      </trkpt>
      <trkpt lat="44.49486" lon="6.023">
        <ele>840.4000244</ele>
        <time>2020-01-27T10:52:00Z</time>
      </trkpt>
      <trkpt lat="44.49452" lon="6.02273">
        <ele>842.4000244</ele>
        <time>2020-01-27T10:52:16Z</time>
      </trkpt>
      <trkpt lat="44.49406" lon="6.02257">
        <ele>843.7999878</ele>
        <time>2020-01-27T10:52:34Z</time>
      </trkpt>
      <trkpt lat="44.49345" lon="6.02252">
        <ele>843</ele>
        <time>2020-01-27T10:52:52Z</time>
      </trkpt>
      <trkpt lat="44.49279" lon="6.02264">
        <ele>842</ele>
        <time>2020-01-27T10:53:12Z</time>
      </trkpt>
      <trkpt lat="44.49226" lon="6.0229">
        <ele>840.7999878</ele>
        <time>2020-01-27T10:53:28Z</time>
      </trkpt>
      <trkpt lat="44.49169" lon="6.02289">
        <ele>839.5999756</ele>
        <time>2020-01-27T10:53:46Z</time>
      </trkpt>
      <trkpt lat="44.49155" lon="6.02281">
        <ele>839.2000122</ele>
        <time>2020-01-27T10:53:57Z</time>
      </trkpt>
      <trkpt lat="44.49151" lon="6.02271">
        <ele>839</ele>
        <time>2020-01-27T10:54:59Z</time>
      </trkpt>
      <trkpt lat="44.49151" lon="6.02267">
        <ele>839</ele>
        <time>2020-01-27T10:55:00Z</time>
      </trkpt>
      <trkpt lat="44.49152" lon="6.02263">
        <ele>839</ele>
        <time>2020-01-27T10:55:01Z</time>
      </trkpt>
      <trkpt lat="44.49167" lon="6.02195">
        <ele>839.5999756</ele>
        <time>2020-01-27T10:55:16Z</time>
      </trkpt>
      <trkpt lat="44.49188" lon="6.02146">
        <ele>842.5999756</ele>
        <time>2020-01-27T10:55:30Z</time>
      </trkpt>
      <trkpt lat="44.49222" lon="6.02146">
        <ele>845.5999756</ele>
        <time>2020-01-27T10:55:41Z</time>
      </trkpt>
      <trkpt lat="44.49254" lon="6.0215">
        <ele>848.7999878</ele>
        <time>2020-01-27T10:55:52Z</time>
      </trkpt>
      <trkpt lat="44.4928" lon="6.02155">
        <ele>851.7999878</ele>
        <time>2020-01-27T10:56:01Z</time>
      </trkpt>
      <trkpt lat="44.4931" lon="6.02157">
        <ele>855</ele>
        <time>2020-01-27T10:56:12Z</time>
      </trkpt>
      <trkpt lat="44.49346" lon="6.02154">
        <ele>858.2000122</ele>
        <time>2020-01-27T10:56:25Z</time>
      </trkpt>
      <trkpt lat="44.49379" lon="6.02146">
        <ele>861.4000244</ele>
        <time>2020-01-27T10:56:37Z</time>
      </trkpt>
      <trkpt lat="44.49408" lon="6.02125">
        <ele>864.4000244</ele>
        <time>2020-01-27T10:56:49Z</time>
      </trkpt>
      <trkpt lat="44.49437" lon="6.02094">
        <ele>867.5999756</ele>
        <time>2020-01-27T10:57:03Z</time>
      </trkpt>
      <trkpt lat="44.49467" lon="6.02064">
        <ele>870.7999878</ele>
        <time>2020-01-27T10:57:17Z</time>
      </trkpt>
      <trkpt lat="44.495" lon="6.02057">
        <ele>873.7999878</ele>
        <time>2020-01-27T10:57:30Z</time>
      </trkpt>
      <trkpt lat="44.49532" lon="6.02055">
        <ele>876.5999756</ele>
        <time>2020-01-27T10:57:42Z</time>
      </trkpt>
      <trkpt lat="44.49566" lon="6.02044">
        <ele>879.7999878</ele>
        <time>2020-01-27T10:57:54Z</time>
      </trkpt>
      <trkpt lat="44.49607" lon="6.0203">
        <ele>883</ele>
        <time>2020-01-27T10:58:08Z</time>
      </trkpt>
      <trkpt lat="44.49636" lon="6.02027">
        <ele>886.2000122</ele>
        <time>2020-01-27T10:58:20Z</time>
      </trkpt>
      <trkpt lat="44.49672" lon="6.02021">
        <ele>889.4000244</ele>
        <time>2020-01-27T10:58:35Z</time>
      </trkpt>
      <trkpt lat="44.4968" lon="6.02001">
        <ele>890.7999878</ele>
        <time>2020-01-27T10:58:42Z</time>
      </trkpt>
      <trkpt lat="44.49678" lon="6.01998">
        <ele>891.2000122</ele>
        <time>2020-01-27T10:58:43Z</time>
      </trkpt>
      <trkpt lat="44.49676" lon="6.01996">
        <ele>891.4000244</ele>
        <time>2020-01-27T10:58:44Z</time>
      </trkpt>
      <trkpt lat="44.49674" lon="6.01994">
        <ele>891.5999756</ele>
        <time>2020-01-27T10:58:45Z</time>
      </trkpt>
      <trkpt lat="44.49672" lon="6.01992">
        <ele>891.7999878</ele>
        <time>2020-01-27T10:58:46Z</time>
      </trkpt>
      <trkpt lat="44.49642" lon="6.01981">
        <ele>893.7999878</ele>
        <time>2020-01-27T10:58:57Z</time>
      </trkpt>
      <trkpt lat="44.4963" lon="6.01971">
        <ele>895</ele>
        <time>2020-01-27T10:59:03Z</time>
      </trkpt>
      <trkpt lat="44.49628" lon="6.01969">
        <ele>895.2000122</ele>
        <time>2020-01-27T10:59:04Z</time>
      </trkpt>
      <trkpt lat="44.49599" lon="6.01943">
        <ele>898.4000244</ele>
        <time>2020-01-27T10:59:17Z</time>
      </trkpt>
      <trkpt lat="44.49574" lon="6.01919">
        <ele>901.5999756</ele>
        <time>2020-01-27T10:59:29Z</time>
      </trkpt>
      <trkpt lat="44.49547" lon="6.01889">
        <ele>904.5999756</ele>
        <time>2020-01-27T10:59:42Z</time>
      </trkpt>
      <trkpt lat="44.49522" lon="6.01852">
        <ele>907.7999878</ele>
        <time>2020-01-27T10:59:56Z</time>
      </trkpt>
      <trkpt lat="44.49509" lon="6.01814">
        <ele>911</ele>
        <time>2020-01-27T11:00:09Z</time>
      </trkpt>
      <trkpt lat="44.49485" lon="6.01812">
        <ele>914.4000244</ele>
        <time>2020-01-27T11:00:20Z</time>
      </trkpt>
      <trkpt lat="44.49483" lon="6.01813">
        <ele>914.5999756</ele>
        <time>2020-01-27T11:00:21Z</time>
      </trkpt>
      <trkpt lat="44.49482" lon="6.01815">
        <ele>914.7999878</ele>
        <time>2020-01-27T11:00:22Z</time>
      </trkpt>
      <trkpt lat="44.4948" lon="6.01815">
        <ele>915</ele>
        <time>2020-01-27T11:00:23Z</time>
      </trkpt>
      <trkpt lat="44.49447" lon="6.01803">
        <ele>918</ele>
        <time>2020-01-27T11:00:36Z</time>
      </trkpt>
      <trkpt lat="44.49422" lon="6.01778">
        <ele>920.7999878</ele>
        <time>2020-01-27T11:00:50Z</time>
      </trkpt>
      <trkpt lat="44.4942" lon="6.01775">
        <ele>921</ele>
        <time>2020-01-27T11:00:51Z</time>
      </trkpt>
      <trkpt lat="44.49413" lon="6.01769">
        <ele>921.5999756</ele>
        <time>2020-01-27T11:00:55Z</time>
      </trkpt>
      <trkpt lat="44.49411" lon="6.01768">
        <ele>922</ele>
        <time>2020-01-27T11:00:56Z</time>
      </trkpt>
      <trkpt lat="44.49408" lon="6.01766">
        <ele>922.2000122</ele>
        <time>2020-01-27T11:00:57Z</time>
      </trkpt>
      <trkpt lat="44.49406" lon="6.01765">
        <ele>922.4000244</ele>
        <time>2020-01-27T11:00:58Z</time>
      </trkpt>
      <trkpt lat="44.49403" lon="6.01765">
        <ele>922.4000244</ele>
        <time>2020-01-27T11:00:59Z</time>
      </trkpt>
      <trkpt lat="44.494" lon="6.01764">
        <ele>922.5999756</ele>
        <time>2020-01-27T11:01:00Z</time>
      </trkpt>
      <trkpt lat="44.49398" lon="6.01764">
        <ele>923.2000122</ele>
        <time>2020-01-27T11:01:01Z</time>
      </trkpt>
      <trkpt lat="44.49395" lon="6.01764">
        <ele>923.2000122</ele>
        <time>2020-01-27T11:01:02Z</time>
      </trkpt>
      <trkpt lat="44.49363" lon="6.01749">
        <ele>925.5999756</ele>
        <time>2020-01-27T11:01:16Z</time>
      </trkpt>
      <trkpt lat="44.49332" lon="6.01734">
        <ele>928.5999756</ele>
        <time>2020-01-27T11:01:30Z</time>
      </trkpt>
      <trkpt lat="44.49304" lon="6.01728">
        <ele>931.5999756</ele>
        <time>2020-01-27T11:01:43Z</time>
      </trkpt>
      <trkpt lat="44.49273" lon="6.01722">
        <ele>934.2000122</ele>
        <time>2020-01-27T11:01:56Z</time>
      </trkpt>
      <trkpt lat="44.49248" lon="6.01706">
        <ele>936.5999756</ele>
        <time>2020-01-27T11:02:07Z</time>
      </trkpt>
      <trkpt lat="44.49228" lon="6.0168">
        <ele>939.5999756</ele>
        <time>2020-01-27T11:02:19Z</time>
      </trkpt>
      <trkpt lat="44.49198" lon="6.0166">
        <ele>942</ele>
        <time>2020-01-27T11:02:33Z</time>
      </trkpt>
      <trkpt lat="44.49195" lon="6.01656">
        <ele>942.2000122</ele>
        <time>2020-01-27T11:02:35Z</time>
      </trkpt>
      <trkpt lat="44.49193" lon="6.01654">
        <ele>942.2000122</ele>
        <time>2020-01-27T11:02:36Z</time>
      </trkpt>
      <trkpt lat="44.49191" lon="6.01652">
        <ele>942.4000244</ele>
        <time>2020-01-27T11:02:37Z</time>
      </trkpt>
      <trkpt lat="44.49163" lon="6.01621">
        <ele>945.4000244</ele>
        <time>2020-01-27T11:02:51Z</time>
      </trkpt>
      <trkpt lat="44.49133" lon="6.01589">
        <ele>948</ele>
        <time>2020-01-27T11:03:07Z</time>
      </trkpt>
      <trkpt lat="44.49094" lon="6.01544">
        <ele>950.7999878</ele>
        <time>2020-01-27T11:03:28Z</time>
      </trkpt>
      <trkpt lat="44.49061" lon="6.01503">
        <ele>953.2000122</ele>
        <time>2020-01-27T11:03:46Z</time>
      </trkpt>
      <trkpt lat="44.49029" lon="6.01462">
        <ele>955.2000122</ele>
        <time>2020-01-27T11:04:04Z</time>
      </trkpt>
      <trkpt lat="44.49009" lon="6.01421">
        <ele>957.4000244</ele>
        <time>2020-01-27T11:04:20Z</time>
      </trkpt>
      <trkpt lat="44.49011" lon="6.01419">
        <ele>957.4000244</ele>
        <time>2020-01-27T11:04:21Z</time>
      </trkpt>
      <trkpt lat="44.49013" lon="6.01417">
        <ele>957.4000244</ele>
        <time>2020-01-27T11:04:22Z</time>
      </trkpt>
      <trkpt lat="44.49016" lon="6.01417">
        <ele>957.5999756</ele>
        <time>2020-01-27T11:04:23Z</time>
      </trkpt>
      <trkpt lat="44.49018" lon="6.01417">
        <ele>957.5999756</ele>
        <time>2020-01-27T11:04:24Z</time>
      </trkpt>
      <trkpt lat="44.49021" lon="6.01418">
        <ele>957.7999878</ele>
        <time>2020-01-27T11:04:25Z</time>
      </trkpt>
      <trkpt lat="44.49023" lon="6.01418">
        <ele>957.7999878</ele>
        <time>2020-01-27T11:04:26Z</time>
      </trkpt>
      <trkpt lat="44.49058" lon="6.01429">
        <ele>960.5999756</ele>
        <time>2020-01-27T11:04:41Z</time>
      </trkpt>
      <trkpt lat="44.49096" lon="6.01432">
        <ele>963.7999878</ele>
        <time>2020-01-27T11:04:57Z</time>
      </trkpt>
      <trkpt lat="44.49127" lon="6.01443">
        <ele>966.7999878</ele>
        <time>2020-01-27T11:05:10Z</time>
      </trkpt>
      <trkpt lat="44.49163" lon="6.01452">
        <ele>970</ele>
        <time>2020-01-27T11:05:26Z</time>
      </trkpt>
      <trkpt lat="44.49187" lon="6.01455">
        <ele>973</ele>
        <time>2020-01-27T11:05:37Z</time>
      </trkpt>
      <trkpt lat="44.49205" lon="6.01446">
        <ele>974.7999878</ele>
        <time>2020-01-27T11:05:46Z</time>
      </trkpt>
      <trkpt lat="44.49204" lon="6.01442">
        <ele>975</ele>
        <time>2020-01-27T11:05:47Z</time>
      </trkpt>
      <trkpt lat="44.49203" lon="6.01439">
        <ele>975.2000122</ele>
        <time>2020-01-27T11:05:48Z</time>
      </trkpt>
      <trkpt lat="44.49202" lon="6.01436">
        <ele>975.2000122</ele>
        <time>2020-01-27T11:05:49Z</time>
      </trkpt>
      <trkpt lat="44.49199" lon="6.01434">
        <ele>975.4000244</ele>
        <time>2020-01-27T11:05:50Z</time>
      </trkpt>
      <trkpt lat="44.49197" lon="6.01433">
        <ele>975.5999756</ele>
        <time>2020-01-27T11:05:51Z</time>
      </trkpt>
      <trkpt lat="44.49194" lon="6.01432">
        <ele>975.7999878</ele>
        <time>2020-01-27T11:05:52Z</time>
      </trkpt>
      <trkpt lat="44.49192" lon="6.01432">
        <ele>976</ele>
        <time>2020-01-27T11:05:53Z</time>
      </trkpt>
      <trkpt lat="44.49154" lon="6.01414">
        <ele>977.7999878</ele>
        <time>2020-01-27T11:06:09Z</time>
      </trkpt>
      <trkpt lat="44.49144" lon="6.01378">
        <ele>979.5999756</ele>
        <time>2020-01-27T11:06:21Z</time>
      </trkpt>
      <trkpt lat="44.49145" lon="6.01374">
        <ele>980.2000122</ele>
        <time>2020-01-27T11:06:22Z</time>
      </trkpt>
      <trkpt lat="44.49146" lon="6.01371">
        <ele>980.4000244</ele>
        <time>2020-01-27T11:06:23Z</time>
      </trkpt>
      <trkpt lat="44.49149" lon="6.01369">
        <ele>980.5999756</ele>
        <time>2020-01-27T11:06:24Z</time>
      </trkpt>
      <trkpt lat="44.49151" lon="6.01368">
        <ele>980.7999878</ele>
        <time>2020-01-27T11:06:25Z</time>
      </trkpt>
      <trkpt lat="44.49154" lon="6.01368">
        <ele>981</ele>
        <time>2020-01-27T11:06:26Z</time>
      </trkpt>
      <trkpt lat="44.49156" lon="6.01369">
        <ele>981.2000122</ele>
        <time>2020-01-27T11:06:27Z</time>
      </trkpt>
      <trkpt lat="44.49159" lon="6.0137">
        <ele>981.4000244</ele>
        <time>2020-01-27T11:06:28Z</time>
      </trkpt>
      <trkpt lat="44.49161" lon="6.01371">
        <ele>981.5999756</ele>
        <time>2020-01-27T11:06:29Z</time>
      </trkpt>
      <trkpt lat="44.49164" lon="6.01371">
        <ele>981.5999756</ele>
        <time>2020-01-27T11:06:30Z</time>
      </trkpt>
      <trkpt lat="44.49194" lon="6.01383">
        <ele>984.7999878</ele>
        <time>2020-01-27T11:06:43Z</time>
      </trkpt>
      <trkpt lat="44.49225" lon="6.01382">
        <ele>987.7999878</ele>
        <time>2020-01-27T11:06:56Z</time>
      </trkpt>
      <trkpt lat="44.49251" lon="6.01378">
        <ele>991.2000122</ele>
        <time>2020-01-27T11:07:08Z</time>
      </trkpt>
      <trkpt lat="44.49277" lon="6.01373">
        <ele>994.2000122</ele>
        <time>2020-01-27T11:07:20Z</time>
      </trkpt>
      <trkpt lat="44.49309" lon="6.01366">
        <ele>997.5999756</ele>
        <time>2020-01-27T11:07:36Z</time>
      </trkpt>
      <trkpt lat="44.49331" lon="6.0136">
        <ele>1000.7999878</ele>
        <time>2020-01-27T11:07:47Z</time>
      </trkpt>
      <trkpt lat="44.49355" lon="6.01351">
        <ele>1004</ele>
        <time>2020-01-27T11:07:59Z</time>
      </trkpt>
      <trkpt lat="44.4939" lon="6.01336">
        <ele>1005.7999878</ele>
        <time>2020-01-27T11:08:15Z</time>
      </trkpt>
      <trkpt lat="44.49431" lon="6.01333">
        <ele>1009</ele>
        <time>2020-01-27T11:08:34Z</time>
      </trkpt>
      <trkpt lat="44.49461" lon="6.01335">
        <ele>1012</ele>
        <time>2020-01-27T11:08:49Z</time>
      </trkpt>
      <trkpt lat="44.49494" lon="6.01356">
        <ele>1015</ele>
        <time>2020-01-27T11:09:06Z</time>
      </trkpt>
      <trkpt lat="44.49521" lon="6.01374">
        <ele>1016</ele>
        <time>2020-01-27T11:09:20Z</time>
      </trkpt>
      <trkpt lat="44.49553" lon="6.01347">
        <ele>1019</ele>
        <time>2020-01-27T11:09:36Z</time>
      </trkpt>
      <trkpt lat="44.49577" lon="6.01326">
        <ele>1022</ele>
        <time>2020-01-27T11:09:49Z</time>
      </trkpt>
      <trkpt lat="44.49612" lon="6.01302">
        <ele>1025</ele>
        <time>2020-01-27T11:10:06Z</time>
      </trkpt>
      <trkpt lat="44.49659" lon="6.01294">
        <ele>1025</ele>
        <time>2020-01-27T11:10:21Z</time>
      </trkpt>
      <trkpt lat="44.49701" lon="6.01265">
        <ele>1026.1999512</ele>
        <time>2020-01-27T11:10:39Z</time>
      </trkpt>
      <trkpt lat="44.49733" lon="6.01227">
        <ele>1029.1999512</ele>
        <time>2020-01-27T11:10:56Z</time>
      </trkpt>
      <trkpt lat="44.49743" lon="6.01208">
        <ele>1029.5999756</ele>
        <time>2020-01-27T11:11:04Z</time>
      </trkpt>
      <trkpt lat="44.49742" lon="6.01205">
        <ele>1029.8000488</ele>
        <time>2020-01-27T11:11:05Z</time>
      </trkpt>
      <trkpt lat="44.4974" lon="6.01202">
        <ele>1029.8000488</ele>
        <time>2020-01-27T11:11:06Z</time>
      </trkpt>
      <trkpt lat="44.49738" lon="6.01201">
        <ele>1030</ele>
        <time>2020-01-27T11:11:07Z</time>
      </trkpt>
      <trkpt lat="44.49736" lon="6.012">
        <ele>1030</ele>
        <time>2020-01-27T11:11:08Z</time>
      </trkpt>
      <trkpt lat="44.49726" lon="6.01166">
        <ele>1032.8000488</ele>
        <time>2020-01-27T11:11:21Z</time>
      </trkpt>
      <trkpt lat="44.49727" lon="6.0113">
        <ele>1036</ele>
        <time>2020-01-27T11:11:33Z</time>
      </trkpt>
      <trkpt lat="44.49711" lon="6.01101">
        <ele>1039.1999512</ele>
        <time>2020-01-27T11:11:45Z</time>
      </trkpt>
      <trkpt lat="44.49677" lon="6.01059">
        <ele>1042.4000244</ele>
        <time>2020-01-27T11:12:06Z</time>
      </trkpt>
      <trkpt lat="44.49656" lon="6.01031">
        <ele>1045.4000244</ele>
        <time>2020-01-27T11:12:22Z</time>
      </trkpt>
      <trkpt lat="44.49643" lon="6.01011">
        <ele>1048.4000244</ele>
        <time>2020-01-27T11:12:33Z</time>
      </trkpt>
      <trkpt lat="44.49644" lon="6.00983">
        <ele>1051.5999756</ele>
        <time>2020-01-27T11:12:44Z</time>
      </trkpt>
      <trkpt lat="44.49649" lon="6.0096">
        <ele>1055</ele>
        <time>2020-01-27T11:12:54Z</time>
      </trkpt>
      <trkpt lat="44.49653" lon="6.00934">
        <ele>1058</ele>
        <time>2020-01-27T11:13:06Z</time>
      </trkpt>
      <trkpt lat="44.49654" lon="6.00906">
        <ele>1061.1999512</ele>
        <time>2020-01-27T11:13:18Z</time>
      </trkpt>
      <trkpt lat="44.49652" lon="6.0087">
        <ele>1063.4000244</ele>
        <time>2020-01-27T11:13:33Z</time>
      </trkpt>
      <trkpt lat="44.49648" lon="6.00826">
        <ele>1064.1999512</ele>
        <time>2020-01-27T11:13:48Z</time>
      </trkpt>
      <trkpt lat="44.49666" lon="6.008">
        <ele>1064.8000488</ele>
        <time>2020-01-27T11:14:02Z</time>
      </trkpt>
      <trkpt lat="44.49671" lon="6.00792">
        <ele>1065.8000488</ele>
        <time>2020-01-27T11:14:07Z</time>
      </trkpt>
      <trkpt lat="44.49683" lon="6.0075">
        <ele>1068.5999756</ele>
        <time>2020-01-27T11:14:25Z</time>
      </trkpt>
      <trkpt lat="44.49707" lon="6.00721">
        <ele>1069.8000488</ele>
        <time>2020-01-27T11:14:40Z</time>
      </trkpt>
      <trkpt lat="44.49747" lon="6.00703">
        <ele>1070.1999512</ele>
        <time>2020-01-27T11:14:55Z</time>
      </trkpt>
      <trkpt lat="44.49781" lon="6.00668">
        <ele>1069.5999756</ele>
        <time>2020-01-27T11:15:11Z</time>
      </trkpt>
      <trkpt lat="44.498" lon="6.00613">
        <ele>1071</ele>
        <time>2020-01-27T11:15:28Z</time>
      </trkpt>
      <trkpt lat="44.49816" lon="6.00559">
        <ele>1074</ele>
        <time>2020-01-27T11:15:46Z</time>
      </trkpt>
      <trkpt lat="44.4983" lon="6.00512">
        <ele>1076.1999512</ele>
        <time>2020-01-27T11:16:02Z</time>
      </trkpt>
      <trkpt lat="44.49851" lon="6.0047">
        <ele>1079.4000244</ele>
        <time>2020-01-27T11:16:17Z</time>
      </trkpt>
      <trkpt lat="44.4988" lon="6.00425">
        <ele>1081.8000488</ele>
        <time>2020-01-27T11:16:35Z</time>
      </trkpt>
      <trkpt lat="44.49903" lon="6.00376">
        <ele>1083.5999756</ele>
        <time>2020-01-27T11:16:52Z</time>
      </trkpt>
      <trkpt lat="44.49919" lon="6.00339">
        <ele>1085.8000488</ele>
        <time>2020-01-27T11:17:05Z</time>
      </trkpt>
      <trkpt lat="44.49939" lon="6.00306">
        <ele>1088.5999756</ele>
        <time>2020-01-27T11:17:19Z</time>
      </trkpt>
      <trkpt lat="44.49956" lon="6.00277">
        <ele>1091</ele>
        <time>2020-01-27T11:17:31Z</time>
      </trkpt>
      <trkpt lat="44.49978" lon="6.00225">
        <ele>1093</ele>
        <time>2020-01-27T11:17:48Z</time>
      </trkpt>
      <trkpt lat="44.50002" lon="6.00173">
        <ele>1092.4000244</ele>
        <time>2020-01-27T11:18:04Z</time>
      </trkpt>
      <trkpt lat="44.50032" lon="6.00113">
        <ele>1091.8000488</ele>
        <time>2020-01-27T11:18:20Z</time>
      </trkpt>
      <trkpt lat="44.50065" lon="6.00083">
        <ele>1091.8000488</ele>
        <time>2020-01-27T11:18:34Z</time>
      </trkpt>
      <trkpt lat="44.50109" lon="6.00068">
        <ele>1094.8000488</ele>
        <time>2020-01-27T11:18:52Z</time>
      </trkpt>
      <trkpt lat="44.50153" lon="6.00054">
        <ele>1097.4000244</ele>
        <time>2020-01-27T11:19:10Z</time>
      </trkpt>
      <trkpt lat="44.50189" lon="6.00043">
        <ele>1100.1999512</ele>
        <time>2020-01-27T11:19:25Z</time>
      </trkpt>
      <trkpt lat="44.50234" lon="6.00032">
        <ele>1103</ele>
        <time>2020-01-27T11:19:43Z</time>
      </trkpt>
      <trkpt lat="44.50269" lon="6.00014">
        <ele>1105</ele>
        <time>2020-01-27T11:19:58Z</time>
      </trkpt>
      <trkpt lat="44.50319" lon="5.99984">
        <ele>1104.4000244</ele>
        <time>2020-01-27T11:20:15Z</time>
      </trkpt>
      <trkpt lat="44.50368" lon="5.99952">
        <ele>1103.4000244</ele>
        <time>2020-01-27T11:20:30Z</time>
      </trkpt>
      <trkpt lat="44.50422" lon="5.99919">
        <ele>1102</ele>
        <time>2020-01-27T11:20:47Z</time>
      </trkpt>
      <trkpt lat="44.5046" lon="5.99902">
        <ele>1101.4000244</ele>
        <time>2020-01-27T11:21:00Z</time>
      </trkpt>
      <trkpt lat="44.50489" lon="5.99896">
        <ele>1101.5999756</ele>
        <time>2020-01-27T11:21:11Z</time>
      </trkpt>
      <trkpt lat="44.50542" lon="5.99883">
        <ele>1102.8000488</ele>
        <time>2020-01-27T11:21:29Z</time>
      </trkpt>
      <trkpt lat="44.50577" lon="5.99864">
        <ele>1104.8000488</ele>
        <time>2020-01-27T11:21:44Z</time>
      </trkpt>
      <trkpt lat="44.50614" lon="5.99843">
        <ele>1107.8000488</ele>
        <time>2020-01-27T11:22:00Z</time>
      </trkpt>
      <trkpt lat="44.5065" lon="5.99795">
        <ele>1110.4000244</ele>
        <time>2020-01-27T11:22:20Z</time>
      </trkpt>
      <trkpt lat="44.50648" lon="5.99788">
        <ele>1110.5999756</ele>
        <time>2020-01-27T11:22:22Z</time>
      </trkpt>
      <trkpt lat="44.50645" lon="5.99786">
        <ele>1110.8000488</ele>
        <time>2020-01-27T11:22:23Z</time>
      </trkpt>
      <trkpt lat="44.50643" lon="5.99785">
        <ele>1110.8000488</ele>
        <time>2020-01-27T11:22:24Z</time>
      </trkpt>
      <trkpt lat="44.5064" lon="5.99785">
        <ele>1110.8000488</ele>
        <time>2020-01-27T11:22:25Z</time>
      </trkpt>
      <trkpt lat="44.50637" lon="5.99785">
        <ele>1110.8000488</ele>
        <time>2020-01-27T11:22:26Z</time>
      </trkpt>
      <trkpt lat="44.50635" lon="5.99785">
        <ele>1111</ele>
        <time>2020-01-27T11:22:27Z</time>
      </trkpt>
      <trkpt lat="44.50605" lon="5.99784">
        <ele>1113.4000244</ele>
        <time>2020-01-27T11:22:39Z</time>
      </trkpt>
      <trkpt lat="44.50562" lon="5.99776">
        <ele>1116</ele>
        <time>2020-01-27T11:22:55Z</time>
      </trkpt>
      <trkpt lat="44.5053" lon="5.99778">
        <ele>1117.1999512</ele>
        <time>2020-01-27T11:23:07Z</time>
      </trkpt>
      <trkpt lat="44.50494" lon="5.99786">
        <ele>1118.1999512</ele>
        <time>2020-01-27T11:23:21Z</time>
      </trkpt>
      <trkpt lat="44.50467" lon="5.99787">
        <ele>1119.8000488</ele>
        <time>2020-01-27T11:23:32Z</time>
      </trkpt>
      <trkpt lat="44.50443" lon="5.9978">
        <ele>1122.1999512</ele>
        <time>2020-01-27T11:23:42Z</time>
      </trkpt>
      <trkpt lat="44.50429" lon="5.99777">
        <ele>1123.8000488</ele>
        <time>2020-01-27T11:23:49Z</time>
      </trkpt>
      <trkpt lat="44.504" lon="5.99758">
        <ele>1126.1999512</ele>
        <time>2020-01-27T11:24:02Z</time>
      </trkpt>
      <trkpt lat="44.50365" lon="5.99747">
        <ele>1127.8000488</ele>
        <time>2020-01-27T11:24:16Z</time>
      </trkpt>
      <trkpt lat="44.50332" lon="5.99734">
        <ele>1131</ele>
        <time>2020-01-27T11:24:30Z</time>
      </trkpt>
      <trkpt lat="44.50295" lon="5.99713">
        <ele>1133.1999512</ele>
        <time>2020-01-27T11:24:46Z</time>
      </trkpt>
      <trkpt lat="44.50261" lon="5.99696">
        <ele>1135.1999512</ele>
        <time>2020-01-27T11:25:02Z</time>
      </trkpt>
      <trkpt lat="44.50225" lon="5.99677">
        <ele>1137</ele>
        <time>2020-01-27T11:25:19Z</time>
      </trkpt>
      <trkpt lat="44.50198" lon="5.9966">
        <ele>1138.1999512</ele>
        <time>2020-01-27T11:25:32Z</time>
      </trkpt>
      <trkpt lat="44.50179" lon="5.99648">
        <ele>1139</ele>
        <time>2020-01-27T11:25:42Z</time>
      </trkpt>
      <trkpt lat="44.5016" lon="5.99618">
        <ele>1140.5999756</ele>
        <time>2020-01-27T11:25:55Z</time>
      </trkpt>
      <trkpt lat="44.50141" lon="5.99584">
        <ele>1142.8000488</ele>
        <time>2020-01-27T11:26:09Z</time>
      </trkpt>
      <trkpt lat="44.50114" lon="5.99567">
        <ele>1145.5999756</ele>
        <time>2020-01-27T11:26:24Z</time>
      </trkpt>
      <trkpt lat="44.50108" lon="5.99564">
        <ele>1146</ele>
        <time>2020-01-27T11:26:27Z</time>
      </trkpt>
      <trkpt lat="44.50081" lon="5.99564">
        <ele>1147.8000488</ele>
        <time>2020-01-27T11:26:39Z</time>
      </trkpt>
      <trkpt lat="44.50058" lon="5.99563">
        <ele>1150</ele>
        <time>2020-01-27T11:26:51Z</time>
      </trkpt>
      <trkpt lat="44.50025" lon="5.99567">
        <ele>1152</ele>
        <time>2020-01-27T11:27:05Z</time>
      </trkpt>
      <trkpt lat="44.49991" lon="5.99571">
        <ele>1154.8000488</ele>
        <time>2020-01-27T11:27:21Z</time>
      </trkpt>
      <trkpt lat="44.49965" lon="5.99574">
        <ele>1157</ele>
        <time>2020-01-27T11:27:33Z</time>
      </trkpt>
      <trkpt lat="44.49952" lon="5.99577">
        <ele>1158</ele>
        <time>2020-01-27T11:27:40Z</time>
      </trkpt>
      <trkpt lat="44.49949" lon="5.99577">
        <ele>1158.1999512</ele>
        <time>2020-01-27T11:27:41Z</time>
      </trkpt>
      <trkpt lat="44.49947" lon="5.99577">
        <ele>1158.1999512</ele>
        <time>2020-01-27T11:27:42Z</time>
      </trkpt>
      <trkpt lat="44.49945" lon="5.99578">
        <ele>1158.4000244</ele>
        <time>2020-01-27T11:27:43Z</time>
      </trkpt>
      <trkpt lat="44.49943" lon="5.99578">
        <ele>1158.4000244</ele>
        <time>2020-01-27T11:27:44Z</time>
      </trkpt>
      <trkpt lat="44.49914" lon="5.99581">
        <ele>1160.5999756</ele>
        <time>2020-01-27T11:27:57Z</time>
      </trkpt>
      <trkpt lat="44.49875" lon="5.99586">
        <ele>1163.1999512</ele>
        <time>2020-01-27T11:28:15Z</time>
      </trkpt>
      <trkpt lat="44.49843" lon="5.99596">
        <ele>1166</ele>
        <time>2020-01-27T11:28:30Z</time>
      </trkpt>
      <trkpt lat="44.49806" lon="5.99601">
        <ele>1168.5999756</ele>
        <time>2020-01-27T11:28:47Z</time>
      </trkpt>
      <trkpt lat="44.49795" lon="5.99605">
        <ele>1170</ele>
        <time>2020-01-27T11:28:53Z</time>
      </trkpt>
      <trkpt lat="44.49793" lon="5.99606">
        <ele>1170</ele>
        <time>2020-01-27T11:28:54Z</time>
      </trkpt>
      <trkpt lat="44.49791" lon="5.99606">
        <ele>1170.1999512</ele>
        <time>2020-01-27T11:28:55Z</time>
      </trkpt>
      <trkpt lat="44.49789" lon="5.99606">
        <ele>1170.4000244</ele>
        <time>2020-01-27T11:28:56Z</time>
      </trkpt>
      <trkpt lat="44.49786" lon="5.99606">
        <ele>1170.5999756</ele>
        <time>2020-01-27T11:28:57Z</time>
      </trkpt>
      <trkpt lat="44.49785" lon="5.99607">
        <ele>1170.8000488</ele>
        <time>2020-01-27T11:28:58Z</time>
      </trkpt>
      <trkpt lat="44.49764" lon="5.99614">
        <ele>1172.4000244</ele>
        <time>2020-01-27T11:29:08Z</time>
      </trkpt>
      <trkpt lat="44.49739" lon="5.99627">
        <ele>1174.1999512</ele>
        <time>2020-01-27T11:29:19Z</time>
      </trkpt>
      <trkpt lat="44.49712" lon="5.99627">
        <ele>1176</ele>
        <time>2020-01-27T11:29:31Z</time>
      </trkpt>
      <trkpt lat="44.4971" lon="5.99626">
        <ele>1176</ele>
        <time>2020-01-27T11:29:32Z</time>
      </trkpt>
      <trkpt lat="44.49708" lon="5.99625">
        <ele>1176.1999512</ele>
        <time>2020-01-27T11:29:33Z</time>
      </trkpt>
      <trkpt lat="44.49685" lon="5.99609">
        <ele>1178.1999512</ele>
        <time>2020-01-27T11:29:45Z</time>
      </trkpt>
      <trkpt lat="44.49667" lon="5.99597">
        <ele>1179.1999512</ele>
        <time>2020-01-27T11:29:54Z</time>
      </trkpt>
      <trkpt lat="44.49665" lon="5.99595">
        <ele>1179.4000244</ele>
        <time>2020-01-27T11:29:55Z</time>
      </trkpt>
      <trkpt lat="44.4964" lon="5.99577">
        <ele>1180.5999756</ele>
        <time>2020-01-27T11:30:07Z</time>
      </trkpt>
      <trkpt lat="44.49606" lon="5.99561">
        <ele>1182</ele>
        <time>2020-01-27T11:30:22Z</time>
      </trkpt>
      <trkpt lat="44.49558" lon="5.99573">
        <ele>1181.1999512</ele>
        <time>2020-01-27T11:30:37Z</time>
      </trkpt>
      <trkpt lat="44.4952" lon="5.99586">
        <ele>1178.4000244</ele>
        <time>2020-01-27T11:30:48Z</time>
      </trkpt>
      <trkpt lat="44.49517" lon="5.99585">
        <ele>1177.8000488</ele>
        <time>2020-01-27T11:30:49Z</time>
      </trkpt>
      <trkpt lat="44.49515" lon="5.99584">
        <ele>1177.5999756</ele>
        <time>2020-01-27T11:30:50Z</time>
      </trkpt>
      <trkpt lat="44.49514" lon="5.99581">
        <ele>1177.5999756</ele>
        <time>2020-01-27T11:30:51Z</time>
      </trkpt>
      <trkpt lat="44.49514" lon="5.99577">
        <ele>1177.4000244</ele>
        <time>2020-01-27T11:30:52Z</time>
      </trkpt>
      <trkpt lat="44.49515" lon="5.99574">
        <ele>1177</ele>
        <time>2020-01-27T11:30:53Z</time>
      </trkpt>
      <trkpt lat="44.49517" lon="5.99571">
        <ele>1176.8000488</ele>
        <time>2020-01-27T11:30:54Z</time>
      </trkpt>
      <trkpt lat="44.49519" lon="5.99568">
        <ele>1176.5999756</ele>
        <time>2020-01-27T11:30:55Z</time>
      </trkpt>
      <trkpt lat="44.49552" lon="5.99513">
        <ele>1173.5999756</ele>
        <time>2020-01-27T11:31:07Z</time>
      </trkpt>
      <trkpt lat="44.49572" lon="5.99463">
        <ele>1170.1999512</ele>
        <time>2020-01-27T11:31:15Z</time>
      </trkpt>
      <trkpt lat="44.49585" lon="5.99425">
        <ele>1167</ele>
        <time>2020-01-27T11:31:22Z</time>
      </trkpt>
      <trkpt lat="44.49588" lon="5.99417">
        <ele>1166.1999512</ele>
        <time>2020-01-27T11:31:24Z</time>
      </trkpt>
      <trkpt lat="44.49595" lon="5.99403">
        <ele>1165</ele>
        <time>2020-01-27T11:31:27Z</time>
      </trkpt>
      <trkpt lat="44.49597" lon="5.99397">
        <ele>1164.5999756</ele>
        <time>2020-01-27T11:31:28Z</time>
      </trkpt>
      <trkpt lat="44.49602" lon="5.99363">
        <ele>1162.8000488</ele>
        <time>2020-01-27T11:31:35Z</time>
      </trkpt>
      <trkpt lat="44.49601" lon="5.99359">
        <ele>1162.4000244</ele>
        <time>2020-01-27T11:31:36Z</time>
      </trkpt>
      <trkpt lat="44.49599" lon="5.99356">
        <ele>1161.8000488</ele>
        <time>2020-01-27T11:31:37Z</time>
      </trkpt>
      <trkpt lat="44.49596" lon="5.99354">
        <ele>1161.8000488</ele>
        <time>2020-01-27T11:31:38Z</time>
      </trkpt>
      <trkpt lat="44.49591" lon="5.99354">
        <ele>1161.4000244</ele>
        <time>2020-01-27T11:31:39Z</time>
      </trkpt>
      <trkpt lat="44.49587" lon="5.99356">
        <ele>1161.4000244</ele>
        <time>2020-01-27T11:31:40Z</time>
      </trkpt>
      <trkpt lat="44.49582" lon="5.99359">
        <ele>1161.1999512</ele>
        <time>2020-01-27T11:31:41Z</time>
      </trkpt>
      <trkpt lat="44.49577" lon="5.99361">
        <ele>1161</ele>
        <time>2020-01-27T11:31:42Z</time>
      </trkpt>
      <trkpt lat="44.49572" lon="5.99361">
        <ele>1160.8000488</ele>
        <time>2020-01-27T11:31:43Z</time>
      </trkpt>
      <trkpt lat="44.49568" lon="5.99361">
        <ele>1160.5999756</ele>
        <time>2020-01-27T11:31:44Z</time>
      </trkpt>
      <trkpt lat="44.49563" lon="5.9936">
        <ele>1160.4000244</ele>
        <time>2020-01-27T11:31:45Z</time>
      </trkpt>
      <trkpt lat="44.4956" lon="5.99358">
        <ele>1160.1999512</ele>
        <time>2020-01-27T11:31:46Z</time>
      </trkpt>
      <trkpt lat="44.49557" lon="5.99356">
        <ele>1159.8000488</ele>
        <time>2020-01-27T11:31:47Z</time>
      </trkpt>
      <trkpt lat="44.49555" lon="5.99354">
        <ele>1159.1999512</ele>
        <time>2020-01-27T11:31:48Z</time>
      </trkpt>
      <trkpt lat="44.49553" lon="5.99352">
        <ele>1158.8000488</ele>
        <time>2020-01-27T11:31:49Z</time>
      </trkpt>
      <trkpt lat="44.49552" lon="5.99351">
        <ele>1158.4000244</ele>
        <time>2020-01-27T11:31:50Z</time>
      </trkpt>
      <trkpt lat="44.49551" lon="5.99348">
        <ele>1155.8000488</ele>
        <time>2020-01-27T11:32:07Z</time>
      </trkpt>
      <trkpt lat="44.49548" lon="5.99347">
        <ele>1156</ele>
        <time>2020-01-27T11:33:08Z</time>
      </trkpt>
      <trkpt lat="44.49546" lon="5.99345">
        <ele>1156</ele>
        <time>2020-01-27T11:33:09Z</time>
      </trkpt>
      <trkpt lat="44.49544" lon="5.99344">
        <ele>1156</ele>
        <time>2020-01-27T11:33:10Z</time>
      </trkpt>
      <trkpt lat="44.49511" lon="5.99306">
        <ele>1155</ele>
        <time>2020-01-27T11:33:24Z</time>
      </trkpt>
      <trkpt lat="44.49476" lon="5.99253">
        <ele>1154.4000244</ele>
        <time>2020-01-27T11:33:40Z</time>
      </trkpt>
      <trkpt lat="44.49438" lon="5.99187">
        <ele>1153.8000488</ele>
        <time>2020-01-27T11:33:58Z</time>
      </trkpt>
      <trkpt lat="44.49398" lon="5.99118">
        <ele>1153.1999512</ele>
        <time>2020-01-27T11:34:16Z</time>
      </trkpt>
      <trkpt lat="44.4936" lon="5.99089">
        <ele>1153.4000244</ele>
        <time>2020-01-27T11:34:29Z</time>
      </trkpt>
      <trkpt lat="44.493" lon="5.99044">
        <ele>1155.1999512</ele>
        <time>2020-01-27T11:34:49Z</time>
      </trkpt>
      <trkpt lat="44.49228" lon="5.98989">
        <ele>1154.1999512</ele>
        <time>2020-01-27T11:35:12Z</time>
      </trkpt>
      <trkpt lat="44.49191" lon="5.98958">
        <ele>1153.4000244</ele>
        <time>2020-01-27T11:35:22Z</time>
      </trkpt>
      <trkpt lat="44.49188" lon="5.98953">
        <ele>1153.1999512</ele>
        <time>2020-01-27T11:35:23Z</time>
      </trkpt>
      <trkpt lat="44.49185" lon="5.98947">
        <ele>1153</ele>
        <time>2020-01-27T11:35:24Z</time>
      </trkpt>
      <trkpt lat="44.49184" lon="5.98941">
        <ele>1152.8000488</ele>
        <time>2020-01-27T11:35:25Z</time>
      </trkpt>
      <trkpt lat="44.49184" lon="5.98935">
        <ele>1152.5999756</ele>
        <time>2020-01-27T11:35:26Z</time>
      </trkpt>
      <trkpt lat="44.49184" lon="5.98929">
        <ele>1152.4000244</ele>
        <time>2020-01-27T11:35:27Z</time>
      </trkpt>
      <trkpt lat="44.49185" lon="5.98924">
        <ele>1152</ele>
        <time>2020-01-27T11:35:28Z</time>
      </trkpt>
      <trkpt lat="44.49186" lon="5.98918">
        <ele>1151.5999756</ele>
        <time>2020-01-27T11:35:29Z</time>
      </trkpt>
      <trkpt lat="44.49188" lon="5.98913">
        <ele>1151.4000244</ele>
        <time>2020-01-27T11:35:30Z</time>
      </trkpt>
      <trkpt lat="44.49178" lon="5.98882">
        <ele>1148.5999756</ele>
        <time>2020-01-27T11:35:38Z</time>
      </trkpt>
      <trkpt lat="44.49145" lon="5.98885">
        <ele>1147.8000488</ele>
        <time>2020-01-27T11:35:47Z</time>
      </trkpt>
      <trkpt lat="44.49099" lon="5.98872">
        <ele>1148.8000488</ele>
        <time>2020-01-27T11:36:00Z</time>
      </trkpt>
      <trkpt lat="44.49034" lon="5.98837">
        <ele>1148.5999756</ele>
        <time>2020-01-27T11:36:17Z</time>
      </trkpt>
      <trkpt lat="44.48974" lon="5.98806">
        <ele>1148.1999512</ele>
        <time>2020-01-27T11:36:33Z</time>
      </trkpt>
      <trkpt lat="44.48901" lon="5.98776">
        <ele>1150.4000244</ele>
        <time>2020-01-27T11:36:53Z</time>
      </trkpt>
      <trkpt lat="44.48837" lon="5.98766">
        <ele>1151.5999756</ele>
        <time>2020-01-27T11:37:11Z</time>
      </trkpt>
      <trkpt lat="44.48784" lon="5.98762">
        <ele>1153</ele>
        <time>2020-01-27T11:37:26Z</time>
      </trkpt>
      <trkpt lat="44.48723" lon="5.98763">
        <ele>1154.8000488</ele>
        <time>2020-01-27T11:37:45Z</time>
      </trkpt>
      <trkpt lat="44.48692" lon="5.98766">
        <ele>1157.8000488</ele>
        <time>2020-01-27T11:37:57Z</time>
      </trkpt>
      <trkpt lat="44.48652" lon="5.98749">
        <ele>1161</ele>
        <time>2020-01-27T11:38:12Z</time>
      </trkpt>
      <trkpt lat="44.48634" lon="5.98722">
        <ele>1162.4000244</ele>
        <time>2020-01-27T11:38:21Z</time>
      </trkpt>
      <trkpt lat="44.48632" lon="5.9872">
        <ele>1162.4000244</ele>
        <time>2020-01-27T11:38:22Z</time>
      </trkpt>
      <trkpt lat="44.48587" lon="5.987">
        <ele>1164</ele>
        <time>2020-01-27T11:38:37Z</time>
      </trkpt>
      <trkpt lat="44.48545" lon="5.98699">
        <ele>1166.5999756</ele>
        <time>2020-01-27T11:38:51Z</time>
      </trkpt>
      <trkpt lat="44.48474" lon="5.98698">
        <ele>1168.5999756</ele>
        <time>2020-01-27T11:39:14Z</time>
      </trkpt>
      <trkpt lat="44.4844" lon="5.98706">
        <ele>1170.1999512</ele>
        <time>2020-01-27T11:39:26Z</time>
      </trkpt>
      <trkpt lat="44.48396" lon="5.98693">
        <ele>1173.1999512</ele>
        <time>2020-01-27T11:39:42Z</time>
      </trkpt>
      <trkpt lat="44.48368" lon="5.9866">
        <ele>1174.8000488</ele>
        <time>2020-01-27T11:39:55Z</time>
      </trkpt>
      <trkpt lat="44.4834" lon="5.98619">
        <ele>1177</ele>
        <time>2020-01-27T11:40:09Z</time>
      </trkpt>
      <trkpt lat="44.48294" lon="5.98578">
        <ele>1179</ele>
        <time>2020-01-27T11:40:28Z</time>
      </trkpt>
      <trkpt lat="44.48283" lon="5.98546">
        <ele>1180.1999512</ele>
        <time>2020-01-27T11:40:40Z</time>
      </trkpt>
      <trkpt lat="44.48278" lon="5.9849">
        <ele>1178.4000244</ele>
        <time>2020-01-27T11:40:52Z</time>
      </trkpt>
      <trkpt lat="44.48271" lon="5.98436">
        <ele>1176.5999756</ele>
        <time>2020-01-27T11:41:05Z</time>
      </trkpt>
      <trkpt lat="44.48255" lon="5.98392">
        <ele>1176</ele>
        <time>2020-01-27T11:41:16Z</time>
      </trkpt>
      <trkpt lat="44.48213" lon="5.98308">
        <ele>1172.8000488</ele>
        <time>2020-01-27T11:41:28Z</time>
      </trkpt>
      <trkpt lat="44.48177" lon="5.98239">
        <ele>1169.1999512</ele>
        <time>2020-01-27T11:41:36Z</time>
      </trkpt>
      <trkpt lat="44.48151" lon="5.98192">
        <ele>1165.8000488</ele>
        <time>2020-01-27T11:41:42Z</time>
      </trkpt>
      <trkpt lat="44.48111" lon="5.98128">
        <ele>1162.8000488</ele>
        <time>2020-01-27T11:41:50Z</time>
      </trkpt>
      <trkpt lat="44.48072" lon="5.98069">
        <ele>1159.5999756</ele>
        <time>2020-01-27T11:41:57Z</time>
      </trkpt>
      <trkpt lat="44.48034" lon="5.98013">
        <ele>1156</ele>
        <time>2020-01-27T11:42:04Z</time>
      </trkpt>
      <trkpt lat="44.48" lon="5.97964">
        <ele>1153</ele>
        <time>2020-01-27T11:42:10Z</time>
      </trkpt>
      <trkpt lat="44.47964" lon="5.97912">
        <ele>1149.8000488</ele>
        <time>2020-01-27T11:42:17Z</time>
      </trkpt>
      <trkpt lat="44.47937" lon="5.97872">
        <ele>1148</ele>
        <time>2020-01-27T11:42:23Z</time>
      </trkpt>
      <trkpt lat="44.47934" lon="5.97865">
        <ele>1147.5999756</ele>
        <time>2020-01-27T11:42:24Z</time>
      </trkpt>
      <trkpt lat="44.47923" lon="5.97839">
        <ele>1146.4000244</ele>
        <time>2020-01-27T11:42:28Z</time>
      </trkpt>
      <trkpt lat="44.47919" lon="5.97834">
        <ele>1146.1999512</ele>
        <time>2020-01-27T11:42:29Z</time>
      </trkpt>
      <trkpt lat="44.47915" lon="5.9783">
        <ele>1146.1999512</ele>
        <time>2020-01-27T11:42:30Z</time>
      </trkpt>
      <trkpt lat="44.47911" lon="5.97826">
        <ele>1146</ele>
        <time>2020-01-27T11:42:31Z</time>
      </trkpt>
      <trkpt lat="44.47907" lon="5.97824">
        <ele>1146</ele>
        <time>2020-01-27T11:42:32Z</time>
      </trkpt>
      <trkpt lat="44.479" lon="5.97818">
        <ele>1145.8000488</ele>
        <time>2020-01-27T11:42:34Z</time>
      </trkpt>
      <trkpt lat="44.47897" lon="5.97814">
        <ele>1145.8000488</ele>
        <time>2020-01-27T11:42:35Z</time>
      </trkpt>
      <trkpt lat="44.47894" lon="5.9781">
        <ele>1145.8000488</ele>
        <time>2020-01-27T11:42:36Z</time>
      </trkpt>
      <trkpt lat="44.47886" lon="5.97797">
        <ele>1146</ele>
        <time>2020-01-27T11:42:39Z</time>
      </trkpt>
      <trkpt lat="44.47857" lon="5.97752">
        <ele>1146.4000244</ele>
        <time>2020-01-27T11:42:53Z</time>
      </trkpt>
      <trkpt lat="44.47829" lon="5.97712">
        <ele>1147.8000488</ele>
        <time>2020-01-27T11:43:07Z</time>
      </trkpt>
      <trkpt lat="44.47805" lon="5.97676">
        <ele>1148.8000488</ele>
        <time>2020-01-27T11:43:21Z</time>
      </trkpt>
      <trkpt lat="44.47778" lon="5.97617">
        <ele>1150.5999756</ele>
        <time>2020-01-27T11:43:40Z</time>
      </trkpt>
      <trkpt lat="44.47756" lon="5.97581">
        <ele>1151.8000488</ele>
        <time>2020-01-27T11:43:54Z</time>
      </trkpt>
      <trkpt lat="44.47733" lon="5.97543">
        <ele>1153.4000244</ele>
        <time>2020-01-27T11:44:10Z</time>
      </trkpt>
      <trkpt lat="44.47731" lon="5.97541">
        <ele>1153.4000244</ele>
        <time>2020-01-27T11:44:11Z</time>
      </trkpt>
      <trkpt lat="44.47729" lon="5.9754">
        <ele>1153.5999756</ele>
        <time>2020-01-27T11:44:12Z</time>
      </trkpt>
      <trkpt lat="44.47724" lon="5.97536">
        <ele>1155.1999512</ele>
        <time>2020-01-27T11:44:25Z</time>
      </trkpt>
      <trkpt lat="44.4772" lon="5.97536">
        <ele>1155.8000488</ele>
        <time>2020-01-27T11:45:58Z</time>
      </trkpt>
      <trkpt lat="44.47723" lon="5.97533">
        <ele>1156</ele>
        <time>2020-01-27T11:46:05Z</time>
      </trkpt>
      <trkpt lat="44.47725" lon="5.97531">
        <ele>1156</ele>
        <time>2020-01-27T11:46:06Z</time>
      </trkpt>
      <trkpt lat="44.47727" lon="5.97529">
        <ele>1156</ele>
        <time>2020-01-27T11:46:07Z</time>
      </trkpt>
      <trkpt lat="44.47729" lon="5.97527">
        <ele>1156</ele>
        <time>2020-01-27T11:46:08Z</time>
      </trkpt>
      <trkpt lat="44.47732" lon="5.97525">
        <ele>1156</ele>
        <time>2020-01-27T11:46:09Z</time>
      </trkpt>
      <trkpt lat="44.47762" lon="5.9751">
        <ele>1156.1999512</ele>
        <time>2020-01-27T11:46:21Z</time>
      </trkpt>
      <trkpt lat="44.47804" lon="5.97492">
        <ele>1157.5999756</ele>
        <time>2020-01-27T11:46:36Z</time>
      </trkpt>
      <trkpt lat="44.47833" lon="5.97468">
        <ele>1159.4000244</ele>
        <time>2020-01-27T11:46:49Z</time>
      </trkpt>
      <trkpt lat="44.47862" lon="5.97435">
        <ele>1162.5999756</ele>
        <time>2020-01-27T11:47:04Z</time>
      </trkpt>
      <trkpt lat="44.47868" lon="5.97394">
        <ele>1165.5999756</ele>
        <time>2020-01-27T11:47:17Z</time>
      </trkpt>
      <trkpt lat="44.47866" lon="5.97363">
        <ele>1168.8000488</ele>
        <time>2020-01-27T11:47:27Z</time>
      </trkpt>
      <trkpt lat="44.47877" lon="5.97328">
        <ele>1171.8000488</ele>
        <time>2020-01-27T11:47:39Z</time>
      </trkpt>
      <trkpt lat="44.479" lon="5.97317">
        <ele>1174.8000488</ele>
        <time>2020-01-27T11:47:50Z</time>
      </trkpt>
      <trkpt lat="44.47926" lon="5.97317">
        <ele>1177.8000488</ele>
        <time>2020-01-27T11:48:01Z</time>
      </trkpt>
      <trkpt lat="44.4795" lon="5.97312">
        <ele>1180.8000488</ele>
        <time>2020-01-27T11:48:12Z</time>
      </trkpt>
      <trkpt lat="44.4798" lon="5.97303">
        <ele>1184.4000244</ele>
        <time>2020-01-27T11:48:25Z</time>
      </trkpt>
      <trkpt lat="44.48009" lon="5.973">
        <ele>1187.4000244</ele>
        <time>2020-01-27T11:48:38Z</time>
      </trkpt>
      <trkpt lat="44.48037" lon="5.97299">
        <ele>1190.5999756</ele>
        <time>2020-01-27T11:48:50Z</time>
      </trkpt>
      <trkpt lat="44.48067" lon="5.97293">
        <ele>1193.8000488</ele>
        <time>2020-01-27T11:49:05Z</time>
      </trkpt>
      <trkpt lat="44.48096" lon="5.97281">
        <ele>1197</ele>
        <time>2020-01-27T11:49:18Z</time>
      </trkpt>
      <trkpt lat="44.48111" lon="5.9725">
        <ele>1200</ele>
        <time>2020-01-27T11:49:31Z</time>
      </trkpt>
      <trkpt lat="44.48105" lon="5.97217">
        <ele>1203.1999512</ele>
        <time>2020-01-27T11:49:42Z</time>
      </trkpt>
      <trkpt lat="44.48108" lon="5.97182">
        <ele>1206.4000244</ele>
        <time>2020-01-27T11:49:54Z</time>
      </trkpt>
      <trkpt lat="44.48121" lon="5.97153">
        <ele>1209.5999756</ele>
        <time>2020-01-27T11:50:05Z</time>
      </trkpt>
      <trkpt lat="44.48135" lon="5.97127">
        <ele>1212.5999756</ele>
        <time>2020-01-27T11:50:16Z</time>
      </trkpt>
      <trkpt lat="44.48145" lon="5.97097">
        <ele>1215.5999756</ele>
        <time>2020-01-27T11:50:27Z</time>
      </trkpt>
      <trkpt lat="44.48144" lon="5.97059">
        <ele>1218.8000488</ele>
        <time>2020-01-27T11:50:39Z</time>
      </trkpt>
      <trkpt lat="44.4814" lon="5.9701">
        <ele>1221.8000488</ele>
        <time>2020-01-27T11:50:54Z</time>
      </trkpt>
      <trkpt lat="44.48134" lon="5.96955">
        <ele>1224.5999756</ele>
        <time>2020-01-27T11:51:11Z</time>
      </trkpt>
      <trkpt lat="44.48133" lon="5.969">
        <ele>1227.5999756</ele>
        <time>2020-01-27T11:51:28Z</time>
      </trkpt>
      <trkpt lat="44.48134" lon="5.96848">
        <ele>1230.8000488</ele>
        <time>2020-01-27T11:51:44Z</time>
      </trkpt>
      <trkpt lat="44.48135" lon="5.968">
        <ele>1233.8000488</ele>
        <time>2020-01-27T11:51:59Z</time>
      </trkpt>
      <trkpt lat="44.48135" lon="5.96776">
        <ele>1236</ele>
        <time>2020-01-27T11:52:07Z</time>
      </trkpt>
      <trkpt lat="44.48135" lon="5.96739">
        <ele>1239.1999512</ele>
        <time>2020-01-27T11:52:19Z</time>
      </trkpt>
      <trkpt lat="44.48134" lon="5.96703">
        <ele>1242.1999512</ele>
        <time>2020-01-27T11:52:31Z</time>
      </trkpt>
      <trkpt lat="44.48135" lon="5.9667">
        <ele>1245.4000244</ele>
        <time>2020-01-27T11:52:42Z</time>
      </trkpt>
      <trkpt lat="44.48135" lon="5.96632">
        <ele>1248.5999756</ele>
        <time>2020-01-27T11:52:55Z</time>
      </trkpt>
      <trkpt lat="44.48137" lon="5.96594">
        <ele>1251.5999756</ele>
        <time>2020-01-27T11:53:08Z</time>
      </trkpt>
      <trkpt lat="44.48139" lon="5.96562">
        <ele>1255</ele>
        <time>2020-01-27T11:53:19Z</time>
      </trkpt>
      <trkpt lat="44.48141" lon="5.96522">
        <ele>1258.1999512</ele>
        <time>2020-01-27T11:53:33Z</time>
      </trkpt>
      <trkpt lat="44.48143" lon="5.96487">
        <ele>1261.4000244</ele>
        <time>2020-01-27T11:53:45Z</time>
      </trkpt>
      <trkpt lat="44.48145" lon="5.96455">
        <ele>1264.4000244</ele>
        <time>2020-01-27T11:53:57Z</time>
      </trkpt>
      <trkpt lat="44.48148" lon="5.9642">
        <ele>1267.5999756</ele>
        <time>2020-01-27T11:54:10Z</time>
      </trkpt>
      <trkpt lat="44.4815" lon="5.96378">
        <ele>1270.4000244</ele>
        <time>2020-01-27T11:54:26Z</time>
      </trkpt>
      <trkpt lat="44.48156" lon="5.96331">
        <ele>1273.5999756</ele>
        <time>2020-01-27T11:54:44Z</time>
      </trkpt>
      <trkpt lat="44.48178" lon="5.96334">
        <ele>1276.8000488</ele>
        <time>2020-01-27T11:54:56Z</time>
      </trkpt>
      <trkpt lat="44.48197" lon="5.96351">
        <ele>1279.8000488</ele>
        <time>2020-01-27T11:55:07Z</time>
      </trkpt>
      <trkpt lat="44.48229" lon="5.96364">
        <ele>1283.1999512</ele>
        <time>2020-01-27T11:55:23Z</time>
      </trkpt>
      <trkpt lat="44.48261" lon="5.96373">
        <ele>1286.1999512</ele>
        <time>2020-01-27T11:55:39Z</time>
      </trkpt>
      <trkpt lat="44.48289" lon="5.9639">
        <ele>1289.1999512</ele>
        <time>2020-01-27T11:55:55Z</time>
      </trkpt>
      <trkpt lat="44.48312" lon="5.96415">
        <ele>1292.1999512</ele>
        <time>2020-01-27T11:56:09Z</time>
      </trkpt>
      <trkpt lat="44.48338" lon="5.96441">
        <ele>1294.8000488</ele>
        <time>2020-01-27T11:56:25Z</time>
      </trkpt>
      <trkpt lat="44.48344" lon="5.96442">
        <ele>1297.1999512</ele>
        <time>2020-01-27T11:56:39Z</time>
      </trkpt>
      <trkpt lat="44.48342" lon="5.9644">
        <ele>1297.4000244</ele>
        <time>2020-01-27T11:57:18Z</time>
      </trkpt>
      <trkpt lat="44.48341" lon="5.96442">
        <ele>1297.4000244</ele>
        <time>2020-01-27T11:58:24Z</time>
      </trkpt>
      <trkpt lat="44.48343" lon="5.96439">
        <ele>1297.4000244</ele>
        <time>2020-01-27T11:59:05Z</time>
      </trkpt>
      <trkpt lat="44.48343" lon="5.96438">
        <ele>1297.4000244</ele>
        <time>2020-01-27T11:59:15Z</time>
      </trkpt>
      <trkpt lat="44.48343" lon="5.96438">
        <ele>1297.4000244</ele>
        <time>2020-01-27T11:59:18Z</time>
      </trkpt>
      <trkpt lat="44.48343" lon="5.96438">
        <ele>1297.4000244</ele>
        <time>2020-01-27T11:59:19Z</time>
      </trkpt>
      <trkpt lat="44.48343" lon="5.96437">
        <ele>1297.4000244</ele>
        <time>2020-01-27T11:59:26Z</time>
      </trkpt>
      <trkpt lat="44.48343" lon="5.96436">
        <ele>1297.5999756</ele>
        <time>2020-01-27T11:59:40Z</time>
      </trkpt>
      <trkpt lat="44.48343" lon="5.96435">
        <ele>1160.4000244</ele>
        <time>2020-01-27T11:59:48Z</time>
      </trkpt>
      <trkpt lat="44.48343" lon="5.96435">
        <ele>1160.4000244</ele>
        <time>2020-01-27T11:59:49Z</time>
      </trkpt>
      <trkpt lat="44.48342" lon="5.96431">
        <ele>1160.5999756</ele>
        <time>2020-01-27T12:00:10Z</time>
      </trkpt>
      <trkpt lat="44.48342" lon="5.96428">
        <ele>1160.5999756</ele>
        <time>2020-01-27T12:00:11Z</time>
      </trkpt>
      <trkpt lat="44.48344" lon="5.96376">
        <ele>1160.8000488</ele>
        <time>2020-01-27T12:00:24Z</time>
      </trkpt>
      <trkpt lat="44.4835" lon="5.96325">
        <ele>1163.5999756</ele>
        <time>2020-01-27T12:00:37Z</time>
      </trkpt>
      <trkpt lat="44.48355" lon="5.96274">
        <ele>1166.8000488</ele>
        <time>2020-01-27T12:00:50Z</time>
      </trkpt>
      <trkpt lat="44.48357" lon="5.9622">
        <ele>1169.8000488</ele>
        <time>2020-01-27T12:01:04Z</time>
      </trkpt>
      <trkpt lat="44.48359" lon="5.96176">
        <ele>1173</ele>
        <time>2020-01-27T12:01:16Z</time>
      </trkpt>
      <trkpt lat="44.48356" lon="5.96124">
        <ele>1176</ele>
        <time>2020-01-27T12:01:30Z</time>
      </trkpt>
      <trkpt lat="44.48349" lon="5.96081">
        <ele>1179.1999512</ele>
        <time>2020-01-27T12:01:42Z</time>
      </trkpt>
      <trkpt lat="44.48338" lon="5.96021">
        <ele>1182.4000244</ele>
        <time>2020-01-27T12:01:59Z</time>
      </trkpt>
      <trkpt lat="44.48354" lon="5.95985">
        <ele>1185</ele>
        <time>2020-01-27T12:02:11Z</time>
      </trkpt>
      <trkpt lat="44.48378" lon="5.95976">
        <ele>1186.5999756</ele>
        <time>2020-01-27T12:02:22Z</time>
      </trkpt>
      <trkpt lat="44.48411" lon="5.9597">
        <ele>1188.5999756</ele>
        <time>2020-01-27T12:02:34Z</time>
      </trkpt>
      <trkpt lat="44.48432" lon="5.95925">
        <ele>1191.8000488</ele>
        <time>2020-01-27T12:02:48Z</time>
      </trkpt>
      <trkpt lat="44.48445" lon="5.9586">
        <ele>1194.8000488</ele>
        <time>2020-01-27T12:03:04Z</time>
      </trkpt>
      <trkpt lat="44.48457" lon="5.95791">
        <ele>1198</ele>
        <time>2020-01-27T12:03:21Z</time>
      </trkpt>
      <trkpt lat="44.48466" lon="5.95741">
        <ele>1201</ele>
        <time>2020-01-27T12:03:34Z</time>
      </trkpt>
      <trkpt lat="44.48469" lon="5.95693">
        <ele>1204.1999512</ele>
        <time>2020-01-27T12:03:47Z</time>
      </trkpt>
      <trkpt lat="44.48468" lon="5.9565">
        <ele>1207.1999512</ele>
        <time>2020-01-27T12:03:59Z</time>
      </trkpt>
      <trkpt lat="44.48468" lon="5.95604">
        <ele>1210.1999512</ele>
        <time>2020-01-27T12:04:12Z</time>
      </trkpt>
      <trkpt lat="44.48469" lon="5.95556">
        <ele>1213.4000244</ele>
        <time>2020-01-27T12:04:25Z</time>
      </trkpt>
      <trkpt lat="44.48477" lon="5.95509">
        <ele>1216.5999756</ele>
        <time>2020-01-27T12:04:38Z</time>
      </trkpt>
      <trkpt lat="44.48498" lon="5.95475">
        <ele>1220</ele>
        <time>2020-01-27T12:04:50Z</time>
      </trkpt>
      <trkpt lat="44.48503" lon="5.95471">
        <ele>1220.8000488</ele>
        <time>2020-01-27T12:04:52Z</time>
      </trkpt>
      <trkpt lat="44.48527" lon="5.95454">
        <ele>1224</ele>
        <time>2020-01-27T12:05:03Z</time>
      </trkpt>
      <trkpt lat="44.48561" lon="5.95459">
        <ele>1227.1999512</ele>
        <time>2020-01-27T12:05:16Z</time>
      </trkpt>
      <trkpt lat="44.48594" lon="5.95457">
        <ele>1230.1999512</ele>
        <time>2020-01-27T12:05:29Z</time>
      </trkpt>
      <trkpt lat="44.48633" lon="5.95451">
        <ele>1231.5999756</ele>
        <time>2020-01-27T12:05:42Z</time>
      </trkpt>
      <trkpt lat="44.48657" lon="5.95427">
        <ele>1233.4000244</ele>
        <time>2020-01-27T12:05:53Z</time>
      </trkpt>
      <trkpt lat="44.48635" lon="5.95386">
        <ele>1234.4000244</ele>
        <time>2020-01-27T12:06:04Z</time>
      </trkpt>
      <trkpt lat="44.48593" lon="5.95337">
        <ele>1236</ele>
        <time>2020-01-27T12:06:20Z</time>
      </trkpt>
      <trkpt lat="44.48573" lon="5.95261">
        <ele>1239</ele>
        <time>2020-01-27T12:06:37Z</time>
      </trkpt>
      <trkpt lat="44.48554" lon="5.95185">
        <ele>1241.1999512</ele>
        <time>2020-01-27T12:06:54Z</time>
      </trkpt>
      <trkpt lat="44.48541" lon="5.95092">
        <ele>1243.8000488</ele>
        <time>2020-01-27T12:07:13Z</time>
      </trkpt>
      <trkpt lat="44.4853" lon="5.94991">
        <ele>1246</ele>
        <time>2020-01-27T12:07:32Z</time>
      </trkpt>
      <trkpt lat="44.4851" lon="5.94896">
        <ele>1249</ele>
        <time>2020-01-27T12:07:50Z</time>
      </trkpt>
      <trkpt lat="44.48496" lon="5.948">
        <ele>1252.1999512</ele>
        <time>2020-01-27T12:08:09Z</time>
      </trkpt>
      <trkpt lat="44.48477" lon="5.94719">
        <ele>1255</ele>
        <time>2020-01-27T12:08:26Z</time>
      </trkpt>
      <trkpt lat="44.48464" lon="5.94622">
        <ele>1257.8000488</ele>
        <time>2020-01-27T12:08:45Z</time>
      </trkpt>
      <trkpt lat="44.48468" lon="5.94523">
        <ele>1260.8000488</ele>
        <time>2020-01-27T12:09:04Z</time>
      </trkpt>
      <trkpt lat="44.48493" lon="5.9447">
        <ele>1264</ele>
        <time>2020-01-27T12:09:18Z</time>
      </trkpt>
      <trkpt lat="44.4851" lon="5.94434">
        <ele>1267.1999512</ele>
        <time>2020-01-27T12:09:28Z</time>
      </trkpt>
      <trkpt lat="44.48522" lon="5.94392">
        <ele>1270.5999756</ele>
        <time>2020-01-27T12:09:39Z</time>
      </trkpt>
      <trkpt lat="44.48528" lon="5.94366">
        <ele>1273.1999512</ele>
        <time>2020-01-27T12:09:46Z</time>
      </trkpt>
      <trkpt lat="44.48539" lon="5.9432">
        <ele>1276.5999756</ele>
        <time>2020-01-27T12:09:59Z</time>
      </trkpt>
      <trkpt lat="44.48551" lon="5.94284">
        <ele>1279.8000488</ele>
        <time>2020-01-27T12:10:09Z</time>
      </trkpt>
      <trkpt lat="44.48566" lon="5.94249">
        <ele>1282.8000488</ele>
        <time>2020-01-27T12:10:20Z</time>
      </trkpt>
      <trkpt lat="44.48581" lon="5.94214">
        <ele>1286</ele>
        <time>2020-01-27T12:10:31Z</time>
      </trkpt>
      <trkpt lat="44.48596" lon="5.94181">
        <ele>1289.1999512</ele>
        <time>2020-01-27T12:10:42Z</time>
      </trkpt>
      <trkpt lat="44.48612" lon="5.94141">
        <ele>1292.4000244</ele>
        <time>2020-01-27T12:10:55Z</time>
      </trkpt>
      <trkpt lat="44.48633" lon="5.94086">
        <ele>1295.5999756</ele>
        <time>2020-01-27T12:11:10Z</time>
      </trkpt>
      <trkpt lat="44.48618" lon="5.94046">
        <ele>1297.8000488</ele>
        <time>2020-01-27T12:11:21Z</time>
      </trkpt>
      <trkpt lat="44.48586" lon="5.94033">
        <ele>1300.8000488</ele>
        <time>2020-01-27T12:11:32Z</time>
      </trkpt>
      <trkpt lat="44.48556" lon="5.94004">
        <ele>1303.8000488</ele>
        <time>2020-01-27T12:11:45Z</time>
      </trkpt>
      <trkpt lat="44.48533" lon="5.93964">
        <ele>1307</ele>
        <time>2020-01-27T12:11:58Z</time>
      </trkpt>
      <trkpt lat="44.48512" lon="5.93916">
        <ele>1310</ele>
        <time>2020-01-27T12:12:13Z</time>
      </trkpt>
      <trkpt lat="44.48495" lon="5.93861">
        <ele>1313</ele>
        <time>2020-01-27T12:12:30Z</time>
      </trkpt>
      <trkpt lat="44.48494" lon="5.93814">
        <ele>1316.1999512</ele>
        <time>2020-01-27T12:12:44Z</time>
      </trkpt>
      <trkpt lat="44.485" lon="5.93766">
        <ele>1319.4000244</ele>
        <time>2020-01-27T12:12:59Z</time>
      </trkpt>
      <trkpt lat="44.48514" lon="5.93737">
        <ele>1322.4000244</ele>
        <time>2020-01-27T12:13:10Z</time>
      </trkpt>
      <trkpt lat="44.48517" lon="5.93728">
        <ele>1324.8000488</ele>
        <time>2020-01-27T12:13:22Z</time>
      </trkpt>
      <trkpt lat="44.48516" lon="5.93727">
        <ele>1325</ele>
        <time>2020-01-27T12:13:39Z</time>
      </trkpt>
      <trkpt lat="44.48516" lon="5.93727">
        <ele>1325</ele>
        <time>2020-01-27T12:13:40Z</time>
      </trkpt>
      <trkpt lat="44.48516" lon="5.9373">
        <ele>1325.1999512</ele>
        <time>2020-01-27T12:15:13Z</time>
      </trkpt>
      <trkpt lat="44.48514" lon="5.93733">
        <ele>1325.1999512</ele>
        <time>2020-01-27T12:15:28Z</time>
      </trkpt>
      <trkpt lat="44.48502" lon="5.93758">
        <ele>1324.8000488</ele>
        <time>2020-01-27T12:15:38Z</time>
      </trkpt>
      <trkpt lat="44.48492" lon="5.9381">
        <ele>1323.1999512</ele>
        <time>2020-01-27T12:15:47Z</time>
      </trkpt>
      <trkpt lat="44.48492" lon="5.93818">
        <ele>1323</ele>
        <time>2020-01-27T12:15:48Z</time>
      </trkpt>
      <trkpt lat="44.48492" lon="5.93827">
        <ele>1322.5999756</ele>
        <time>2020-01-27T12:15:49Z</time>
      </trkpt>
      <trkpt lat="44.48492" lon="5.93836">
        <ele>1322.4000244</ele>
        <time>2020-01-27T12:15:50Z</time>
      </trkpt>
      <trkpt lat="44.48493" lon="5.93844">
        <ele>1322</ele>
        <time>2020-01-27T12:15:51Z</time>
      </trkpt>
      <trkpt lat="44.48502" lon="5.93887">
        <ele>1319.4000244</ele>
        <time>2020-01-27T12:15:56Z</time>
      </trkpt>
      <trkpt lat="44.48513" lon="5.93919">
        <ele>1316.1999512</ele>
        <time>2020-01-27T12:16:00Z</time>
      </trkpt>
      <trkpt lat="44.48532" lon="5.93963">
        <ele>1312.5999756</ele>
        <time>2020-01-27T12:16:06Z</time>
      </trkpt>
      <trkpt lat="44.48553" lon="5.93999">
        <ele>1310.8000488</ele>
        <time>2020-01-27T12:16:11Z</time>
      </trkpt>
      <trkpt lat="44.48557" lon="5.94006">
        <ele>1310.4000244</ele>
        <time>2020-01-27T12:16:12Z</time>
      </trkpt>
      <trkpt lat="44.4856" lon="5.94011">
        <ele>1310</ele>
        <time>2020-01-27T12:16:13Z</time>
      </trkpt>
      <trkpt lat="44.48564" lon="5.94017">
        <ele>1309.4000244</ele>
        <time>2020-01-27T12:16:14Z</time>
      </trkpt>
      <trkpt lat="44.48568" lon="5.94021">
        <ele>1308.8000488</ele>
        <time>2020-01-27T12:16:15Z</time>
      </trkpt>
      <trkpt lat="44.48573" lon="5.94026">
        <ele>1308.1999512</ele>
        <time>2020-01-27T12:16:16Z</time>
      </trkpt>
      <trkpt lat="44.48583" lon="5.94033">
        <ele>1307.5999756</ele>
        <time>2020-01-27T12:16:18Z</time>
      </trkpt>
      <trkpt lat="44.48622" lon="5.94054">
        <ele>1304.5999756</ele>
        <time>2020-01-27T12:16:25Z</time>
      </trkpt>
      <trkpt lat="44.48626" lon="5.94059">
        <ele>1304.1999512</ele>
        <time>2020-01-27T12:16:26Z</time>
      </trkpt>
      <trkpt lat="44.48629" lon="5.94064">
        <ele>1303.8000488</ele>
        <time>2020-01-27T12:16:27Z</time>
      </trkpt>
      <trkpt lat="44.48632" lon="5.94071">
        <ele>1303.4000244</ele>
        <time>2020-01-27T12:16:28Z</time>
      </trkpt>
      <trkpt lat="44.48633" lon="5.94078">
        <ele>1302.8000488</ele>
        <time>2020-01-27T12:16:29Z</time>
      </trkpt>
      <trkpt lat="44.48633" lon="5.94087">
        <ele>1302.4000244</ele>
        <time>2020-01-27T12:16:30Z</time>
      </trkpt>
      <trkpt lat="44.48632" lon="5.94095">
        <ele>1301.8000488</ele>
        <time>2020-01-27T12:16:31Z</time>
      </trkpt>
      <trkpt lat="44.48629" lon="5.94104">
        <ele>1301.1999512</ele>
        <time>2020-01-27T12:16:32Z</time>
      </trkpt>
      <trkpt lat="44.48626" lon="5.94112">
        <ele>1300.8000488</ele>
        <time>2020-01-27T12:16:33Z</time>
      </trkpt>
      <trkpt lat="44.48622" lon="5.9412">
        <ele>1300.5999756</ele>
        <time>2020-01-27T12:16:34Z</time>
      </trkpt>
      <trkpt lat="44.48595" lon="5.94185">
        <ele>1297.4000244</ele>
        <time>2020-01-27T12:16:41Z</time>
      </trkpt>
      <trkpt lat="44.48573" lon="5.94233">
        <ele>1294.1999512</ele>
        <time>2020-01-27T12:16:46Z</time>
      </trkpt>
      <trkpt lat="44.48558" lon="5.94269">
        <ele>1290.4000244</ele>
        <time>2020-01-27T12:16:50Z</time>
      </trkpt>
      <trkpt lat="44.4854" lon="5.9432">
        <ele>1287</ele>
        <time>2020-01-27T12:16:55Z</time>
      </trkpt>
      <trkpt lat="44.48529" lon="5.94362">
        <ele>1283.1999512</ele>
        <time>2020-01-27T12:16:59Z</time>
      </trkpt>
      <trkpt lat="44.48518" lon="5.94404">
        <ele>1279.5999756</ele>
        <time>2020-01-27T12:17:03Z</time>
      </trkpt>
      <trkpt lat="44.48504" lon="5.94447">
        <ele>1276.1999512</ele>
        <time>2020-01-27T12:17:08Z</time>
      </trkpt>
      <trkpt lat="44.48494" lon="5.94471">
        <ele>1273.8000488</ele>
        <time>2020-01-27T12:17:11Z</time>
      </trkpt>
      <trkpt lat="44.4849" lon="5.94479">
        <ele>1272.1999512</ele>
        <time>2020-01-27T12:17:12Z</time>
      </trkpt>
      <trkpt lat="44.48485" lon="5.94485">
        <ele>1271.5999756</ele>
        <time>2020-01-27T12:17:13Z</time>
      </trkpt>
      <trkpt lat="44.48477" lon="5.94498">
        <ele>1270.8000488</ele>
        <time>2020-01-27T12:17:15Z</time>
      </trkpt>
      <trkpt lat="44.48473" lon="5.94506">
        <ele>1270.1999512</ele>
        <time>2020-01-27T12:17:16Z</time>
      </trkpt>
      <trkpt lat="44.4847" lon="5.94514">
        <ele>1269.8000488</ele>
        <time>2020-01-27T12:17:17Z</time>
      </trkpt>
      <trkpt lat="44.48467" lon="5.94523">
        <ele>1269</ele>
        <time>2020-01-27T12:17:18Z</time>
      </trkpt>
      <trkpt lat="44.48465" lon="5.94532">
        <ele>1268.4000244</ele>
        <time>2020-01-27T12:17:19Z</time>
      </trkpt>
      <trkpt lat="44.48464" lon="5.94541">
        <ele>1267.5999756</ele>
        <time>2020-01-27T12:17:20Z</time>
      </trkpt>
      <trkpt lat="44.48463" lon="5.94551">
        <ele>1266.8000488</ele>
        <time>2020-01-27T12:17:21Z</time>
      </trkpt>
      <trkpt lat="44.48462" lon="5.9456">
        <ele>1266.1999512</ele>
        <time>2020-01-27T12:17:22Z</time>
      </trkpt>
      <trkpt lat="44.48461" lon="5.94606">
        <ele>1263.1999512</ele>
        <time>2020-01-27T12:17:27Z</time>
      </trkpt>
      <trkpt lat="44.48464" lon="5.94661">
        <ele>1260</ele>
        <time>2020-01-27T12:17:37Z</time>
      </trkpt>
      <trkpt lat="44.48464" lon="5.94674">
        <ele>1260</ele>
        <time>2020-01-27T12:17:47Z</time>
      </trkpt>
      <trkpt lat="44.4847" lon="5.94701">
        <ele>1260</ele>
        <time>2020-01-27T12:18:19Z</time>
      </trkpt>
      <trkpt lat="44.4848" lon="5.94741">
        <ele>1258.8000488</ele>
        <time>2020-01-27T12:18:27Z</time>
      </trkpt>
      <trkpt lat="44.48502" lon="5.94852">
        <ele>1255.4000244</ele>
        <time>2020-01-27T12:18:43Z</time>
      </trkpt>
      <trkpt lat="44.48519" lon="5.94946">
        <ele>1252.4000244</ele>
        <time>2020-01-27T12:18:54Z</time>
      </trkpt>
      <trkpt lat="44.48536" lon="5.95038">
        <ele>1249.1999512</ele>
        <time>2020-01-27T12:19:04Z</time>
      </trkpt>
      <trkpt lat="44.48547" lon="5.95148">
        <ele>1246</ele>
        <time>2020-01-27T12:19:16Z</time>
      </trkpt>
      <trkpt lat="44.48575" lon="5.95281">
        <ele>1242.8000488</ele>
        <time>2020-01-27T12:19:31Z</time>
      </trkpt>
      <trkpt lat="44.48589" lon="5.95333">
        <ele>1240.8000488</ele>
        <time>2020-01-27T12:19:37Z</time>
      </trkpt>
      <trkpt lat="44.48592" lon="5.9534">
        <ele>1240.4000244</ele>
        <time>2020-01-27T12:19:38Z</time>
      </trkpt>
      <trkpt lat="44.48596" lon="5.95347">
        <ele>1240.1999512</ele>
        <time>2020-01-27T12:19:39Z</time>
      </trkpt>
      <trkpt lat="44.486" lon="5.95353">
        <ele>1239.4000244</ele>
        <time>2020-01-27T12:19:40Z</time>
      </trkpt>
      <trkpt lat="44.48605" lon="5.95359">
        <ele>1239.1999512</ele>
        <time>2020-01-27T12:19:41Z</time>
      </trkpt>
      <trkpt lat="44.48652" lon="5.95417">
        <ele>1237.4000244</ele>
        <time>2020-01-27T12:19:52Z</time>
      </trkpt>
      <trkpt lat="44.48654" lon="5.95423">
        <ele>1237</ele>
        <time>2020-01-27T12:19:53Z</time>
      </trkpt>
      <trkpt lat="44.48654" lon="5.95429">
        <ele>1236.5999756</ele>
        <time>2020-01-27T12:19:54Z</time>
      </trkpt>
      <trkpt lat="44.48653" lon="5.95434">
        <ele>1236.4000244</ele>
        <time>2020-01-27T12:19:55Z</time>
      </trkpt>
      <trkpt lat="44.48652" lon="5.95439">
        <ele>1236.1999512</ele>
        <time>2020-01-27T12:19:56Z</time>
      </trkpt>
      <trkpt lat="44.48649" lon="5.95443">
        <ele>1236.1999512</ele>
        <time>2020-01-27T12:19:57Z</time>
      </trkpt>
      <trkpt lat="44.48645" lon="5.95446">
        <ele>1236</ele>
        <time>2020-01-27T12:19:58Z</time>
      </trkpt>
      <trkpt lat="44.48641" lon="5.95447">
        <ele>1236</ele>
        <time>2020-01-27T12:19:59Z</time>
      </trkpt>
      <trkpt lat="44.48636" lon="5.95448">
        <ele>1236</ele>
        <time>2020-01-27T12:20:00Z</time>
      </trkpt>
      <trkpt lat="44.48632" lon="5.95448">
        <ele>1235.8000488</ele>
        <time>2020-01-27T12:20:01Z</time>
      </trkpt>
      <trkpt lat="44.48626" lon="5.95449">
        <ele>1235.8000488</ele>
        <time>2020-01-27T12:20:02Z</time>
      </trkpt>
      <trkpt lat="44.48616" lon="5.95451">
        <ele>1235.5999756</ele>
        <time>2020-01-27T12:20:04Z</time>
      </trkpt>
      <trkpt lat="44.48548" lon="5.95455">
        <ele>1232.5999756</ele>
        <time>2020-01-27T12:20:15Z</time>
      </trkpt>
      <trkpt lat="44.48531" lon="5.95451">
        <ele>1231.5999756</ele>
        <time>2020-01-27T12:20:18Z</time>
      </trkpt>
      <trkpt lat="44.48525" lon="5.95452">
        <ele>1231.1999512</ele>
        <time>2020-01-27T12:20:19Z</time>
      </trkpt>
      <trkpt lat="44.48519" lon="5.95454">
        <ele>1230.8000488</ele>
        <time>2020-01-27T12:20:20Z</time>
      </trkpt>
      <trkpt lat="44.48513" lon="5.95458">
        <ele>1230.5999756</ele>
        <time>2020-01-27T12:20:21Z</time>
      </trkpt>
      <trkpt lat="44.48508" lon="5.95464">
        <ele>1230.4000244</ele>
        <time>2020-01-27T12:20:22Z</time>
      </trkpt>
      <trkpt lat="44.48502" lon="5.9547">
        <ele>1230.1999512</ele>
        <time>2020-01-27T12:20:23Z</time>
      </trkpt>
      <trkpt lat="44.48479" lon="5.95501">
        <ele>1228.1999512</ele>
        <time>2020-01-27T12:20:28Z</time>
      </trkpt>
      <trkpt lat="44.48475" lon="5.95508">
        <ele>1227.5999756</ele>
        <time>2020-01-27T12:20:29Z</time>
      </trkpt>
      <trkpt lat="44.48473" lon="5.95515">
        <ele>1226.1999512</ele>
        <time>2020-01-27T12:20:30Z</time>
      </trkpt>
      <trkpt lat="44.48471" lon="5.95523">
        <ele>1225.4000244</ele>
        <time>2020-01-27T12:20:31Z</time>
      </trkpt>
      <trkpt lat="44.48469" lon="5.95532">
        <ele>1224.5999756</ele>
        <time>2020-01-27T12:20:32Z</time>
      </trkpt>
      <trkpt lat="44.48468" lon="5.95542">
        <ele>1224</ele>
        <time>2020-01-27T12:20:33Z</time>
      </trkpt>
      <trkpt lat="44.48467" lon="5.95553">
        <ele>1223.5999756</ele>
        <time>2020-01-27T12:20:34Z</time>
      </trkpt>
      <trkpt lat="44.48466" lon="5.95624">
        <ele>1220</ele>
        <time>2020-01-27T12:20:40Z</time>
      </trkpt>
      <trkpt lat="44.48466" lon="5.95673">
        <ele>1216.8000488</ele>
        <time>2020-01-27T12:20:44Z</time>
      </trkpt>
      <trkpt lat="44.48467" lon="5.95708">
        <ele>1214.1999512</ele>
        <time>2020-01-27T12:20:47Z</time>
      </trkpt>
      <trkpt lat="44.48463" lon="5.95743">
        <ele>1211.1999512</ele>
        <time>2020-01-27T12:20:50Z</time>
      </trkpt>
      <trkpt lat="44.48454" lon="5.958">
        <ele>1207</ele>
        <time>2020-01-27T12:20:55Z</time>
      </trkpt>
      <trkpt lat="44.48444" lon="5.95856">
        <ele>1203.5999756</ele>
        <time>2020-01-27T12:21:00Z</time>
      </trkpt>
      <trkpt lat="44.48434" lon="5.9591">
        <ele>1200.4000244</ele>
        <time>2020-01-27T12:21:05Z</time>
      </trkpt>
      <trkpt lat="44.48423" lon="5.95957">
        <ele>1197.1999512</ele>
        <time>2020-01-27T12:21:11Z</time>
      </trkpt>
      <trkpt lat="44.48421" lon="5.95962">
        <ele>1196.8000488</ele>
        <time>2020-01-27T12:21:12Z</time>
      </trkpt>
      <trkpt lat="44.48418" lon="5.95966">
        <ele>1196.4000244</ele>
        <time>2020-01-27T12:21:13Z</time>
      </trkpt>
      <trkpt lat="44.48415" lon="5.9597">
        <ele>1195.8000488</ele>
        <time>2020-01-27T12:21:14Z</time>
      </trkpt>
      <trkpt lat="44.48412" lon="5.95973">
        <ele>1195.1999512</ele>
        <time>2020-01-27T12:21:15Z</time>
      </trkpt>
      <trkpt lat="44.48407" lon="5.95976">
        <ele>1195</ele>
        <time>2020-01-27T12:21:16Z</time>
      </trkpt>
      <trkpt lat="44.48402" lon="5.95978">
        <ele>1194.8000488</ele>
        <time>2020-01-27T12:21:17Z</time>
      </trkpt>
      <trkpt lat="44.48396" lon="5.95979">
        <ele>1194.5999756</ele>
        <time>2020-01-27T12:21:18Z</time>
      </trkpt>
      <trkpt lat="44.48384" lon="5.9598">
        <ele>1194.4000244</ele>
        <time>2020-01-27T12:21:20Z</time>
      </trkpt>
      <trkpt lat="44.48354" lon="5.95984">
        <ele>1192.8000488</ele>
        <time>2020-01-27T12:21:25Z</time>
      </trkpt>
      <trkpt lat="44.4835" lon="5.95986">
        <ele>1192.5999756</ele>
        <time>2020-01-27T12:21:26Z</time>
      </trkpt>
      <trkpt lat="44.48346" lon="5.95988">
        <ele>1192.1999512</ele>
        <time>2020-01-27T12:21:27Z</time>
      </trkpt>
      <trkpt lat="44.48342" lon="5.95992">
        <ele>1191.5999756</ele>
        <time>2020-01-27T12:21:28Z</time>
      </trkpt>
      <trkpt lat="44.48339" lon="5.95997">
        <ele>1191</ele>
        <time>2020-01-27T12:21:29Z</time>
      </trkpt>
      <trkpt lat="44.48336" lon="5.96003">
        <ele>1190.4000244</ele>
        <time>2020-01-27T12:21:30Z</time>
      </trkpt>
      <trkpt lat="44.48335" lon="5.96009">
        <ele>1189.8000488</ele>
        <time>2020-01-27T12:21:31Z</time>
      </trkpt>
      <trkpt lat="44.48334" lon="5.96017">
        <ele>1189.5999756</ele>
        <time>2020-01-27T12:21:32Z</time>
      </trkpt>
      <trkpt lat="44.48334" lon="5.96024">
        <ele>1189.4000244</ele>
        <time>2020-01-27T12:21:33Z</time>
      </trkpt>
      <trkpt lat="44.48335" lon="5.96033">
        <ele>1189.4000244</ele>
        <time>2020-01-27T12:21:34Z</time>
      </trkpt>
      <trkpt lat="44.4835" lon="5.96123">
        <ele>1186.1999512</ele>
        <time>2020-01-27T12:21:43Z</time>
      </trkpt>
      <trkpt lat="44.48354" lon="5.96184">
        <ele>1182.8000488</ele>
        <time>2020-01-27T12:21:48Z</time>
      </trkpt>
      <trkpt lat="44.48352" lon="5.96237">
        <ele>1179.5999756</ele>
        <time>2020-01-27T12:21:52Z</time>
      </trkpt>
      <trkpt lat="44.48351" lon="5.96284">
        <ele>1175.8000488</ele>
        <time>2020-01-27T12:21:56Z</time>
      </trkpt>
      <trkpt lat="44.48345" lon="5.9633">
        <ele>1172.1999512</ele>
        <time>2020-01-27T12:22:00Z</time>
      </trkpt>
      <trkpt lat="44.48339" lon="5.96388">
        <ele>1169</ele>
        <time>2020-01-27T12:22:06Z</time>
      </trkpt>
      <trkpt lat="44.48338" lon="5.96403">
        <ele>1167.1999512</ele>
        <time>2020-01-27T12:22:08Z</time>
      </trkpt>
      <trkpt lat="44.48338" lon="5.9643">
        <ele>1164.1999512</ele>
        <time>2020-01-27T12:22:12Z</time>
      </trkpt>
      <trkpt lat="44.48337" lon="5.96445">
        <ele>1163.5999756</ele>
        <time>2020-01-27T12:22:14Z</time>
      </trkpt>
      <trkpt lat="44.48337" lon="5.96452">
        <ele>1163.4000244</ele>
        <time>2020-01-27T12:22:15Z</time>
      </trkpt>
      <trkpt lat="44.48338" lon="5.96458">
        <ele>1163.1999512</ele>
        <time>2020-01-27T12:22:16Z</time>
      </trkpt>
      <trkpt lat="44.4834" lon="5.96463">
        <ele>1162.8000488</ele>
        <time>2020-01-27T12:22:17Z</time>
      </trkpt>
      <trkpt lat="44.48342" lon="5.96469">
        <ele>1162.8000488</ele>
        <time>2020-01-27T12:22:18Z</time>
      </trkpt>
      <trkpt lat="44.48344" lon="5.96474">
        <ele>1162.5999756</ele>
        <time>2020-01-27T12:22:19Z</time>
      </trkpt>
      <trkpt lat="44.48347" lon="5.96479">
        <ele>1162.4000244</ele>
        <time>2020-01-27T12:22:20Z</time>
      </trkpt>
      <trkpt lat="44.48403" lon="5.96589">
        <ele>1159.5999756</ele>
        <time>2020-01-27T12:22:40Z</time>
      </trkpt>
      <trkpt lat="44.48456" lon="5.96687">
        <ele>1159.4000244</ele>
        <time>2020-01-27T12:23:00Z</time>
      </trkpt>
      <trkpt lat="44.48462" lon="5.96701">
        <ele>1159.4000244</ele>
        <time>2020-01-27T12:23:03Z</time>
      </trkpt>
      <trkpt lat="44.48498" lon="5.96792">
        <ele>1159.1999512</ele>
        <time>2020-01-27T12:23:21Z</time>
      </trkpt>
      <trkpt lat="44.48523" lon="5.96915">
        <ele>1159</ele>
        <time>2020-01-27T12:23:43Z</time>
      </trkpt>
      <trkpt lat="44.48555" lon="5.9699">
        <ele>1159</ele>
        <time>2020-01-27T12:23:59Z</time>
      </trkpt>
      <trkpt lat="44.48619" lon="5.97019">
        <ele>1159</ele>
        <time>2020-01-27T12:24:15Z</time>
      </trkpt>
      <trkpt lat="44.48648" lon="5.97033">
        <ele>1158.8000488</ele>
        <time>2020-01-27T12:24:22Z</time>
      </trkpt>
      <trkpt lat="44.48652" lon="5.97036">
        <ele>1158.5999756</ele>
        <time>2020-01-27T12:24:23Z</time>
      </trkpt>
      <trkpt lat="44.48655" lon="5.97039">
        <ele>1158.5999756</ele>
        <time>2020-01-27T12:24:24Z</time>
      </trkpt>
      <trkpt lat="44.48673" lon="5.97062">
        <ele>1158.5999756</ele>
        <time>2020-01-27T12:24:30Z</time>
      </trkpt>
      <trkpt lat="44.48674" lon="5.97067">
        <ele>1158.5999756</ele>
        <time>2020-01-27T12:24:31Z</time>
      </trkpt>
      <trkpt lat="44.48679" lon="5.97089">
        <ele>1158.8000488</ele>
        <time>2020-01-27T12:24:35Z</time>
      </trkpt>
      <trkpt lat="44.48679" lon="5.97095">
        <ele>1158.8000488</ele>
        <time>2020-01-27T12:24:36Z</time>
      </trkpt>
      <trkpt lat="44.48679" lon="5.971">
        <ele>1158.8000488</ele>
        <time>2020-01-27T12:24:37Z</time>
      </trkpt>
      <trkpt lat="44.48679" lon="5.97106">
        <ele>1158.8000488</ele>
        <time>2020-01-27T12:24:38Z</time>
      </trkpt>
      <trkpt lat="44.48679" lon="5.97113">
        <ele>1158.8000488</ele>
        <time>2020-01-27T12:24:39Z</time>
      </trkpt>
      <trkpt lat="44.48672" lon="5.9717">
        <ele>1157.5999756</ele>
        <time>2020-01-27T12:24:48Z</time>
      </trkpt>
      <trkpt lat="44.48674" lon="5.97189">
        <ele>1157.1999512</ele>
        <time>2020-01-27T12:24:51Z</time>
      </trkpt>
      <trkpt lat="44.48679" lon="5.97207">
        <ele>1157.1999512</ele>
        <time>2020-01-27T12:24:54Z</time>
      </trkpt>
      <trkpt lat="44.48681" lon="5.97212">
        <ele>1157</ele>
        <time>2020-01-27T12:24:55Z</time>
      </trkpt>
      <trkpt lat="44.48684" lon="5.97217">
        <ele>1156.8000488</ele>
        <time>2020-01-27T12:24:56Z</time>
      </trkpt>
      <trkpt lat="44.48713" lon="5.97254">
        <ele>1154.8000488</ele>
        <time>2020-01-27T12:25:08Z</time>
      </trkpt>
      <trkpt lat="44.48712" lon="5.97255">
        <ele>1154.4000244</ele>
        <time>2020-01-27T12:25:33Z</time>
      </trkpt>
      <trkpt lat="44.48722" lon="5.97313">
        <ele>1154</ele>
        <time>2020-01-27T12:25:43Z</time>
      </trkpt>
      <trkpt lat="44.48737" lon="5.97361">
        <ele>1150.5999756</ele>
        <time>2020-01-27T12:25:50Z</time>
      </trkpt>
      <trkpt lat="44.48772" lon="5.97419">
        <ele>1147.1999512</ele>
        <time>2020-01-27T12:25:59Z</time>
      </trkpt>
      <trkpt lat="44.48815" lon="5.97469">
        <ele>1144.1999512</ele>
        <time>2020-01-27T12:26:07Z</time>
      </trkpt>
      <trkpt lat="44.48843" lon="5.97521">
        <ele>1141</ele>
        <time>2020-01-27T12:26:13Z</time>
      </trkpt>
      <trkpt lat="44.48847" lon="5.97531">
        <ele>1141</ele>
        <time>2020-01-27T12:26:14Z</time>
      </trkpt>
      <trkpt lat="44.4887" lon="5.97585">
        <ele>1137.4000244</ele>
        <time>2020-01-27T12:26:20Z</time>
      </trkpt>
      <trkpt lat="44.48888" lon="5.97623">
        <ele>1134</ele>
        <time>2020-01-27T12:26:25Z</time>
      </trkpt>
      <trkpt lat="44.4892" lon="5.97688">
        <ele>1131.1999512</ele>
        <time>2020-01-27T12:26:34Z</time>
      </trkpt>
      <trkpt lat="44.48958" lon="5.97726">
        <ele>1128.4000244</ele>
        <time>2020-01-27T12:26:41Z</time>
      </trkpt>
      <trkpt lat="44.48999" lon="5.97763">
        <ele>1125.1999512</ele>
        <time>2020-01-27T12:26:48Z</time>
      </trkpt>
      <trkpt lat="44.49005" lon="5.97768">
        <ele>1125</ele>
        <time>2020-01-27T12:26:49Z</time>
      </trkpt>
      <trkpt lat="44.49045" lon="5.97805">
        <ele>1121.5999756</ele>
        <time>2020-01-27T12:26:56Z</time>
      </trkpt>
      <trkpt lat="44.4907" lon="5.97842">
        <ele>1118.4000244</ele>
        <time>2020-01-27T12:27:01Z</time>
      </trkpt>
      <trkpt lat="44.49075" lon="5.9785">
        <ele>1118.4000244</ele>
        <time>2020-01-27T12:27:02Z</time>
      </trkpt>
      <trkpt lat="44.49091" lon="5.97873">
        <ele>1115</ele>
        <time>2020-01-27T12:27:05Z</time>
      </trkpt>
      <trkpt lat="44.49111" lon="5.97902">
        <ele>1111.8000488</ele>
        <time>2020-01-27T12:27:10Z</time>
      </trkpt>
      <trkpt lat="44.49118" lon="5.97911">
        <ele>1110.1999512</ele>
        <time>2020-01-27T12:27:12Z</time>
      </trkpt>
      <trkpt lat="44.49121" lon="5.97917">
        <ele>1109.5999756</ele>
        <time>2020-01-27T12:27:13Z</time>
      </trkpt>
      <trkpt lat="44.49169" lon="5.9799">
        <ele>1106.1999512</ele>
        <time>2020-01-27T12:27:23Z</time>
      </trkpt>
      <trkpt lat="44.49192" lon="5.98027">
        <ele>1102.5999756</ele>
        <time>2020-01-27T12:27:27Z</time>
      </trkpt>
      <trkpt lat="44.49216" lon="5.98062">
        <ele>1099.1999512</ele>
        <time>2020-01-27T12:27:31Z</time>
      </trkpt>
      <trkpt lat="44.49238" lon="5.98096">
        <ele>1095.8000488</ele>
        <time>2020-01-27T12:27:35Z</time>
      </trkpt>
      <trkpt lat="44.49264" lon="5.98136">
        <ele>1093.4000244</ele>
        <time>2020-01-27T12:27:40Z</time>
      </trkpt>
      <trkpt lat="44.49285" lon="5.98166">
        <ele>1091.5999756</ele>
        <time>2020-01-27T12:27:44Z</time>
      </trkpt>
      <trkpt lat="44.49334" lon="5.9824">
        <ele>1088.4000244</ele>
        <time>2020-01-27T12:27:55Z</time>
      </trkpt>
      <trkpt lat="44.49338" lon="5.98245">
        <ele>1088</ele>
        <time>2020-01-27T12:27:56Z</time>
      </trkpt>
      <trkpt lat="44.49342" lon="5.98249">
        <ele>1087.8000488</ele>
        <time>2020-01-27T12:27:57Z</time>
      </trkpt>
      <trkpt lat="44.494" lon="5.98279">
        <ele>1086.1999512</ele>
        <time>2020-01-27T12:28:10Z</time>
      </trkpt>
      <trkpt lat="44.49405" lon="5.9828">
        <ele>1086</ele>
        <time>2020-01-27T12:28:11Z</time>
      </trkpt>
      <trkpt lat="44.49455" lon="5.98306">
        <ele>1084</ele>
        <time>2020-01-27T12:28:23Z</time>
      </trkpt>
      <trkpt lat="44.4948" lon="5.98332">
        <ele>1082.4000244</ele>
        <time>2020-01-27T12:28:29Z</time>
      </trkpt>
      <trkpt lat="44.49508" lon="5.98378">
        <ele>1079.1999512</ele>
        <time>2020-01-27T12:28:38Z</time>
      </trkpt>
      <trkpt lat="44.49512" lon="5.98383">
        <ele>1078.5999756</ele>
        <time>2020-01-27T12:28:39Z</time>
      </trkpt>
      <trkpt lat="44.49516" lon="5.98387">
        <ele>1078.4000244</ele>
        <time>2020-01-27T12:28:40Z</time>
      </trkpt>
      <trkpt lat="44.49522" lon="5.98391">
        <ele>1078</ele>
        <time>2020-01-27T12:28:41Z</time>
      </trkpt>
      <trkpt lat="44.49527" lon="5.98393">
        <ele>1077.8000488</ele>
        <time>2020-01-27T12:28:42Z</time>
      </trkpt>
      <trkpt lat="44.49532" lon="5.98394">
        <ele>1077.4000244</ele>
        <time>2020-01-27T12:28:43Z</time>
      </trkpt>
      <trkpt lat="44.49538" lon="5.98394">
        <ele>1077</ele>
        <time>2020-01-27T12:28:44Z</time>
      </trkpt>
      <trkpt lat="44.49543" lon="5.98394">
        <ele>1076.5999756</ele>
        <time>2020-01-27T12:28:45Z</time>
      </trkpt>
      <trkpt lat="44.49594" lon="5.98391">
        <ele>1073.1999512</ele>
        <time>2020-01-27T12:28:53Z</time>
      </trkpt>
      <trkpt lat="44.49601" lon="5.98391">
        <ele>1072.8000488</ele>
        <time>2020-01-27T12:28:54Z</time>
      </trkpt>
      <trkpt lat="44.49626" lon="5.98392">
        <ele>1070.1999512</ele>
        <time>2020-01-27T12:28:58Z</time>
      </trkpt>
      <trkpt lat="44.49632" lon="5.98395">
        <ele>1069.5999756</ele>
        <time>2020-01-27T12:28:59Z</time>
      </trkpt>
      <trkpt lat="44.49637" lon="5.98399">
        <ele>1069.1999512</ele>
        <time>2020-01-27T12:29:00Z</time>
      </trkpt>
      <trkpt lat="44.49642" lon="5.98404">
        <ele>1068.8000488</ele>
        <time>2020-01-27T12:29:01Z</time>
      </trkpt>
      <trkpt lat="44.49646" lon="5.98411">
        <ele>1068.4000244</ele>
        <time>2020-01-27T12:29:02Z</time>
      </trkpt>
      <trkpt lat="44.49648" lon="5.98419">
        <ele>1068.1999512</ele>
        <time>2020-01-27T12:29:03Z</time>
      </trkpt>
      <trkpt lat="44.4965" lon="5.98427">
        <ele>1067.8000488</ele>
        <time>2020-01-27T12:29:04Z</time>
      </trkpt>
      <trkpt lat="44.49652" lon="5.98435">
        <ele>1067.4000244</ele>
        <time>2020-01-27T12:29:05Z</time>
      </trkpt>
      <trkpt lat="44.49658" lon="5.98458">
        <ele>1066.1999512</ele>
        <time>2020-01-27T12:29:08Z</time>
      </trkpt>
      <trkpt lat="44.49659" lon="5.98467">
        <ele>1065.5999756</ele>
        <time>2020-01-27T12:29:09Z</time>
      </trkpt>
      <trkpt lat="44.4966" lon="5.98477">
        <ele>1065</ele>
        <time>2020-01-27T12:29:10Z</time>
      </trkpt>
      <trkpt lat="44.49659" lon="5.98486">
        <ele>1064.4000244</ele>
        <time>2020-01-27T12:29:11Z</time>
      </trkpt>
      <trkpt lat="44.49658" lon="5.98496">
        <ele>1063.8000488</ele>
        <time>2020-01-27T12:29:12Z</time>
      </trkpt>
      <trkpt lat="44.49656" lon="5.98506">
        <ele>1063.4000244</ele>
        <time>2020-01-27T12:29:13Z</time>
      </trkpt>
      <trkpt lat="44.49654" lon="5.98516">
        <ele>1062.8000488</ele>
        <time>2020-01-27T12:29:14Z</time>
      </trkpt>
      <trkpt lat="44.49652" lon="5.98526">
        <ele>1062.4000244</ele>
        <time>2020-01-27T12:29:15Z</time>
      </trkpt>
      <trkpt lat="44.49643" lon="5.98565">
        <ele>1059.1999512</ele>
        <time>2020-01-27T12:29:19Z</time>
      </trkpt>
      <trkpt lat="44.49635" lon="5.98592">
        <ele>1057</ele>
        <time>2020-01-27T12:29:22Z</time>
      </trkpt>
      <trkpt lat="44.49631" lon="5.986">
        <ele>1056.4000244</ele>
        <time>2020-01-27T12:29:23Z</time>
      </trkpt>
      <trkpt lat="44.49627" lon="5.98607">
        <ele>1055.8000488</ele>
        <time>2020-01-27T12:29:24Z</time>
      </trkpt>
      <trkpt lat="44.49605" lon="5.98639">
        <ele>1051.8000488</ele>
        <time>2020-01-27T12:29:30Z</time>
      </trkpt>
      <trkpt lat="44.49598" lon="5.98675">
        <ele>1049.1999512</ele>
        <time>2020-01-27T12:29:39Z</time>
      </trkpt>
      <trkpt lat="44.49601" lon="5.98679">
        <ele>1049.1999512</ele>
        <time>2020-01-27T12:29:40Z</time>
      </trkpt>
      <trkpt lat="44.49605" lon="5.98683">
        <ele>1048.8000488</ele>
        <time>2020-01-27T12:29:41Z</time>
      </trkpt>
      <trkpt lat="44.49608" lon="5.98687">
        <ele>1048.5999756</ele>
        <time>2020-01-27T12:29:42Z</time>
      </trkpt>
      <trkpt lat="44.49611" lon="5.98691">
        <ele>1048.4000244</ele>
        <time>2020-01-27T12:29:43Z</time>
      </trkpt>
      <trkpt lat="44.49613" lon="5.98696">
        <ele>1048.4000244</ele>
        <time>2020-01-27T12:29:44Z</time>
      </trkpt>
      <trkpt lat="44.49615" lon="5.98702">
        <ele>1048.1999512</ele>
        <time>2020-01-27T12:29:45Z</time>
      </trkpt>
      <trkpt lat="44.49617" lon="5.98707">
        <ele>1048</ele>
        <time>2020-01-27T12:29:46Z</time>
      </trkpt>
      <trkpt lat="44.49618" lon="5.98713">
        <ele>1047.8000488</ele>
        <time>2020-01-27T12:29:47Z</time>
      </trkpt>
      <trkpt lat="44.49619" lon="5.98718">
        <ele>1047.5999756</ele>
        <time>2020-01-27T12:29:48Z</time>
      </trkpt>
      <trkpt lat="44.4962" lon="5.98724">
        <ele>1047.4000244</ele>
        <time>2020-01-27T12:29:49Z</time>
      </trkpt>
      <trkpt lat="44.49635" lon="5.98822">
        <ele>1047.4000244</ele>
        <time>2020-01-27T12:30:06Z</time>
      </trkpt>
      <trkpt lat="44.4967" lon="5.98914">
        <ele>1047</ele>
        <time>2020-01-27T12:30:23Z</time>
      </trkpt>
      <trkpt lat="44.49726" lon="5.98963">
        <ele>1046.8000488</ele>
        <time>2020-01-27T12:30:39Z</time>
      </trkpt>
      <trkpt lat="44.49757" lon="5.98987">
        <ele>1046.5999756</ele>
        <time>2020-01-27T12:30:47Z</time>
      </trkpt>
      <trkpt lat="44.4976" lon="5.98991">
        <ele>1046.5999756</ele>
        <time>2020-01-27T12:30:48Z</time>
      </trkpt>
      <trkpt lat="44.49764" lon="5.98996">
        <ele>1046.5999756</ele>
        <time>2020-01-27T12:30:49Z</time>
      </trkpt>
      <trkpt lat="44.49767" lon="5.99">
        <ele>1046.5999756</ele>
        <time>2020-01-27T12:30:50Z</time>
      </trkpt>
      <trkpt lat="44.49769" lon="5.99005">
        <ele>1046.5999756</ele>
        <time>2020-01-27T12:30:51Z</time>
      </trkpt>
      <trkpt lat="44.49772" lon="5.99011">
        <ele>1046.5999756</ele>
        <time>2020-01-27T12:30:52Z</time>
      </trkpt>
      <trkpt lat="44.49774" lon="5.99016">
        <ele>1046.5999756</ele>
        <time>2020-01-27T12:30:53Z</time>
      </trkpt>
      <trkpt lat="44.49789" lon="5.99112">
        <ele>1045.8000488</ele>
        <time>2020-01-27T12:31:09Z</time>
      </trkpt>
      <trkpt lat="44.49797" lon="5.99231">
        <ele>1046.5999756</ele>
        <time>2020-01-27T12:31:30Z</time>
      </trkpt>
      <trkpt lat="44.49772" lon="5.99336">
        <ele>1047.4000244</ele>
        <time>2020-01-27T12:31:50Z</time>
      </trkpt>
      <trkpt lat="44.49724" lon="5.99402">
        <ele>1047.8000488</ele>
        <time>2020-01-27T12:32:07Z</time>
      </trkpt>
      <trkpt lat="44.49697" lon="5.99488">
        <ele>1047.8000488</ele>
        <time>2020-01-27T12:32:24Z</time>
      </trkpt>
      <trkpt lat="44.49701" lon="5.99503">
        <ele>1047.8000488</ele>
        <time>2020-01-27T12:32:27Z</time>
      </trkpt>
      <trkpt lat="44.49703" lon="5.99507">
        <ele>1047.8000488</ele>
        <time>2020-01-27T12:32:28Z</time>
      </trkpt>
      <trkpt lat="44.49706" lon="5.99512">
        <ele>1047.8000488</ele>
        <time>2020-01-27T12:32:29Z</time>
      </trkpt>
      <trkpt lat="44.49709" lon="5.99516">
        <ele>1047.8000488</ele>
        <time>2020-01-27T12:32:30Z</time>
      </trkpt>
      <trkpt lat="44.49713" lon="5.9952">
        <ele>1047.8000488</ele>
        <time>2020-01-27T12:32:31Z</time>
      </trkpt>
      <trkpt lat="44.49717" lon="5.99523">
        <ele>1047.8000488</ele>
        <time>2020-01-27T12:32:32Z</time>
      </trkpt>
      <trkpt lat="44.49721" lon="5.99526">
        <ele>1047.8000488</ele>
        <time>2020-01-27T12:32:33Z</time>
      </trkpt>
      <trkpt lat="44.49726" lon="5.99528">
        <ele>1047.8000488</ele>
        <time>2020-01-27T12:32:34Z</time>
      </trkpt>
      <trkpt lat="44.49807" lon="5.9956">
        <ele>1045.1999512</ele>
        <time>2020-01-27T12:32:51Z</time>
      </trkpt>
      <trkpt lat="44.4989" lon="5.99555">
        <ele>1043.1999512</ele>
        <time>2020-01-27T12:33:07Z</time>
      </trkpt>
      <trkpt lat="44.49974" lon="5.99536">
        <ele>1040.1999512</ele>
        <time>2020-01-27T12:33:22Z</time>
      </trkpt>
      <trkpt lat="44.50055" lon="5.99508">
        <ele>1037.1999512</ele>
        <time>2020-01-27T12:33:36Z</time>
      </trkpt>
      <trkpt lat="44.50117" lon="5.99493">
        <ele>1035.4000244</ele>
        <time>2020-01-27T12:33:47Z</time>
      </trkpt>
      <trkpt lat="44.50198" lon="5.99514">
        <ele>1032.5999756</ele>
        <time>2020-01-27T12:34:01Z</time>
      </trkpt>
      <trkpt lat="44.50228" lon="5.99533">
        <ele>1031.1999512</ele>
        <time>2020-01-27T12:34:07Z</time>
      </trkpt>
      <trkpt lat="44.50307" lon="5.99535">
        <ele>1030</ele>
        <time>2020-01-27T12:34:22Z</time>
      </trkpt>
      <trkpt lat="44.50351" lon="5.99526">
        <ele>1028.5999756</ele>
        <time>2020-01-27T12:34:31Z</time>
      </trkpt>
      <trkpt lat="44.50414" lon="5.99525">
        <ele>1027.8000488</ele>
        <time>2020-01-27T12:34:44Z</time>
      </trkpt>
      <trkpt lat="44.50435" lon="5.9953">
        <ele>1027.1999512</ele>
        <time>2020-01-27T12:34:48Z</time>
      </trkpt>
      <trkpt lat="44.50464" lon="5.99529">
        <ele>1027</ele>
        <time>2020-01-27T12:34:54Z</time>
      </trkpt>
      <trkpt lat="44.50493" lon="5.99517">
        <ele>1027</ele>
        <time>2020-01-27T12:35:00Z</time>
      </trkpt>
      <trkpt lat="44.50497" lon="5.99514">
        <ele>1027</ele>
        <time>2020-01-27T12:35:01Z</time>
      </trkpt>
      <trkpt lat="44.50501" lon="5.99512">
        <ele>1027</ele>
        <time>2020-01-27T12:35:02Z</time>
      </trkpt>
      <trkpt lat="44.50574" lon="5.99475">
        <ele>1026.8000488</ele>
        <time>2020-01-27T12:35:18Z</time>
      </trkpt>
      <trkpt lat="44.50627" lon="5.99433">
        <ele>1026</ele>
        <time>2020-01-27T12:35:30Z</time>
      </trkpt>
      <trkpt lat="44.50631" lon="5.99428">
        <ele>1025.8000488</ele>
        <time>2020-01-27T12:35:31Z</time>
      </trkpt>
      <trkpt lat="44.50641" lon="5.99412">
        <ele>1025.4000244</ele>
        <time>2020-01-27T12:35:34Z</time>
      </trkpt>
      <trkpt lat="44.50643" lon="5.99406">
        <ele>1025.4000244</ele>
        <time>2020-01-27T12:35:35Z</time>
      </trkpt>
      <trkpt lat="44.50645" lon="5.994">
        <ele>1025.4000244</ele>
        <time>2020-01-27T12:35:36Z</time>
      </trkpt>
      <trkpt lat="44.5065" lon="5.99388">
        <ele>1025.4000244</ele>
        <time>2020-01-27T12:35:38Z</time>
      </trkpt>
      <trkpt lat="44.50652" lon="5.99383">
        <ele>1025.4000244</ele>
        <time>2020-01-27T12:35:39Z</time>
      </trkpt>
      <trkpt lat="44.50653" lon="5.99376">
        <ele>1025.1999512</ele>
        <time>2020-01-27T12:35:40Z</time>
      </trkpt>
      <trkpt lat="44.50654" lon="5.99368">
        <ele>1025.1999512</ele>
        <time>2020-01-27T12:35:41Z</time>
      </trkpt>
      <trkpt lat="44.50656" lon="5.99361">
        <ele>1025.1999512</ele>
        <time>2020-01-27T12:35:42Z</time>
      </trkpt>
      <trkpt lat="44.50659" lon="5.99355">
        <ele>1025.1999512</ele>
        <time>2020-01-27T12:35:43Z</time>
      </trkpt>
      <trkpt lat="44.50662" lon="5.99349">
        <ele>1025</ele>
        <time>2020-01-27T12:35:44Z</time>
      </trkpt>
      <trkpt lat="44.50666" lon="5.99343">
        <ele>1025</ele>
        <time>2020-01-27T12:35:45Z</time>
      </trkpt>
      <trkpt lat="44.50672" lon="5.99332">
        <ele>1024.8000488</ele>
        <time>2020-01-27T12:35:47Z</time>
      </trkpt>
      <trkpt lat="44.50677" lon="5.99327">
        <ele>1024.5999756</ele>
        <time>2020-01-27T12:35:48Z</time>
      </trkpt>
      <trkpt lat="44.50681" lon="5.99321">
        <ele>1024.5999756</ele>
        <time>2020-01-27T12:35:49Z</time>
      </trkpt>
      <trkpt lat="44.5069" lon="5.99308">
        <ele>1024.4000244</ele>
        <time>2020-01-27T12:35:51Z</time>
      </trkpt>
      <trkpt lat="44.50693" lon="5.99303">
        <ele>1024.1999512</ele>
        <time>2020-01-27T12:35:52Z</time>
      </trkpt>
      <trkpt lat="44.50697" lon="5.99297">
        <ele>1024</ele>
        <time>2020-01-27T12:35:53Z</time>
      </trkpt>
      <trkpt lat="44.50753" lon="5.99215">
        <ele>1023</ele>
        <time>2020-01-27T12:36:08Z</time>
      </trkpt>
      <trkpt lat="44.50758" lon="5.99212">
        <ele>1023</ele>
        <time>2020-01-27T12:36:09Z</time>
      </trkpt>
      <trkpt lat="44.50763" lon="5.99209">
        <ele>1023</ele>
        <time>2020-01-27T12:36:10Z</time>
      </trkpt>
      <trkpt lat="44.50768" lon="5.99206">
        <ele>1023</ele>
        <time>2020-01-27T12:36:11Z</time>
      </trkpt>
      <trkpt lat="44.50773" lon="5.99205">
        <ele>1023</ele>
        <time>2020-01-27T12:36:12Z</time>
      </trkpt>
      <trkpt lat="44.50808" lon="5.99198">
        <ele>1022.4000244</ele>
        <time>2020-01-27T12:36:19Z</time>
      </trkpt>
      <trkpt lat="44.50814" lon="5.99198">
        <ele>1022.4000244</ele>
        <time>2020-01-27T12:36:20Z</time>
      </trkpt>
      <trkpt lat="44.50902" lon="5.99213">
        <ele>1019.2000122</ele>
        <time>2020-01-27T12:36:34Z</time>
      </trkpt>
      <trkpt lat="44.50976" lon="5.9923">
        <ele>1016.2000122</ele>
        <time>2020-01-27T12:36:45Z</time>
      </trkpt>
      <trkpt lat="44.50982" lon="5.99233">
        <ele>1015.7999878</ele>
        <time>2020-01-27T12:36:46Z</time>
      </trkpt>
      <trkpt lat="44.50988" lon="5.99238">
        <ele>1015.5999756</ele>
        <time>2020-01-27T12:36:47Z</time>
      </trkpt>
      <trkpt lat="44.50993" lon="5.99244">
        <ele>1015.2000122</ele>
        <time>2020-01-27T12:36:48Z</time>
      </trkpt>
      <trkpt lat="44.50997" lon="5.99251">
        <ele>1015</ele>
        <time>2020-01-27T12:36:49Z</time>
      </trkpt>
      <trkpt lat="44.51001" lon="5.99259">
        <ele>1014.7999878</ele>
        <time>2020-01-27T12:36:50Z</time>
      </trkpt>
      <trkpt lat="44.51004" lon="5.99267">
        <ele>1014.7999878</ele>
        <time>2020-01-27T12:36:51Z</time>
      </trkpt>
      <trkpt lat="44.51006" lon="5.99275">
        <ele>1014.7999878</ele>
        <time>2020-01-27T12:36:52Z</time>
      </trkpt>
      <trkpt lat="44.51008" lon="5.99284">
        <ele>1014.5999756</ele>
        <time>2020-01-27T12:36:53Z</time>
      </trkpt>
      <trkpt lat="44.51008" lon="5.99293">
        <ele>1014.2000122</ele>
        <time>2020-01-27T12:36:54Z</time>
      </trkpt>
      <trkpt lat="44.51008" lon="5.99302">
        <ele>1013.7999878</ele>
        <time>2020-01-27T12:36:55Z</time>
      </trkpt>
      <trkpt lat="44.51008" lon="5.9931">
        <ele>1013.4000244</ele>
        <time>2020-01-27T12:36:56Z</time>
      </trkpt>
      <trkpt lat="44.51006" lon="5.99318">
        <ele>1013</ele>
        <time>2020-01-27T12:36:57Z</time>
      </trkpt>
      <trkpt lat="44.51005" lon="5.99326">
        <ele>1012.7999878</ele>
        <time>2020-01-27T12:36:58Z</time>
      </trkpt>
      <trkpt lat="44.51004" lon="5.99334">
        <ele>1012.4000244</ele>
        <time>2020-01-27T12:36:59Z</time>
      </trkpt>
      <trkpt lat="44.51001" lon="5.99442">
        <ele>1010</ele>
        <time>2020-01-27T12:37:12Z</time>
      </trkpt>
      <trkpt lat="44.5104" lon="5.99537">
        <ele>1007</ele>
        <time>2020-01-27T12:37:25Z</time>
      </trkpt>
      <trkpt lat="44.51095" lon="5.99638">
        <ele>1004.5999756</ele>
        <time>2020-01-27T12:37:41Z</time>
      </trkpt>
      <trkpt lat="44.51097" lon="5.99645">
        <ele>1004.5999756</ele>
        <time>2020-01-27T12:37:42Z</time>
      </trkpt>
      <trkpt lat="44.51098" lon="5.99652">
        <ele>1004.4000244</ele>
        <time>2020-01-27T12:37:43Z</time>
      </trkpt>
      <trkpt lat="44.51099" lon="5.99659">
        <ele>1004.2000122</ele>
        <time>2020-01-27T12:37:44Z</time>
      </trkpt>
      <trkpt lat="44.51099" lon="5.99667">
        <ele>1004.2000122</ele>
        <time>2020-01-27T12:37:45Z</time>
      </trkpt>
      <trkpt lat="44.51099" lon="5.99674">
        <ele>1004.2000122</ele>
        <time>2020-01-27T12:37:46Z</time>
      </trkpt>
      <trkpt lat="44.51097" lon="5.99681">
        <ele>1004</ele>
        <time>2020-01-27T12:37:47Z</time>
      </trkpt>
      <trkpt lat="44.51095" lon="5.99688">
        <ele>1004</ele>
        <time>2020-01-27T12:37:48Z</time>
      </trkpt>
      <trkpt lat="44.51093" lon="5.99694">
        <ele>1004</ele>
        <time>2020-01-27T12:37:49Z</time>
      </trkpt>
      <trkpt lat="44.5109" lon="5.997">
        <ele>1004</ele>
        <time>2020-01-27T12:37:50Z</time>
      </trkpt>
      <trkpt lat="44.51086" lon="5.99706">
        <ele>1004</ele>
        <time>2020-01-27T12:37:51Z</time>
      </trkpt>
      <trkpt lat="44.51083" lon="5.99711">
        <ele>1004</ele>
        <time>2020-01-27T12:37:52Z</time>
      </trkpt>
      <trkpt lat="44.51038" lon="5.99795">
        <ele>1004.4000244</ele>
        <time>2020-01-27T12:38:07Z</time>
      </trkpt>
      <trkpt lat="44.51032" lon="5.99814">
        <ele>1004.4000244</ele>
        <time>2020-01-27T12:38:10Z</time>
      </trkpt>
      <trkpt lat="44.51031" lon="5.99821">
        <ele>1004.2000122</ele>
        <time>2020-01-27T12:38:11Z</time>
      </trkpt>
      <trkpt lat="44.5103" lon="5.99828">
        <ele>1004.2000122</ele>
        <time>2020-01-27T12:38:12Z</time>
      </trkpt>
      <trkpt lat="44.51031" lon="5.99835">
        <ele>1004</ele>
        <time>2020-01-27T12:38:13Z</time>
      </trkpt>
      <trkpt lat="44.51031" lon="5.99842">
        <ele>1003.7999878</ele>
        <time>2020-01-27T12:38:14Z</time>
      </trkpt>
      <trkpt lat="44.51033" lon="5.99849">
        <ele>1003.5999756</ele>
        <time>2020-01-27T12:38:15Z</time>
      </trkpt>
      <trkpt lat="44.51035" lon="5.99855">
        <ele>1003.5999756</ele>
        <time>2020-01-27T12:38:16Z</time>
      </trkpt>
      <trkpt lat="44.51037" lon="5.99862">
        <ele>1003.4000244</ele>
        <time>2020-01-27T12:38:17Z</time>
      </trkpt>
      <trkpt lat="44.51076" lon="5.99961">
        <ele>1001</ele>
        <time>2020-01-27T12:38:32Z</time>
      </trkpt>
      <trkpt lat="44.51137" lon="6.00017">
        <ele>999.4000244</ele>
        <time>2020-01-27T12:38:45Z</time>
      </trkpt>
      <trkpt lat="44.51151" lon="6.00029">
        <ele>998.4000244</ele>
        <time>2020-01-27T12:38:48Z</time>
      </trkpt>
      <trkpt lat="44.51155" lon="6.00034">
        <ele>998.2000122</ele>
        <time>2020-01-27T12:38:49Z</time>
      </trkpt>
      <trkpt lat="44.51158" lon="6.0004">
        <ele>998.2000122</ele>
        <time>2020-01-27T12:38:50Z</time>
      </trkpt>
      <trkpt lat="44.51161" lon="6.00046">
        <ele>997.7999878</ele>
        <time>2020-01-27T12:38:51Z</time>
      </trkpt>
      <trkpt lat="44.51164" lon="6.00052">
        <ele>997.5999756</ele>
        <time>2020-01-27T12:38:52Z</time>
      </trkpt>
      <trkpt lat="44.51166" lon="6.00059">
        <ele>997.4000244</ele>
        <time>2020-01-27T12:38:53Z</time>
      </trkpt>
      <trkpt lat="44.51167" lon="6.00066">
        <ele>997.2000122</ele>
        <time>2020-01-27T12:38:54Z</time>
      </trkpt>
      <trkpt lat="44.51168" lon="6.00074">
        <ele>997.2000122</ele>
        <time>2020-01-27T12:38:55Z</time>
      </trkpt>
      <trkpt lat="44.51169" lon="6.00081">
        <ele>997</ele>
        <time>2020-01-27T12:38:56Z</time>
      </trkpt>
      <trkpt lat="44.51168" lon="6.00088">
        <ele>997</ele>
        <time>2020-01-27T12:38:57Z</time>
      </trkpt>
      <trkpt lat="44.51168" lon="6.00096">
        <ele>997</ele>
        <time>2020-01-27T12:38:58Z</time>
      </trkpt>
      <trkpt lat="44.51167" lon="6.00103">
        <ele>997</ele>
        <time>2020-01-27T12:38:59Z</time>
      </trkpt>
      <trkpt lat="44.51166" lon="6.0011">
        <ele>997</ele>
        <time>2020-01-27T12:39:00Z</time>
      </trkpt>
      <trkpt lat="44.51165" lon="6.00117">
        <ele>996.7999878</ele>
        <time>2020-01-27T12:39:01Z</time>
      </trkpt>
      <trkpt lat="44.51152" lon="6.00247">
        <ele>997</ele>
        <time>2020-01-27T12:39:21Z</time>
      </trkpt>
      <trkpt lat="44.51155" lon="6.00311">
        <ele>996.5999756</ele>
        <time>2020-01-27T12:39:31Z</time>
      </trkpt>
      <trkpt lat="44.51156" lon="6.00317">
        <ele>996.5999756</ele>
        <time>2020-01-27T12:39:32Z</time>
      </trkpt>
      <trkpt lat="44.5118" lon="6.00432">
        <ele>996.2000122</ele>
        <time>2020-01-27T12:39:52Z</time>
      </trkpt>
      <trkpt lat="44.51202" lon="6.00552">
        <ele>995.7999878</ele>
        <time>2020-01-27T12:40:12Z</time>
      </trkpt>
      <trkpt lat="44.51226" lon="6.00688">
        <ele>993.2000122</ele>
        <time>2020-01-27T12:40:32Z</time>
      </trkpt>
      <trkpt lat="44.51245" lon="6.00843">
        <ele>991.7999878</ele>
        <time>2020-01-27T12:40:56Z</time>
      </trkpt>
      <trkpt lat="44.51251" lon="6.00867">
        <ele>991.7999878</ele>
        <time>2020-01-27T12:41:00Z</time>
      </trkpt>
      <trkpt lat="44.51256" lon="6.00878">
        <ele>991.7999878</ele>
        <time>2020-01-27T12:41:02Z</time>
      </trkpt>
      <trkpt lat="44.51258" lon="6.00884">
        <ele>991.7999878</ele>
        <time>2020-01-27T12:41:03Z</time>
      </trkpt>
      <trkpt lat="44.51325" lon="6.00956">
        <ele>991.2000122</ele>
        <time>2020-01-27T12:41:21Z</time>
      </trkpt>
      <trkpt lat="44.51414" lon="6.01005">
        <ele>988</ele>
        <time>2020-01-27T12:41:38Z</time>
      </trkpt>
      <trkpt lat="44.51447" lon="6.01022">
        <ele>985.5999756</ele>
        <time>2020-01-27T12:41:44Z</time>
      </trkpt>
      <trkpt lat="44.51462" lon="6.01031">
        <ele>985.2000122</ele>
        <time>2020-01-27T12:41:47Z</time>
      </trkpt>
      <trkpt lat="44.51467" lon="6.01035">
        <ele>985</ele>
        <time>2020-01-27T12:41:48Z</time>
      </trkpt>
      <trkpt lat="44.5148" lon="6.0105">
        <ele>984.4000244</ele>
        <time>2020-01-27T12:41:51Z</time>
      </trkpt>
      <trkpt lat="44.51483" lon="6.01056">
        <ele>984.2000122</ele>
        <time>2020-01-27T12:41:52Z</time>
      </trkpt>
      <trkpt lat="44.51487" lon="6.01062">
        <ele>984</ele>
        <time>2020-01-27T12:41:53Z</time>
      </trkpt>
      <trkpt lat="44.51493" lon="6.01077">
        <ele>983.7999878</ele>
        <time>2020-01-27T12:41:55Z</time>
      </trkpt>
      <trkpt lat="44.51518" lon="6.01158">
        <ele>980.5999756</ele>
        <time>2020-01-27T12:42:05Z</time>
      </trkpt>
      <trkpt lat="44.51521" lon="6.01164">
        <ele>980.2000122</ele>
        <time>2020-01-27T12:42:06Z</time>
      </trkpt>
      <trkpt lat="44.51524" lon="6.0117">
        <ele>979.5999756</ele>
        <time>2020-01-27T12:42:07Z</time>
      </trkpt>
      <trkpt lat="44.51547" lon="6.01209">
        <ele>977.7999878</ele>
        <time>2020-01-27T12:42:14Z</time>
      </trkpt>
      <trkpt lat="44.51549" lon="6.01216">
        <ele>977.7999878</ele>
        <time>2020-01-27T12:42:15Z</time>
      </trkpt>
      <trkpt lat="44.5155" lon="6.01222">
        <ele>977.7999878</ele>
        <time>2020-01-27T12:42:16Z</time>
      </trkpt>
      <trkpt lat="44.51555" lon="6.01268">
        <ele>977</ele>
        <time>2020-01-27T12:42:23Z</time>
      </trkpt>
      <trkpt lat="44.51548" lon="6.01354">
        <ele>975.7999878</ele>
        <time>2020-01-27T12:42:34Z</time>
      </trkpt>
      <trkpt lat="44.51548" lon="6.01361">
        <ele>975.4000244</ele>
        <time>2020-01-27T12:42:35Z</time>
      </trkpt>
      <trkpt lat="44.51549" lon="6.01369">
        <ele>975</ele>
        <time>2020-01-27T12:42:36Z</time>
      </trkpt>
      <trkpt lat="44.5155" lon="6.01375">
        <ele>974.4000244</ele>
        <time>2020-01-27T12:42:37Z</time>
      </trkpt>
      <trkpt lat="44.51551" lon="6.01382">
        <ele>974</ele>
        <time>2020-01-27T12:42:38Z</time>
      </trkpt>
      <trkpt lat="44.51553" lon="6.01389">
        <ele>973.4000244</ele>
        <time>2020-01-27T12:42:39Z</time>
      </trkpt>
      <trkpt lat="44.51556" lon="6.01395">
        <ele>972.7999878</ele>
        <time>2020-01-27T12:42:40Z</time>
      </trkpt>
      <trkpt lat="44.51559" lon="6.01401">
        <ele>972.4000244</ele>
        <time>2020-01-27T12:42:41Z</time>
      </trkpt>
      <trkpt lat="44.51563" lon="6.01408">
        <ele>972</ele>
        <time>2020-01-27T12:42:42Z</time>
      </trkpt>
      <trkpt lat="44.51567" lon="6.01414">
        <ele>971.7999878</ele>
        <time>2020-01-27T12:42:43Z</time>
      </trkpt>
      <trkpt lat="44.51571" lon="6.0142">
        <ele>971.5999756</ele>
        <time>2020-01-27T12:42:44Z</time>
      </trkpt>
      <trkpt lat="44.51576" lon="6.01425">
        <ele>971.4000244</ele>
        <time>2020-01-27T12:42:45Z</time>
      </trkpt>
      <trkpt lat="44.51615" lon="6.01471">
        <ele>968.2000122</ele>
        <time>2020-01-27T12:42:54Z</time>
      </trkpt>
      <trkpt lat="44.51618" lon="6.01477">
        <ele>968</ele>
        <time>2020-01-27T12:42:55Z</time>
      </trkpt>
      <trkpt lat="44.51621" lon="6.01484">
        <ele>967.5999756</ele>
        <time>2020-01-27T12:42:56Z</time>
      </trkpt>
      <trkpt lat="44.51625" lon="6.01491">
        <ele>967</ele>
        <time>2020-01-27T12:42:57Z</time>
      </trkpt>
      <trkpt lat="44.51628" lon="6.01498">
        <ele>966.7999878</ele>
        <time>2020-01-27T12:42:58Z</time>
      </trkpt>
      <trkpt lat="44.51632" lon="6.01506">
        <ele>966.4000244</ele>
        <time>2020-01-27T12:42:59Z</time>
      </trkpt>
      <trkpt lat="44.51647" lon="6.01548">
        <ele>963</ele>
        <time>2020-01-27T12:43:06Z</time>
      </trkpt>
      <trkpt lat="44.51649" lon="6.0156">
        <ele>962.2000122</ele>
        <time>2020-01-27T12:43:08Z</time>
      </trkpt>
      <trkpt lat="44.51641" lon="6.01621">
        <ele>961.4000244</ele>
        <time>2020-01-27T12:43:21Z</time>
      </trkpt>
      <trkpt lat="44.51633" lon="6.01682">
        <ele>962.7999878</ele>
        <time>2020-01-27T12:43:36Z</time>
      </trkpt>
      <trkpt lat="44.51633" lon="6.01698">
        <ele>962.7999878</ele>
        <time>2020-01-27T12:43:39Z</time>
      </trkpt>
      <trkpt lat="44.51647" lon="6.01759">
        <ele>959.5999756</ele>
        <time>2020-01-27T12:43:49Z</time>
      </trkpt>
      <trkpt lat="44.51653" lon="6.01798">
        <ele>956.5999756</ele>
        <time>2020-01-27T12:43:57Z</time>
      </trkpt>
      <trkpt lat="44.5165" lon="6.0185">
        <ele>955.2000122</ele>
        <time>2020-01-27T12:44:04Z</time>
      </trkpt>
      <trkpt lat="44.51648" lon="6.01857">
        <ele>955</ele>
        <time>2020-01-27T12:44:05Z</time>
      </trkpt>
      <trkpt lat="44.51646" lon="6.01863">
        <ele>954.7999878</ele>
        <time>2020-01-27T12:44:06Z</time>
      </trkpt>
      <trkpt lat="44.51643" lon="6.01868">
        <ele>954.4000244</ele>
        <time>2020-01-27T12:44:07Z</time>
      </trkpt>
      <trkpt lat="44.5164" lon="6.01873">
        <ele>954</ele>
        <time>2020-01-27T12:44:08Z</time>
      </trkpt>
      <trkpt lat="44.51637" lon="6.01876">
        <ele>953.4000244</ele>
        <time>2020-01-27T12:44:09Z</time>
      </trkpt>
      <trkpt lat="44.51634" lon="6.01879">
        <ele>953.2000122</ele>
        <time>2020-01-27T12:44:10Z</time>
      </trkpt>
      <trkpt lat="44.5163" lon="6.0188">
        <ele>952.7999878</ele>
        <time>2020-01-27T12:44:11Z</time>
      </trkpt>
      <trkpt lat="44.51627" lon="6.01881">
        <ele>952.4000244</ele>
        <time>2020-01-27T12:44:12Z</time>
      </trkpt>
      <trkpt lat="44.51624" lon="6.01881">
        <ele>952</ele>
        <time>2020-01-27T12:44:13Z</time>
      </trkpt>
      <trkpt lat="44.5162" lon="6.01882">
        <ele>950</ele>
        <time>2020-01-27T12:44:24Z</time>
      </trkpt>
      <trkpt lat="44.51619" lon="6.01881">
        <ele>950</ele>
        <time>2020-01-27T12:45:00Z</time>
      </trkpt>
      <trkpt lat="44.51589" lon="6.01909">
        <ele>950</ele>
        <time>2020-01-27T12:45:09Z</time>
      </trkpt>
      <trkpt lat="44.51531" lon="6.01939">
        <ele>947</ele>
        <time>2020-01-27T12:45:18Z</time>
      </trkpt>
      <trkpt lat="44.51495" lon="6.01945">
        <ele>943.7999878</ele>
        <time>2020-01-27T12:45:23Z</time>
      </trkpt>
      <trkpt lat="44.51471" lon="6.01946">
        <ele>940.7999878</ele>
        <time>2020-01-27T12:45:27Z</time>
      </trkpt>
      <trkpt lat="44.51466" lon="6.01948">
        <ele>940.4000244</ele>
        <time>2020-01-27T12:45:28Z</time>
      </trkpt>
      <trkpt lat="44.51462" lon="6.01951">
        <ele>940</ele>
        <time>2020-01-27T12:45:29Z</time>
      </trkpt>
      <trkpt lat="44.51459" lon="6.01956">
        <ele>939.7999878</ele>
        <time>2020-01-27T12:45:30Z</time>
      </trkpt>
      <trkpt lat="44.51457" lon="6.01961">
        <ele>939.5999756</ele>
        <time>2020-01-27T12:45:31Z</time>
      </trkpt>
      <trkpt lat="44.51456" lon="6.01967">
        <ele>939.5999756</ele>
        <time>2020-01-27T12:45:32Z</time>
      </trkpt>
      <trkpt lat="44.51455" lon="6.01973">
        <ele>939.5999756</ele>
        <time>2020-01-27T12:45:33Z</time>
      </trkpt>
      <trkpt lat="44.51455" lon="6.01979">
        <ele>939.4000244</ele>
        <time>2020-01-27T12:45:34Z</time>
      </trkpt>
      <trkpt lat="44.51455" lon="6.01986">
        <ele>939.4000244</ele>
        <time>2020-01-27T12:45:35Z</time>
      </trkpt>
      <trkpt lat="44.51457" lon="6.02039">
        <ele>939</ele>
        <time>2020-01-27T12:45:42Z</time>
      </trkpt>
      <trkpt lat="44.51458" lon="6.02047">
        <ele>938.7999878</ele>
        <time>2020-01-27T12:45:43Z</time>
      </trkpt>
      <trkpt lat="44.51461" lon="6.02054">
        <ele>938.5999756</ele>
        <time>2020-01-27T12:45:44Z</time>
      </trkpt>
      <trkpt lat="44.51464" lon="6.02061">
        <ele>938.2000122</ele>
        <time>2020-01-27T12:45:45Z</time>
      </trkpt>
      <trkpt lat="44.51468" lon="6.02067">
        <ele>938</ele>
        <time>2020-01-27T12:45:46Z</time>
      </trkpt>
      <trkpt lat="44.51473" lon="6.02073">
        <ele>937.7999878</ele>
        <time>2020-01-27T12:45:47Z</time>
      </trkpt>
      <trkpt lat="44.51478" lon="6.02079">
        <ele>937.5999756</ele>
        <time>2020-01-27T12:45:48Z</time>
      </trkpt>
      <trkpt lat="44.51511" lon="6.0212">
        <ele>935.2000122</ele>
        <time>2020-01-27T12:45:54Z</time>
      </trkpt>
      <trkpt lat="44.51517" lon="6.02126">
        <ele>934.7999878</ele>
        <time>2020-01-27T12:45:55Z</time>
      </trkpt>
      <trkpt lat="44.51548" lon="6.02151">
        <ele>931.4000244</ele>
        <time>2020-01-27T12:46:00Z</time>
      </trkpt>
      <trkpt lat="44.51579" lon="6.02181">
        <ele>928.2000122</ele>
        <time>2020-01-27T12:46:06Z</time>
      </trkpt>
      <trkpt lat="44.51597" lon="6.02197">
        <ele>925</ele>
        <time>2020-01-27T12:46:12Z</time>
      </trkpt>
      <trkpt lat="44.51608" lon="6.02203">
        <ele>923.5999756</ele>
        <time>2020-01-27T12:46:23Z</time>
      </trkpt>
      <trkpt lat="44.51608" lon="6.02195">
        <ele>924.2000122</ele>
        <time>2020-01-27T12:48:24Z</time>
      </trkpt>
      <trkpt lat="44.51625" lon="6.02197">
        <ele>924.2000122</ele>
        <time>2020-01-27T12:48:50Z</time>
      </trkpt>
      <trkpt lat="44.51662" lon="6.02201">
        <ele>922.2000122</ele>
        <time>2020-01-27T12:49:02Z</time>
      </trkpt>
      <trkpt lat="44.51674" lon="6.02208">
        <ele>921.7999878</ele>
        <time>2020-01-27T12:49:08Z</time>
      </trkpt>
      <trkpt lat="44.51677" lon="6.02209">
        <ele>921.5999756</ele>
        <time>2020-01-27T12:49:09Z</time>
      </trkpt>
      <trkpt lat="44.5168" lon="6.02208">
        <ele>921.5999756</ele>
        <time>2020-01-27T12:49:10Z</time>
      </trkpt>
      <trkpt lat="44.51683" lon="6.02207">
        <ele>921.5999756</ele>
        <time>2020-01-27T12:49:11Z</time>
      </trkpt>
      <trkpt lat="44.51687" lon="6.02206">
        <ele>921.5999756</ele>
        <time>2020-01-27T12:49:12Z</time>
      </trkpt>
      <trkpt lat="44.51691" lon="6.02206">
        <ele>921.5999756</ele>
        <time>2020-01-27T12:49:13Z</time>
      </trkpt>
      <trkpt lat="44.51704" lon="6.02205">
        <ele>921.2000122</ele>
        <time>2020-01-27T12:49:16Z</time>
      </trkpt>
      <trkpt lat="44.51708" lon="6.02206">
        <ele>921.2000122</ele>
        <time>2020-01-27T12:49:17Z</time>
      </trkpt>
      <trkpt lat="44.51713" lon="6.02207">
        <ele>921</ele>
        <time>2020-01-27T12:49:18Z</time>
      </trkpt>
      <trkpt lat="44.51717" lon="6.02209">
        <ele>920.7999878</ele>
        <time>2020-01-27T12:49:19Z</time>
      </trkpt>
      <trkpt lat="44.51722" lon="6.02212">
        <ele>920.5999756</ele>
        <time>2020-01-27T12:49:20Z</time>
      </trkpt>
      <trkpt lat="44.51726" lon="6.02214">
        <ele>920.4000244</ele>
        <time>2020-01-27T12:49:21Z</time>
      </trkpt>
      <trkpt lat="44.5173" lon="6.02218">
        <ele>920.2000122</ele>
        <time>2020-01-27T12:49:22Z</time>
      </trkpt>
      <trkpt lat="44.51734" lon="6.02222">
        <ele>920.2000122</ele>
        <time>2020-01-27T12:49:23Z</time>
      </trkpt>
      <trkpt lat="44.51754" lon="6.02237">
        <ele>919</ele>
        <time>2020-01-27T12:49:28Z</time>
      </trkpt>
      <trkpt lat="44.51758" lon="6.02239">
        <ele>918.7999878</ele>
        <time>2020-01-27T12:49:29Z</time>
      </trkpt>
      <trkpt lat="44.51763" lon="6.0224">
        <ele>918.7999878</ele>
        <time>2020-01-27T12:49:30Z</time>
      </trkpt>
      <trkpt lat="44.51768" lon="6.0224">
        <ele>918.5999756</ele>
        <time>2020-01-27T12:49:31Z</time>
      </trkpt>
      <trkpt lat="44.51773" lon="6.02239">
        <ele>918.5999756</ele>
        <time>2020-01-27T12:49:32Z</time>
      </trkpt>
      <trkpt lat="44.51827" lon="6.02231">
        <ele>917</ele>
        <time>2020-01-27T12:49:42Z</time>
      </trkpt>
      <trkpt lat="44.51905" lon="6.02238">
        <ele>915.7999878</ele>
        <time>2020-01-27T12:49:59Z</time>
      </trkpt>
      <trkpt lat="44.51988" lon="6.02253">
        <ele>915.2000122</ele>
        <time>2020-01-27T12:50:16Z</time>
      </trkpt>
      <trkpt lat="44.51993" lon="6.02256">
        <ele>915</ele>
        <time>2020-01-27T12:50:17Z</time>
      </trkpt>
      <trkpt lat="44.51998" lon="6.0226">
        <ele>914.7999878</ele>
        <time>2020-01-27T12:50:18Z</time>
      </trkpt>
      <trkpt lat="44.52003" lon="6.02264">
        <ele>914.4000244</ele>
        <time>2020-01-27T12:50:19Z</time>
      </trkpt>
      <trkpt lat="44.52022" lon="6.0229">
        <ele>913.2000122</ele>
        <time>2020-01-27T12:50:24Z</time>
      </trkpt>
      <trkpt lat="44.52025" lon="6.02297">
        <ele>913</ele>
        <time>2020-01-27T12:50:25Z</time>
      </trkpt>
      <trkpt lat="44.52028" lon="6.02305">
        <ele>912.4000244</ele>
        <time>2020-01-27T12:50:26Z</time>
      </trkpt>
      <trkpt lat="44.52029" lon="6.02314">
        <ele>911.7999878</ele>
        <time>2020-01-27T12:50:27Z</time>
      </trkpt>
      <trkpt lat="44.5203" lon="6.02323">
        <ele>911.4000244</ele>
        <time>2020-01-27T12:50:28Z</time>
      </trkpt>
      <trkpt lat="44.52029" lon="6.02332">
        <ele>911.2000122</ele>
        <time>2020-01-27T12:50:29Z</time>
      </trkpt>
      <trkpt lat="44.52028" lon="6.02341">
        <ele>911</ele>
        <time>2020-01-27T12:50:30Z</time>
      </trkpt>
      <trkpt lat="44.52027" lon="6.02349">
        <ele>910.5999756</ele>
        <time>2020-01-27T12:50:31Z</time>
      </trkpt>
      <trkpt lat="44.52025" lon="6.02371">
        <ele>909</ele>
        <time>2020-01-27T12:50:34Z</time>
      </trkpt>
      <trkpt lat="44.52025" lon="6.02378">
        <ele>908.5999756</ele>
        <time>2020-01-27T12:50:35Z</time>
      </trkpt>
      <trkpt lat="44.52026" lon="6.02386">
        <ele>908</ele>
        <time>2020-01-27T12:50:36Z</time>
      </trkpt>
      <trkpt lat="44.52028" lon="6.02393">
        <ele>907.4000244</ele>
        <time>2020-01-27T12:50:37Z</time>
      </trkpt>
      <trkpt lat="44.5203" lon="6.024">
        <ele>906.7999878</ele>
        <time>2020-01-27T12:50:38Z</time>
      </trkpt>
      <trkpt lat="44.52032" lon="6.02406">
        <ele>906.5999756</ele>
        <time>2020-01-27T12:50:39Z</time>
      </trkpt>
      <trkpt lat="44.52035" lon="6.02412">
        <ele>906.4000244</ele>
        <time>2020-01-27T12:50:40Z</time>
      </trkpt>
      <trkpt lat="44.52039" lon="6.02418">
        <ele>906</ele>
        <time>2020-01-27T12:50:41Z</time>
      </trkpt>
      <trkpt lat="44.52044" lon="6.02424">
        <ele>905.7999878</ele>
        <time>2020-01-27T12:50:42Z</time>
      </trkpt>
      <trkpt lat="44.52049" lon="6.02429">
        <ele>904.7999878</ele>
        <time>2020-01-27T12:50:43Z</time>
      </trkpt>
      <trkpt lat="44.52082" lon="6.02463">
        <ele>901.5999756</ele>
        <time>2020-01-27T12:50:49Z</time>
      </trkpt>
      <trkpt lat="44.52104" lon="6.02494">
        <ele>898.2000122</ele>
        <time>2020-01-27T12:50:54Z</time>
      </trkpt>
      <trkpt lat="44.52114" lon="6.02504">
        <ele>897</ele>
        <time>2020-01-27T12:50:56Z</time>
      </trkpt>
      <trkpt lat="44.52119" lon="6.02508">
        <ele>896.4000244</ele>
        <time>2020-01-27T12:50:57Z</time>
      </trkpt>
      <trkpt lat="44.52125" lon="6.02511">
        <ele>895.7999878</ele>
        <time>2020-01-27T12:50:58Z</time>
      </trkpt>
      <trkpt lat="44.52168" lon="6.02541">
        <ele>892.4000244</ele>
        <time>2020-01-27T12:51:05Z</time>
      </trkpt>
      <trkpt lat="44.52187" lon="6.02557">
        <ele>890.7999878</ele>
        <time>2020-01-27T12:51:08Z</time>
      </trkpt>
      <trkpt lat="44.52203" lon="6.0257">
        <ele>887.7999878</ele>
        <time>2020-01-27T12:51:11Z</time>
      </trkpt>
      <trkpt lat="44.52242" lon="6.02585">
        <ele>884.2000122</ele>
        <time>2020-01-27T12:51:17Z</time>
      </trkpt>
      <trkpt lat="44.5228" lon="6.02602">
        <ele>881.2000122</ele>
        <time>2020-01-27T12:51:23Z</time>
      </trkpt>
      <trkpt lat="44.52293" lon="6.02608">
        <ele>879.7999878</ele>
        <time>2020-01-27T12:51:25Z</time>
      </trkpt>
      <trkpt lat="44.52299" lon="6.02609">
        <ele>879.2000122</ele>
        <time>2020-01-27T12:51:26Z</time>
      </trkpt>
      <trkpt lat="44.52347" lon="6.02617">
        <ele>876</ele>
        <time>2020-01-27T12:51:32Z</time>
      </trkpt>
      <trkpt lat="44.52378" lon="6.02621">
        <ele>872.4000244</ele>
        <time>2020-01-27T12:51:36Z</time>
      </trkpt>
      <trkpt lat="44.52408" lon="6.02624">
        <ele>869</ele>
        <time>2020-01-27T12:51:40Z</time>
      </trkpt>
      <trkpt lat="44.52445" lon="6.02621">
        <ele>865.2000122</ele>
        <time>2020-01-27T12:51:45Z</time>
      </trkpt>
      <trkpt lat="44.52459" lon="6.02622">
        <ele>863.7999878</ele>
        <time>2020-01-27T12:51:47Z</time>
      </trkpt>
      <trkpt lat="44.52486" lon="6.02628">
        <ele>861.7999878</ele>
        <time>2020-01-27T12:51:51Z</time>
      </trkpt>
      <trkpt lat="44.52514" lon="6.02625">
        <ele>859.4000244</ele>
        <time>2020-01-27T12:51:55Z</time>
      </trkpt>
      <trkpt lat="44.52521" lon="6.02622">
        <ele>858.7999878</ele>
        <time>2020-01-27T12:51:56Z</time>
      </trkpt>
      <trkpt lat="44.52527" lon="6.02618">
        <ele>858.2000122</ele>
        <time>2020-01-27T12:51:57Z</time>
      </trkpt>
      <trkpt lat="44.52533" lon="6.02613">
        <ele>857.5999756</ele>
        <time>2020-01-27T12:51:58Z</time>
      </trkpt>
      <trkpt lat="44.52539" lon="6.02608">
        <ele>856.2000122</ele>
        <time>2020-01-27T12:51:59Z</time>
      </trkpt>
      <trkpt lat="44.52545" lon="6.02602">
        <ele>855.4000244</ele>
        <time>2020-01-27T12:52:00Z</time>
      </trkpt>
      <trkpt lat="44.52573" lon="6.02567">
        <ele>852.4000244</ele>
        <time>2020-01-27T12:52:05Z</time>
      </trkpt>
      <trkpt lat="44.52604" lon="6.02536">
        <ele>849.2000122</ele>
        <time>2020-01-27T12:52:10Z</time>
      </trkpt>
      <trkpt lat="44.52634" lon="6.02505">
        <ele>846</ele>
        <time>2020-01-27T12:52:15Z</time>
      </trkpt>
      <trkpt lat="44.52662" lon="6.02467">
        <ele>842.5999756</ele>
        <time>2020-01-27T12:52:20Z</time>
      </trkpt>
      <trkpt lat="44.52687" lon="6.02439">
        <ele>838.7999878</ele>
        <time>2020-01-27T12:52:24Z</time>
      </trkpt>
      <trkpt lat="44.52722" lon="6.0241">
        <ele>835.2000122</ele>
        <time>2020-01-27T12:52:29Z</time>
      </trkpt>
      <trkpt lat="44.52746" lon="6.02389">
        <ele>831.7999878</ele>
        <time>2020-01-27T12:52:33Z</time>
      </trkpt>
      <trkpt lat="44.52768" lon="6.02366">
        <ele>828.7999878</ele>
        <time>2020-01-27T12:52:37Z</time>
      </trkpt>
      <trkpt lat="44.52773" lon="6.02363">
        <ele>828.4000244</ele>
        <time>2020-01-27T12:52:38Z</time>
      </trkpt>
      <trkpt lat="44.52778" lon="6.0236">
        <ele>827.7999878</ele>
        <time>2020-01-27T12:52:39Z</time>
      </trkpt>
      <trkpt lat="44.52784" lon="6.02358">
        <ele>827.4000244</ele>
        <time>2020-01-27T12:52:40Z</time>
      </trkpt>
      <trkpt lat="44.5279" lon="6.02358">
        <ele>827</ele>
        <time>2020-01-27T12:52:41Z</time>
      </trkpt>
      <trkpt lat="44.52796" lon="6.02359">
        <ele>826.5999756</ele>
        <time>2020-01-27T12:52:42Z</time>
      </trkpt>
      <trkpt lat="44.52802" lon="6.02362">
        <ele>826</ele>
        <time>2020-01-27T12:52:43Z</time>
      </trkpt>
      <trkpt lat="44.52806" lon="6.02367">
        <ele>825.4000244</ele>
        <time>2020-01-27T12:52:44Z</time>
      </trkpt>
      <trkpt lat="44.5281" lon="6.02372">
        <ele>824.7999878</ele>
        <time>2020-01-27T12:52:45Z</time>
      </trkpt>
      <trkpt lat="44.52812" lon="6.02379">
        <ele>824.4000244</ele>
        <time>2020-01-27T12:52:46Z</time>
      </trkpt>
      <trkpt lat="44.52814" lon="6.02386">
        <ele>824</ele>
        <time>2020-01-27T12:52:47Z</time>
      </trkpt>
      <trkpt lat="44.52816" lon="6.02393">
        <ele>822.7999878</ele>
        <time>2020-01-27T12:52:48Z</time>
      </trkpt>
      <trkpt lat="44.52816" lon="6.024">
        <ele>822.2000122</ele>
        <time>2020-01-27T12:52:49Z</time>
      </trkpt>
      <trkpt lat="44.52816" lon="6.02408">
        <ele>821.7999878</ele>
        <time>2020-01-27T12:52:50Z</time>
      </trkpt>
      <trkpt lat="44.52815" lon="6.02416">
        <ele>821.4000244</ele>
        <time>2020-01-27T12:52:51Z</time>
      </trkpt>
      <trkpt lat="44.52814" lon="6.02424">
        <ele>821</ele>
        <time>2020-01-27T12:52:52Z</time>
      </trkpt>
      <trkpt lat="44.52811" lon="6.02431">
        <ele>820.5999756</ele>
        <time>2020-01-27T12:52:53Z</time>
      </trkpt>
      <trkpt lat="44.52773" lon="6.02545">
        <ele>818.4000244</ele>
        <time>2020-01-27T12:53:10Z</time>
      </trkpt>
      <trkpt lat="44.52767" lon="6.02596">
        <ele>818</ele>
        <time>2020-01-27T12:53:17Z</time>
      </trkpt>
      <trkpt lat="44.52764" lon="6.0261">
        <ele>818</ele>
        <time>2020-01-27T12:53:19Z</time>
      </trkpt>
      <trkpt lat="44.52762" lon="6.02617">
        <ele>818</ele>
        <time>2020-01-27T12:53:20Z</time>
      </trkpt>
      <trkpt lat="44.52759" lon="6.02624">
        <ele>818</ele>
        <time>2020-01-27T12:53:21Z</time>
      </trkpt>
      <trkpt lat="44.52756" lon="6.0263">
        <ele>818</ele>
        <time>2020-01-27T12:53:22Z</time>
      </trkpt>
      <trkpt lat="44.52752" lon="6.02636">
        <ele>817.7999878</ele>
        <time>2020-01-27T12:53:23Z</time>
      </trkpt>
      <trkpt lat="44.52749" lon="6.02642">
        <ele>817.5999756</ele>
        <time>2020-01-27T12:53:24Z</time>
      </trkpt>
      <trkpt lat="44.52745" lon="6.02646">
        <ele>817.5999756</ele>
        <time>2020-01-27T12:53:25Z</time>
      </trkpt>
      <trkpt lat="44.52732" lon="6.02661">
        <ele>817.2000122</ele>
        <time>2020-01-27T12:53:28Z</time>
      </trkpt>
      <trkpt lat="44.52728" lon="6.02666">
        <ele>817</ele>
        <time>2020-01-27T12:53:29Z</time>
      </trkpt>
      <trkpt lat="44.52725" lon="6.02672">
        <ele>816.7999878</ele>
        <time>2020-01-27T12:53:30Z</time>
      </trkpt>
      <trkpt lat="44.52722" lon="6.02678">
        <ele>816.5999756</ele>
        <time>2020-01-27T12:53:31Z</time>
      </trkpt>
      <trkpt lat="44.52719" lon="6.02685">
        <ele>816.5999756</ele>
        <time>2020-01-27T12:53:32Z</time>
      </trkpt>
      <trkpt lat="44.52716" lon="6.02692">
        <ele>816.5999756</ele>
        <time>2020-01-27T12:53:33Z</time>
      </trkpt>
      <trkpt lat="44.52714" lon="6.02699">
        <ele>816.4000244</ele>
        <time>2020-01-27T12:53:34Z</time>
      </trkpt>
      <trkpt lat="44.52711" lon="6.02713">
        <ele>816.4000244</ele>
        <time>2020-01-27T12:53:36Z</time>
      </trkpt>
      <trkpt lat="44.5271" lon="6.02721">
        <ele>816.2000122</ele>
        <time>2020-01-27T12:53:37Z</time>
      </trkpt>
      <trkpt lat="44.52709" lon="6.02815">
        <ele>814.4000244</ele>
        <time>2020-01-27T12:53:49Z</time>
      </trkpt>
      <trkpt lat="44.52682" lon="6.02937">
        <ele>811.7999878</ele>
        <time>2020-01-27T12:54:05Z</time>
      </trkpt>
      <trkpt lat="44.52664" lon="6.02993">
        <ele>810.5999756</ele>
        <time>2020-01-27T12:54:13Z</time>
      </trkpt>
      <trkpt lat="44.52651" lon="6.03059">
        <ele>810</ele>
        <time>2020-01-27T12:54:22Z</time>
      </trkpt>
      <trkpt lat="44.52652" lon="6.03067">
        <ele>809.7999878</ele>
        <time>2020-01-27T12:54:23Z</time>
      </trkpt>
      <trkpt lat="44.52653" lon="6.03074">
        <ele>809.7999878</ele>
        <time>2020-01-27T12:54:24Z</time>
      </trkpt>
      <trkpt lat="44.52654" lon="6.03082">
        <ele>809.5999756</ele>
        <time>2020-01-27T12:54:25Z</time>
      </trkpt>
      <trkpt lat="44.52656" lon="6.0309">
        <ele>809.4000244</ele>
        <time>2020-01-27T12:54:26Z</time>
      </trkpt>
      <trkpt lat="44.52658" lon="6.03098">
        <ele>809.2000122</ele>
        <time>2020-01-27T12:54:27Z</time>
      </trkpt>
      <trkpt lat="44.52661" lon="6.03106">
        <ele>809</ele>
        <time>2020-01-27T12:54:28Z</time>
      </trkpt>
      <trkpt lat="44.52677" lon="6.03134">
        <ele>808</ele>
        <time>2020-01-27T12:54:32Z</time>
      </trkpt>
      <trkpt lat="44.52682" lon="6.0314">
        <ele>807.7999878</ele>
        <time>2020-01-27T12:54:33Z</time>
      </trkpt>
      <trkpt lat="44.52687" lon="6.03145">
        <ele>807.4000244</ele>
        <time>2020-01-27T12:54:34Z</time>
      </trkpt>
      <trkpt lat="44.52692" lon="6.0315">
        <ele>807.2000122</ele>
        <time>2020-01-27T12:54:35Z</time>
      </trkpt>
      <trkpt lat="44.52697" lon="6.03154">
        <ele>806.7999878</ele>
        <time>2020-01-27T12:54:36Z</time>
      </trkpt>
      <trkpt lat="44.52716" lon="6.03172">
        <ele>805.4000244</ele>
        <time>2020-01-27T12:54:40Z</time>
      </trkpt>
      <trkpt lat="44.5272" lon="6.03177">
        <ele>805.2000122</ele>
        <time>2020-01-27T12:54:41Z</time>
      </trkpt>
      <trkpt lat="44.52723" lon="6.03184">
        <ele>804.7999878</ele>
        <time>2020-01-27T12:54:42Z</time>
      </trkpt>
      <trkpt lat="44.52725" lon="6.03191">
        <ele>804.4000244</ele>
        <time>2020-01-27T12:54:43Z</time>
      </trkpt>
      <trkpt lat="44.52726" lon="6.03199">
        <ele>804.2000122</ele>
        <time>2020-01-27T12:54:44Z</time>
      </trkpt>
      <trkpt lat="44.52725" lon="6.03207">
        <ele>804</ele>
        <time>2020-01-27T12:54:45Z</time>
      </trkpt>
      <trkpt lat="44.52724" lon="6.03214">
        <ele>803.7999878</ele>
        <time>2020-01-27T12:54:46Z</time>
      </trkpt>
      <trkpt lat="44.52721" lon="6.03222">
        <ele>803.5999756</ele>
        <time>2020-01-27T12:54:47Z</time>
      </trkpt>
      <trkpt lat="44.52718" lon="6.03229">
        <ele>803.4000244</ele>
        <time>2020-01-27T12:54:48Z</time>
      </trkpt>
      <trkpt lat="44.52714" lon="6.03236">
        <ele>803</ele>
        <time>2020-01-27T12:54:49Z</time>
      </trkpt>
      <trkpt lat="44.52681" lon="6.03292">
        <ele>800.5999756</ele>
        <time>2020-01-27T12:54:57Z</time>
      </trkpt>
      <trkpt lat="44.52675" lon="6.03298">
        <ele>800.4000244</ele>
        <time>2020-01-27T12:54:58Z</time>
      </trkpt>
      <trkpt lat="44.5267" lon="6.03304">
        <ele>800.2000122</ele>
        <time>2020-01-27T12:54:59Z</time>
      </trkpt>
      <trkpt lat="44.52664" lon="6.03309">
        <ele>799.7999878</ele>
        <time>2020-01-27T12:55:00Z</time>
      </trkpt>
      <trkpt lat="44.52658" lon="6.03312">
        <ele>799.5999756</ele>
        <time>2020-01-27T12:55:01Z</time>
      </trkpt>
      <trkpt lat="44.52652" lon="6.03315">
        <ele>799.2000122</ele>
        <time>2020-01-27T12:55:02Z</time>
      </trkpt>
      <trkpt lat="44.52635" lon="6.03323">
        <ele>798</ele>
        <time>2020-01-27T12:55:05Z</time>
      </trkpt>
      <trkpt lat="44.52631" lon="6.03327">
        <ele>797.4000244</ele>
        <time>2020-01-27T12:55:06Z</time>
      </trkpt>
      <trkpt lat="44.52627" lon="6.03331">
        <ele>797</ele>
        <time>2020-01-27T12:55:07Z</time>
      </trkpt>
      <trkpt lat="44.52623" lon="6.03337">
        <ele>796.5999756</ele>
        <time>2020-01-27T12:55:08Z</time>
      </trkpt>
      <trkpt lat="44.52621" lon="6.03343">
        <ele>796.4000244</ele>
        <time>2020-01-27T12:55:09Z</time>
      </trkpt>
      <trkpt lat="44.52619" lon="6.0335">
        <ele>796.4000244</ele>
        <time>2020-01-27T12:55:10Z</time>
      </trkpt>
      <trkpt lat="44.52618" lon="6.03357">
        <ele>796.2000122</ele>
        <time>2020-01-27T12:55:11Z</time>
      </trkpt>
      <trkpt lat="44.52618" lon="6.03364">
        <ele>796.2000122</ele>
        <time>2020-01-27T12:55:12Z</time>
      </trkpt>
      <trkpt lat="44.52619" lon="6.03371">
        <ele>796</ele>
        <time>2020-01-27T12:55:13Z</time>
      </trkpt>
      <trkpt lat="44.52622" lon="6.03378">
        <ele>796</ele>
        <time>2020-01-27T12:55:14Z</time>
      </trkpt>
      <trkpt lat="44.52625" lon="6.03384">
        <ele>795.5999756</ele>
        <time>2020-01-27T12:55:15Z</time>
      </trkpt>
      <trkpt lat="44.52628" lon="6.0339">
        <ele>795.4000244</ele>
        <time>2020-01-27T12:55:16Z</time>
      </trkpt>
      <trkpt lat="44.52632" lon="6.03396">
        <ele>795.2000122</ele>
        <time>2020-01-27T12:55:17Z</time>
      </trkpt>
      <trkpt lat="44.52636" lon="6.03402">
        <ele>794.7999878</ele>
        <time>2020-01-27T12:55:18Z</time>
      </trkpt>
      <trkpt lat="44.52645" lon="6.03413">
        <ele>794.2000122</ele>
        <time>2020-01-27T12:55:20Z</time>
      </trkpt>
      <trkpt lat="44.52659" lon="6.03428">
        <ele>793.5999756</ele>
        <time>2020-01-27T12:55:23Z</time>
      </trkpt>
      <trkpt lat="44.52664" lon="6.03431">
        <ele>793</ele>
        <time>2020-01-27T12:55:24Z</time>
      </trkpt>
      <trkpt lat="44.52679" lon="6.03439">
        <ele>792.2000122</ele>
        <time>2020-01-27T12:55:27Z</time>
      </trkpt>
      <trkpt lat="44.52684" lon="6.0344">
        <ele>792</ele>
        <time>2020-01-27T12:55:28Z</time>
      </trkpt>
      <trkpt lat="44.52693" lon="6.03442">
        <ele>791.7999878</ele>
        <time>2020-01-27T12:55:30Z</time>
      </trkpt>
      <trkpt lat="44.52698" lon="6.03442">
        <ele>791.7999878</ele>
        <time>2020-01-27T12:55:31Z</time>
      </trkpt>
      <trkpt lat="44.52703" lon="6.03442">
        <ele>791.7999878</ele>
        <time>2020-01-27T12:55:32Z</time>
      </trkpt>
      <trkpt lat="44.52785" lon="6.03432">
        <ele>791.7999878</ele>
        <time>2020-01-27T12:55:49Z</time>
      </trkpt>
      <trkpt lat="44.52803" lon="6.03442">
        <ele>791.5999756</ele>
        <time>2020-01-27T12:55:53Z</time>
      </trkpt>
      <trkpt lat="44.52806" lon="6.03445">
        <ele>791.5999756</ele>
        <time>2020-01-27T12:55:54Z</time>
      </trkpt>
      <trkpt lat="44.52866" lon="6.0351">
        <ele>792</ele>
        <time>2020-01-27T12:56:13Z</time>
      </trkpt>
      <trkpt lat="44.52907" lon="6.03562">
        <ele>791.5999756</ele>
        <time>2020-01-27T12:56:24Z</time>
      </trkpt>
      <trkpt lat="44.52909" lon="6.0357">
        <ele>791.5999756</ele>
        <time>2020-01-27T12:56:25Z</time>
      </trkpt>
      <trkpt lat="44.52911" lon="6.03578">
        <ele>791.2000122</ele>
        <time>2020-01-27T12:56:26Z</time>
      </trkpt>
      <trkpt lat="44.52912" lon="6.03586">
        <ele>791</ele>
        <time>2020-01-27T12:56:27Z</time>
      </trkpt>
      <trkpt lat="44.52912" lon="6.03595">
        <ele>790.7999878</ele>
        <time>2020-01-27T12:56:28Z</time>
      </trkpt>
      <trkpt lat="44.52912" lon="6.03604">
        <ele>790.2000122</ele>
        <time>2020-01-27T12:56:29Z</time>
      </trkpt>
      <trkpt lat="44.5291" lon="6.03613">
        <ele>789.7999878</ele>
        <time>2020-01-27T12:56:30Z</time>
      </trkpt>
      <trkpt lat="44.52907" lon="6.03621">
        <ele>789.5999756</ele>
        <time>2020-01-27T12:56:31Z</time>
      </trkpt>
      <trkpt lat="44.52903" lon="6.03629">
        <ele>789.4000244</ele>
        <time>2020-01-27T12:56:32Z</time>
      </trkpt>
      <trkpt lat="44.52899" lon="6.03636">
        <ele>789</ele>
        <time>2020-01-27T12:56:33Z</time>
      </trkpt>
      <trkpt lat="44.52896" lon="6.03643">
        <ele>788.5999756</ele>
        <time>2020-01-27T12:56:34Z</time>
      </trkpt>
      <trkpt lat="44.52892" lon="6.0365">
        <ele>788.2000122</ele>
        <time>2020-01-27T12:56:35Z</time>
      </trkpt>
      <trkpt lat="44.5289" lon="6.03657">
        <ele>787.7999878</ele>
        <time>2020-01-27T12:56:36Z</time>
      </trkpt>
      <trkpt lat="44.52887" lon="6.03664">
        <ele>787.4000244</ele>
        <time>2020-01-27T12:56:37Z</time>
      </trkpt>
      <trkpt lat="44.52886" lon="6.03671">
        <ele>787</ele>
        <time>2020-01-27T12:56:38Z</time>
      </trkpt>
      <trkpt lat="44.52885" lon="6.03679">
        <ele>786.4000244</ele>
        <time>2020-01-27T12:56:39Z</time>
      </trkpt>
      <trkpt lat="44.52885" lon="6.03687">
        <ele>785.7999878</ele>
        <time>2020-01-27T12:56:40Z</time>
      </trkpt>
      <trkpt lat="44.52886" lon="6.03695">
        <ele>785.2000122</ele>
        <time>2020-01-27T12:56:41Z</time>
      </trkpt>
      <trkpt lat="44.52888" lon="6.03702">
        <ele>784.5999756</ele>
        <time>2020-01-27T12:56:42Z</time>
      </trkpt>
      <trkpt lat="44.5289" lon="6.0371">
        <ele>784.2000122</ele>
        <time>2020-01-27T12:56:43Z</time>
      </trkpt>
      <trkpt lat="44.52893" lon="6.03716">
        <ele>783.7999878</ele>
        <time>2020-01-27T12:56:44Z</time>
      </trkpt>
      <trkpt lat="44.52896" lon="6.03723">
        <ele>783.5999756</ele>
        <time>2020-01-27T12:56:45Z</time>
      </trkpt>
      <trkpt lat="44.529" lon="6.03728">
        <ele>783.2000122</ele>
        <time>2020-01-27T12:56:46Z</time>
      </trkpt>
      <trkpt lat="44.52904" lon="6.03732">
        <ele>782.7999878</ele>
        <time>2020-01-27T12:56:47Z</time>
      </trkpt>
      <trkpt lat="44.52909" lon="6.03737">
        <ele>782.2000122</ele>
        <time>2020-01-27T12:56:48Z</time>
      </trkpt>
      <trkpt lat="44.52931" lon="6.03754">
        <ele>780.2000122</ele>
        <time>2020-01-27T12:56:52Z</time>
      </trkpt>
      <trkpt lat="44.52968" lon="6.0379">
        <ele>777</ele>
        <time>2020-01-27T12:56:58Z</time>
      </trkpt>
      <trkpt lat="44.53015" lon="6.03846">
        <ele>773.4000244</ele>
        <time>2020-01-27T12:57:05Z</time>
      </trkpt>
      <trkpt lat="44.5304" lon="6.03876">
        <ele>770.4000244</ele>
        <time>2020-01-27T12:57:09Z</time>
      </trkpt>
      <trkpt lat="44.53067" lon="6.03916">
        <ele>767.4000244</ele>
        <time>2020-01-27T12:57:14Z</time>
      </trkpt>
      <trkpt lat="44.53098" lon="6.03951">
        <ele>764.4000244</ele>
        <time>2020-01-27T12:57:19Z</time>
      </trkpt>
      <trkpt lat="44.53144" lon="6.03978">
        <ele>761</ele>
        <time>2020-01-27T12:57:25Z</time>
      </trkpt>
      <trkpt lat="44.53172" lon="6.04003">
        <ele>757.5999756</ele>
        <time>2020-01-27T12:57:30Z</time>
      </trkpt>
      <trkpt lat="44.53189" lon="6.04031">
        <ele>755.4000244</ele>
        <time>2020-01-27T12:57:34Z</time>
      </trkpt>
      <trkpt lat="44.53226" lon="6.04138">
        <ele>753.2000122</ele>
        <time>2020-01-27T12:57:48Z</time>
      </trkpt>
      <trkpt lat="44.5323" lon="6.04152">
        <ele>753</ele>
        <time>2020-01-27T12:57:50Z</time>
      </trkpt>
      <trkpt lat="44.53244" lon="6.04222">
        <ele>753.7999878</ele>
        <time>2020-01-27T12:58:01Z</time>
      </trkpt>
      <trkpt lat="44.53266" lon="6.04295">
        <ele>756.2000122</ele>
        <time>2020-01-27T12:58:16Z</time>
      </trkpt>
      <trkpt lat="44.53282" lon="6.04341">
        <ele>759.4000244</ele>
        <time>2020-01-27T12:58:29Z</time>
      </trkpt>
      <trkpt lat="44.53283" lon="6.04354">
        <ele>760.5999756</ele>
        <time>2020-01-27T12:58:32Z</time>
      </trkpt>
      <trkpt lat="44.53288" lon="6.0437">
        <ele>761.5999756</ele>
        <time>2020-01-27T12:58:36Z</time>
      </trkpt>
      <trkpt lat="44.53291" lon="6.04372">
        <ele>761.7999878</ele>
        <time>2020-01-27T12:58:37Z</time>
      </trkpt>
      <trkpt lat="44.53294" lon="6.04373">
        <ele>761.7999878</ele>
        <time>2020-01-27T12:58:38Z</time>
      </trkpt>
      <trkpt lat="44.53338" lon="6.04393">
        <ele>762.5999756</ele>
        <time>2020-01-27T12:58:51Z</time>
      </trkpt>
      <trkpt lat="44.5338" lon="6.04433">
        <ele>763.4000244</ele>
        <time>2020-01-27T12:59:07Z</time>
      </trkpt>
      <trkpt lat="44.53443" lon="6.04505">
        <ele>763.2000122</ele>
        <time>2020-01-27T12:59:28Z</time>
      </trkpt>
      <trkpt lat="44.53497" lon="6.04582">
        <ele>763.4000244</ele>
        <time>2020-01-27T12:59:47Z</time>
      </trkpt>
      <trkpt lat="44.53549" lon="6.04665">
        <ele>763</ele>
        <time>2020-01-27T13:00:08Z</time>
      </trkpt>
      <trkpt lat="44.53601" lon="6.04752">
        <ele>764.2000122</ele>
        <time>2020-01-27T13:00:30Z</time>
      </trkpt>
      <trkpt lat="44.53639" lon="6.04822">
        <ele>765.5999756</ele>
        <time>2020-01-27T13:00:49Z</time>
      </trkpt>
      <trkpt lat="44.5366" lon="6.04864">
        <ele>766.4000244</ele>
        <time>2020-01-27T13:01:01Z</time>
      </trkpt>
      <trkpt lat="44.53699" lon="6.04919">
        <ele>768</ele>
        <time>2020-01-27T13:01:18Z</time>
      </trkpt>
      <trkpt lat="44.53722" lon="6.04944">
        <ele>769.2000122</ele>
        <time>2020-01-27T13:01:29Z</time>
      </trkpt>
      <trkpt lat="44.53757" lon="6.05001">
        <ele>771.4000244</ele>
        <time>2020-01-27T13:01:48Z</time>
      </trkpt>
      <trkpt lat="44.53768" lon="6.05037">
        <ele>773</ele>
        <time>2020-01-27T13:02:00Z</time>
      </trkpt>
      <trkpt lat="44.5377" lon="6.05086">
        <ele>773.4000244</ele>
        <time>2020-01-27T13:02:14Z</time>
      </trkpt>
      <trkpt lat="44.53772" lon="6.05147">
        <ele>772.7999878</ele>
        <time>2020-01-27T13:02:30Z</time>
      </trkpt>
      <trkpt lat="44.53792" lon="6.05166">
        <ele>772.4000244</ele>
        <time>2020-01-27T13:02:41Z</time>
      </trkpt>
      <trkpt lat="44.53794" lon="6.05168">
        <ele>772.4000244</ele>
        <time>2020-01-27T13:02:42Z</time>
      </trkpt>
      <trkpt lat="44.53787" lon="6.05204">
        <ele>772.4000244</ele>
        <time>2020-01-27T13:02:52Z</time>
      </trkpt>
      <trkpt lat="44.53785" lon="6.05265">
        <ele>771</ele>
        <time>2020-01-27T13:03:04Z</time>
      </trkpt>
      <trkpt lat="44.53759" lon="6.05309">
        <ele>769.5999756</ele>
        <time>2020-01-27T13:03:15Z</time>
      </trkpt>
      <trkpt lat="44.53759" lon="6.05314">
        <ele>769.4000244</ele>
        <time>2020-01-27T13:03:16Z</time>
      </trkpt>
      <trkpt lat="44.53759" lon="6.05319">
        <ele>769.4000244</ele>
        <time>2020-01-27T13:03:17Z</time>
      </trkpt>
      <trkpt lat="44.5376" lon="6.05324">
        <ele>769</ele>
        <time>2020-01-27T13:03:18Z</time>
      </trkpt>
      <trkpt lat="44.53761" lon="6.05329">
        <ele>768.7999878</ele>
        <time>2020-01-27T13:03:19Z</time>
      </trkpt>
      <trkpt lat="44.53763" lon="6.05333">
        <ele>768.7999878</ele>
        <time>2020-01-27T13:03:20Z</time>
      </trkpt>
      <trkpt lat="44.53765" lon="6.05337">
        <ele>768.5999756</ele>
        <time>2020-01-27T13:03:21Z</time>
      </trkpt>
      <trkpt lat="44.53821" lon="6.05409">
        <ele>766.2000122</ele>
        <time>2020-01-27T13:03:38Z</time>
      </trkpt>
      <trkpt lat="44.53875" lon="6.05474">
        <ele>763.2000122</ele>
        <time>2020-01-27T13:03:52Z</time>
      </trkpt>
      <trkpt lat="44.53935" lon="6.05545">
        <ele>760.4000244</ele>
        <time>2020-01-27T13:04:08Z</time>
      </trkpt>
      <trkpt lat="44.53978" lon="6.05605">
        <ele>757.4000244</ele>
        <time>2020-01-27T13:04:21Z</time>
      </trkpt>
      <trkpt lat="44.53981" lon="6.05609">
        <ele>757.4000244</ele>
        <time>2020-01-27T13:04:22Z</time>
      </trkpt>
      <trkpt lat="44.53985" lon="6.05613">
        <ele>757.2000122</ele>
        <time>2020-01-27T13:04:23Z</time>
      </trkpt>
      <trkpt lat="44.54033" lon="6.05671">
        <ele>754.5999756</ele>
        <time>2020-01-27T13:04:37Z</time>
      </trkpt>
      <trkpt lat="44.54068" lon="6.05715">
        <ele>752.2000122</ele>
        <time>2020-01-27T13:04:49Z</time>
      </trkpt>
      <trkpt lat="44.54107" lon="6.05763">
        <ele>750.2000122</ele>
        <time>2020-01-27T13:05:00Z</time>
      </trkpt>
      <trkpt lat="44.54137" lon="6.05794">
        <ele>748.5999756</ele>
        <time>2020-01-27T13:05:09Z</time>
      </trkpt>
      <trkpt lat="44.54183" lon="6.0585">
        <ele>747</ele>
        <time>2020-01-27T13:05:22Z</time>
      </trkpt>
      <trkpt lat="44.54192" lon="6.0586">
        <ele>746.7999878</ele>
        <time>2020-01-27T13:05:24Z</time>
      </trkpt>
      <trkpt lat="44.54196" lon="6.05865">
        <ele>746.5999756</ele>
        <time>2020-01-27T13:05:25Z</time>
      </trkpt>
      <trkpt lat="44.5424" lon="6.0592">
        <ele>743.5999756</ele>
        <time>2020-01-27T13:05:36Z</time>
      </trkpt>
      <trkpt lat="44.54272" lon="6.05963">
        <ele>742.4000244</ele>
        <time>2020-01-27T13:05:45Z</time>
      </trkpt>
      <trkpt lat="44.5431" lon="6.06009">
        <ele>741.2000122</ele>
        <time>2020-01-27T13:05:55Z</time>
      </trkpt>
      <trkpt lat="44.54314" lon="6.06012">
        <ele>741.2000122</ele>
        <time>2020-01-27T13:05:56Z</time>
      </trkpt>
      <trkpt lat="44.54325" lon="6.06021">
        <ele>741.2000122</ele>
        <time>2020-01-27T13:05:59Z</time>
      </trkpt>
      <trkpt lat="44.54329" lon="6.06025">
        <ele>741.2000122</ele>
        <time>2020-01-27T13:06:00Z</time>
      </trkpt>
      <trkpt lat="44.54332" lon="6.06029">
        <ele>741.2000122</ele>
        <time>2020-01-27T13:06:01Z</time>
      </trkpt>
      <trkpt lat="44.54335" lon="6.06034">
        <ele>741.2000122</ele>
        <time>2020-01-27T13:06:02Z</time>
      </trkpt>
      <trkpt lat="44.54337" lon="6.06038">
        <ele>741.2000122</ele>
        <time>2020-01-27T13:06:03Z</time>
      </trkpt>
      <trkpt lat="44.5434" lon="6.06042">
        <ele>741.2000122</ele>
        <time>2020-01-27T13:06:04Z</time>
      </trkpt>
      <trkpt lat="44.544" lon="6.0612">
        <ele>743.5999756</ele>
        <time>2020-01-27T13:06:23Z</time>
      </trkpt>
      <trkpt lat="44.54441" lon="6.06164">
        <ele>745.7999878</ele>
        <time>2020-01-27T13:06:37Z</time>
      </trkpt>
      <trkpt lat="44.54479" lon="6.06215">
        <ele>746.4000244</ele>
        <time>2020-01-27T13:06:50Z</time>
      </trkpt>
      <trkpt lat="44.54529" lon="6.06273">
        <ele>745.7999878</ele>
        <time>2020-01-27T13:07:06Z</time>
      </trkpt>
      <trkpt lat="44.54556" lon="6.0629">
        <ele>745.4000244</ele>
        <time>2020-01-27T13:07:18Z</time>
      </trkpt>
      <trkpt lat="44.54572" lon="6.06318">
        <ele>745.7999878</ele>
        <time>2020-01-27T13:07:32Z</time>
      </trkpt>
      <trkpt lat="44.54605" lon="6.06372">
        <ele>744.7999878</ele>
        <time>2020-01-27T13:07:46Z</time>
      </trkpt>
      <trkpt lat="44.54664" lon="6.06445">
        <ele>743.5999756</ele>
        <time>2020-01-27T13:08:05Z</time>
      </trkpt>
      <trkpt lat="44.54744" lon="6.06541">
        <ele>743.2000122</ele>
        <time>2020-01-27T13:08:31Z</time>
      </trkpt>
      <trkpt lat="44.54786" lon="6.06592">
        <ele>743.7999878</ele>
        <time>2020-01-27T13:08:48Z</time>
      </trkpt>
      <trkpt lat="44.54842" lon="6.06661">
        <ele>743.7999878</ele>
        <time>2020-01-27T13:09:08Z</time>
      </trkpt>
      <trkpt lat="44.54883" lon="6.06713">
        <ele>743.5999756</ele>
        <time>2020-01-27T13:09:23Z</time>
      </trkpt>
      <trkpt lat="44.54925" lon="6.06766">
        <ele>743.2000122</ele>
        <time>2020-01-27T13:09:38Z</time>
      </trkpt>
      <trkpt lat="44.54962" lon="6.06812">
        <ele>743.2000122</ele>
        <time>2020-01-27T13:09:51Z</time>
      </trkpt>
      <trkpt lat="44.55009" lon="6.06868">
        <ele>743.2000122</ele>
        <time>2020-01-27T13:10:07Z</time>
      </trkpt>
      <trkpt lat="44.55069" lon="6.06942">
        <ele>743.2000122</ele>
        <time>2020-01-27T13:10:27Z</time>
      </trkpt>
      <trkpt lat="44.55075" lon="6.0695">
        <ele>743.2000122</ele>
        <time>2020-01-27T13:10:29Z</time>
      </trkpt>
      <trkpt lat="44.55117" lon="6.07004">
        <ele>742.7999878</ele>
        <time>2020-01-27T13:10:43Z</time>
      </trkpt>
      <trkpt lat="44.55163" lon="6.07057">
        <ele>742.2000122</ele>
        <time>2020-01-27T13:10:58Z</time>
      </trkpt>
      <trkpt lat="44.5521" lon="6.07118">
        <ele>741.5999756</ele>
        <time>2020-01-27T13:11:14Z</time>
      </trkpt>
      <trkpt lat="44.55265" lon="6.07184">
        <ele>740.5999756</ele>
        <time>2020-01-27T13:11:31Z</time>
      </trkpt>
      <trkpt lat="44.55302" lon="6.07231">
        <ele>740</ele>
        <time>2020-01-27T13:11:43Z</time>
      </trkpt>
      <trkpt lat="44.55337" lon="6.0727">
        <ele>739.7999878</ele>
        <time>2020-01-27T13:11:54Z</time>
      </trkpt>
      <trkpt lat="44.55367" lon="6.07297">
        <ele>739.4000244</ele>
        <time>2020-01-27T13:12:06Z</time>
      </trkpt>
      <trkpt lat="44.55377" lon="6.07303">
        <ele>740</ele>
        <time>2020-01-27T13:12:18Z</time>
      </trkpt>
      <trkpt lat="44.55379" lon="6.07306">
        <ele>740</ele>
        <time>2020-01-27T13:12:34Z</time>
      </trkpt>
      <trkpt lat="44.5538" lon="6.07308">
        <ele>740</ele>
        <time>2020-01-27T13:12:35Z</time>
      </trkpt>
      <trkpt lat="44.55381" lon="6.07311">
        <ele>740</ele>
        <time>2020-01-27T13:12:37Z</time>
      </trkpt>
      <trkpt lat="44.55411" lon="6.0734">
        <ele>739.5999756</ele>
        <time>2020-01-27T13:12:49Z</time>
      </trkpt>
      <trkpt lat="44.55447" lon="6.07387">
        <ele>739</ele>
        <time>2020-01-27T13:13:02Z</time>
      </trkpt>
      <trkpt lat="44.55449" lon="6.07391">
        <ele>739</ele>
        <time>2020-01-27T13:13:03Z</time>
      </trkpt>
      <trkpt lat="44.55453" lon="6.07395">
        <ele>738.7999878</ele>
        <time>2020-01-27T13:13:04Z</time>
      </trkpt>
      <trkpt lat="44.55454" lon="6.07401">
        <ele>738.5999756</ele>
        <time>2020-01-27T13:13:05Z</time>
      </trkpt>
      <trkpt lat="44.55492" lon="6.07458">
        <ele>737.5999756</ele>
        <time>2020-01-27T13:13:20Z</time>
      </trkpt>
      <trkpt lat="44.55505" lon="6.07477">
        <ele>737.5999756</ele>
        <time>2020-01-27T13:13:25Z</time>
      </trkpt>
      <trkpt lat="44.55507" lon="6.07482">
        <ele>737.4000244</ele>
        <time>2020-01-27T13:13:26Z</time>
      </trkpt>
      <trkpt lat="44.5551" lon="6.07485">
        <ele>737.4000244</ele>
        <time>2020-01-27T13:13:27Z</time>
      </trkpt>
      <trkpt lat="44.55544" lon="6.07523">
        <ele>736.5999756</ele>
        <time>2020-01-27T13:13:38Z</time>
      </trkpt>
      <trkpt lat="44.55578" lon="6.07564">
        <ele>736.7999878</ele>
        <time>2020-01-27T13:13:51Z</time>
      </trkpt>
      <trkpt lat="44.55592" lon="6.0758">
        <ele>737</ele>
        <time>2020-01-27T13:13:59Z</time>
      </trkpt>
      <trkpt lat="44.55594" lon="6.07578">
        <ele>737</ele>
        <time>2020-01-27T13:14:00Z</time>
      </trkpt>
      <trkpt lat="44.55597" lon="6.07574">
        <ele>737.2000122</ele>
        <time>2020-01-27T13:14:01Z</time>
      </trkpt>
      <trkpt lat="44.556" lon="6.07569">
        <ele>737.2000122</ele>
        <time>2020-01-27T13:14:02Z</time>
      </trkpt>
      <trkpt lat="44.55602" lon="6.07564">
        <ele>737.2000122</ele>
        <time>2020-01-27T13:14:03Z</time>
      </trkpt>
      <trkpt lat="44.55618" lon="6.07531">
        <ele>737.2000122</ele>
        <time>2020-01-27T13:14:11Z</time>
      </trkpt>
      <trkpt lat="44.55622" lon="6.0753">
        <ele>737.2000122</ele>
        <time>2020-01-27T13:14:12Z</time>
      </trkpt>
      <trkpt lat="44.55626" lon="6.0753">
        <ele>737.2000122</ele>
        <time>2020-01-27T13:14:13Z</time>
      </trkpt>
      <trkpt lat="44.5563" lon="6.07531">
        <ele>737.4000244</ele>
        <time>2020-01-27T13:14:14Z</time>
      </trkpt>
      <trkpt lat="44.55634" lon="6.07533">
        <ele>737.5999756</ele>
        <time>2020-01-27T13:14:15Z</time>
      </trkpt>
      <trkpt lat="44.55637" lon="6.07536">
        <ele>737.5999756</ele>
        <time>2020-01-27T13:14:16Z</time>
      </trkpt>
      <trkpt lat="44.55676" lon="6.07573">
        <ele>738</ele>
        <time>2020-01-27T13:14:28Z</time>
      </trkpt>
      <trkpt lat="44.55683" lon="6.07579">
        <ele>739.5999756</ele>
        <time>2020-01-27T13:14:40Z</time>
      </trkpt>
      <trkpt lat="44.55688" lon="6.07573">
        <ele>740</ele>
        <time>2020-01-27T13:14:56Z</time>
      </trkpt>
      <trkpt lat="44.55689" lon="6.07572">
        <ele>740</ele>
        <time>2020-01-27T13:14:58Z</time>
      </trkpt>
      <trkpt lat="44.5569" lon="6.0757">
        <ele>740</ele>
        <time>2020-01-27T13:14:59Z</time>
      </trkpt>
      <trkpt lat="44.55691" lon="6.07567">
        <ele>740</ele>
        <time>2020-01-27T13:15:00Z</time>
      </trkpt>
      <trkpt lat="44.55693" lon="6.07564">
        <ele>740.2000122</ele>
        <time>2020-01-27T13:15:01Z</time>
      </trkpt>
      <trkpt lat="44.55694" lon="6.0756">
        <ele>740.2000122</ele>
        <time>2020-01-27T13:15:02Z</time>
      </trkpt>
      <trkpt lat="44.55696" lon="6.07556">
        <ele>740.2000122</ele>
        <time>2020-01-27T13:15:03Z</time>
      </trkpt>
      <trkpt lat="44.5572" lon="6.07513">
        <ele>740.4000244</ele>
        <time>2020-01-27T13:15:15Z</time>
      </trkpt>
      <trkpt lat="44.55743" lon="6.07465">
        <ele>741.5999756</ele>
        <time>2020-01-27T13:15:27Z</time>
      </trkpt>
      <trkpt lat="44.55755" lon="6.07456">
        <ele>742.7999878</ele>
        <time>2020-01-27T13:15:34Z</time>
      </trkpt>
      <trkpt lat="44.55757" lon="6.07456">
        <ele>743.2000122</ele>
        <time>2020-01-27T13:15:35Z</time>
      </trkpt>
      <trkpt lat="44.55792" lon="6.07443">
        <ele>744.4000244</ele>
        <time>2020-01-27T13:15:46Z</time>
      </trkpt>
      <trkpt lat="44.55793" lon="6.07443">
        <ele>744.5999756</ele>
        <time>2020-01-27T13:15:47Z</time>
      </trkpt>
      <trkpt lat="44.55795" lon="6.07441">
        <ele>744.5999756</ele>
        <time>2020-01-27T13:15:48Z</time>
      </trkpt>
      <trkpt lat="44.55808" lon="6.07421">
        <ele>746.7999878</ele>
        <time>2020-01-27T13:16:00Z</time>
      </trkpt>
      <trkpt lat="44.55813" lon="6.07421">
        <ele>747.4000244</ele>
        <time>2020-01-27T13:16:05Z</time>
      </trkpt>
      <trkpt lat="44.55816" lon="6.07422">
        <ele>747.4000244</ele>
        <time>2020-01-27T13:16:06Z</time>
      </trkpt>
      <trkpt lat="44.55842" lon="6.07449">
        <ele>747.5999756</ele>
        <time>2020-01-27T13:16:20Z</time>
      </trkpt>
      <trkpt lat="44.55862" lon="6.07467">
        <ele>748.4000244</ele>
        <time>2020-01-27T13:16:35Z</time>
      </trkpt>
      <trkpt lat="44.5588" lon="6.07482">
        <ele>748.4000244</ele>
        <time>2020-01-27T13:16:46Z</time>
      </trkpt>
      <trkpt lat="44.55882" lon="6.07484">
        <ele>749.2000122</ele>
        <time>2020-01-27T13:17:16Z</time>
      </trkpt>
      <trkpt lat="44.55882" lon="6.07487">
        <ele>749.2000122</ele>
        <time>2020-01-27T13:17:30Z</time>
      </trkpt>
    </trkseg>
  </trk>
</gpx>